<?xml version="1.0" encoding="UTF-8" standalone="no" ?>
<gpx xmlns="http://www.topografix.com/GPX/1/1" xmlns:xsi="http://www.w3.org/2001/XMLSchema-instance" xsi:schemaLocation="http://www.topografix.com/GPX/1/1 http://www.topografix.com/GPX/1/1/gpx.xsd" version="1.1" creator="VisuGPX - https://www.visugpx.com">
  <metadata>
    <name>sentier 1000 Marches boucle-2020-10-03-153537</name>
    <desc><![CDATA[[b][i][url][img][/img][/url][/i][/b]]]></desc>
  </metadata>
  <trk>
    <name><![CDATA[MA-Rando-2020-10-03-153537]]></name>
    <trkseg>
      <trkpt lat="43.53673" lon="2.79934">
        <ele>473</ele>
        <time>2020-10-03T07:51:33Z</time>
      </trkpt>
      <trkpt lat="43.53683" lon="2.79942">
        <ele>472</ele>
        <time>2020-10-03T07:51:39Z</time>
      </trkpt>
      <trkpt lat="43.5369" lon="2.79952">
        <ele>471</ele>
        <time>2020-10-03T07:51:46Z</time>
      </trkpt>
      <trkpt lat="43.53697" lon="2.79961">
        <ele>471</ele>
        <time>2020-10-03T07:51:54Z</time>
      </trkpt>
      <trkpt lat="43.537" lon="2.79973">
        <ele>472</ele>
        <time>2020-10-03T07:52:00Z</time>
      </trkpt>
      <trkpt lat="43.53697" lon="2.79986">
        <ele>473</ele>
        <time>2020-10-03T07:52:05Z</time>
      </trkpt>
      <trkpt lat="43.53688" lon="2.79994">
        <ele>473</ele>
        <time>2020-10-03T07:52:12Z</time>
      </trkpt>
      <trkpt lat="43.53681" lon="2.80003">
        <ele>473</ele>
        <time>2020-10-03T07:52:19Z</time>
      </trkpt>
      <trkpt lat="43.53678" lon="2.80016">
        <ele>470</ele>
        <time>2020-10-03T07:52:26Z</time>
      </trkpt>
      <trkpt lat="43.53684" lon="2.80027">
        <ele>471</ele>
        <time>2020-10-03T07:52:34Z</time>
      </trkpt>
      <trkpt lat="43.53689" lon="2.80038">
        <ele>469</ele>
        <time>2020-10-03T07:52:41Z</time>
      </trkpt>
      <trkpt lat="43.53695" lon="2.8005">
        <ele>469</ele>
        <time>2020-10-03T07:52:47Z</time>
      </trkpt>
      <trkpt lat="43.537" lon="2.80061">
        <ele>466</ele>
        <time>2020-10-03T07:52:54Z</time>
      </trkpt>
      <trkpt lat="43.53705" lon="2.80072">
        <ele>468</ele>
        <time>2020-10-03T07:53:00Z</time>
      </trkpt>
      <trkpt lat="43.5371" lon="2.80083">
        <ele>471</ele>
        <time>2020-10-03T07:53:10Z</time>
      </trkpt>
      <trkpt lat="43.53718" lon="2.8009">
        <ele>467</ele>
        <time>2020-10-03T07:53:17Z</time>
      </trkpt>
      <trkpt lat="43.53727" lon="2.80096">
        <ele>466</ele>
        <time>2020-10-03T07:53:25Z</time>
      </trkpt>
      <trkpt lat="43.53737" lon="2.80101">
        <ele>460</ele>
        <time>2020-10-03T07:53:39Z</time>
      </trkpt>
      <trkpt lat="43.53742" lon="2.80112">
        <ele>463</ele>
        <time>2020-10-03T07:53:49Z</time>
      </trkpt>
      <trkpt lat="43.5375" lon="2.80126">
        <ele>461</ele>
        <time>2020-10-03T07:54:03Z</time>
      </trkpt>
      <trkpt lat="43.53755" lon="2.80138">
        <ele>461</ele>
        <time>2020-10-03T07:54:13Z</time>
      </trkpt>
      <trkpt lat="43.53759" lon="2.80149">
        <ele>463</ele>
        <time>2020-10-03T07:54:25Z</time>
      </trkpt>
      <trkpt lat="43.53767" lon="2.80156">
        <ele>456</ele>
        <time>2020-10-03T07:55:33Z</time>
      </trkpt>
      <trkpt lat="43.53772" lon="2.80174">
        <ele>465</ele>
        <time>2020-10-03T07:56:09Z</time>
      </trkpt>
      <trkpt lat="43.53772" lon="2.80187">
        <ele>471</ele>
        <time>2020-10-03T07:56:18Z</time>
      </trkpt>
      <trkpt lat="43.53776" lon="2.80199">
        <ele>472</ele>
        <time>2020-10-03T07:56:26Z</time>
      </trkpt>
      <trkpt lat="43.53785" lon="2.80197">
        <ele>470</ele>
        <time>2020-10-03T07:56:31Z</time>
      </trkpt>
      <trkpt lat="43.53794" lon="2.80191">
        <ele>473</ele>
        <time>2020-10-03T07:56:51Z</time>
      </trkpt>
      <trkpt lat="43.53803" lon="2.80185">
        <ele>473</ele>
        <time>2020-10-03T07:57:07Z</time>
      </trkpt>
      <trkpt lat="43.53811" lon="2.80196">
        <ele>478</ele>
        <time>2020-10-03T07:57:13Z</time>
      </trkpt>
      <trkpt lat="43.53815" lon="2.8021">
        <ele>481</ele>
        <time>2020-10-03T07:57:18Z</time>
      </trkpt>
      <trkpt lat="43.53818" lon="2.80223">
        <ele>476</ele>
        <time>2020-10-03T07:57:28Z</time>
      </trkpt>
      <trkpt lat="43.53825" lon="2.80232">
        <ele>475</ele>
        <time>2020-10-03T07:57:38Z</time>
      </trkpt>
      <trkpt lat="43.53832" lon="2.80241">
        <ele>477</ele>
        <time>2020-10-03T07:57:49Z</time>
      </trkpt>
      <trkpt lat="43.53839" lon="2.80249">
        <ele>476</ele>
        <time>2020-10-03T07:57:59Z</time>
      </trkpt>
      <trkpt lat="43.53847" lon="2.80258">
        <ele>478</ele>
        <time>2020-10-03T07:58:09Z</time>
      </trkpt>
      <trkpt lat="43.53852" lon="2.80268">
        <ele>479</ele>
        <time>2020-10-03T07:58:19Z</time>
      </trkpt>
      <trkpt lat="43.53857" lon="2.8028">
        <ele>476</ele>
        <time>2020-10-03T07:58:28Z</time>
      </trkpt>
      <trkpt lat="43.53864" lon="2.80289">
        <ele>477</ele>
        <time>2020-10-03T07:58:38Z</time>
      </trkpt>
      <trkpt lat="43.53871" lon="2.80297">
        <ele>476</ele>
        <time>2020-10-03T07:58:46Z</time>
      </trkpt>
      <trkpt lat="43.53878" lon="2.80308">
        <ele>476</ele>
        <time>2020-10-03T07:58:55Z</time>
      </trkpt>
      <trkpt lat="43.53884" lon="2.80318">
        <ele>480</ele>
        <time>2020-10-03T07:59:02Z</time>
      </trkpt>
      <trkpt lat="43.5389" lon="2.80328">
        <ele>477</ele>
        <time>2020-10-03T07:59:09Z</time>
      </trkpt>
      <trkpt lat="43.53895" lon="2.8034">
        <ele>479</ele>
        <time>2020-10-03T07:59:19Z</time>
      </trkpt>
      <trkpt lat="43.53905" lon="2.80337">
        <ele>479</ele>
        <time>2020-10-03T07:59:28Z</time>
      </trkpt>
      <trkpt lat="43.53913" lon="2.80329">
        <ele>482</ele>
        <time>2020-10-03T07:59:36Z</time>
      </trkpt>
      <trkpt lat="43.53917" lon="2.80317">
        <ele>483</ele>
        <time>2020-10-03T07:59:43Z</time>
      </trkpt>
      <trkpt lat="43.53919" lon="2.80303">
        <ele>484</ele>
        <time>2020-10-03T07:59:50Z</time>
      </trkpt>
      <trkpt lat="43.53919" lon="2.80289">
        <ele>487</ele>
        <time>2020-10-03T07:59:57Z</time>
      </trkpt>
      <trkpt lat="43.53918" lon="2.80275">
        <ele>483</ele>
        <time>2020-10-03T08:00:05Z</time>
      </trkpt>
      <trkpt lat="43.53918" lon="2.80262">
        <ele>483</ele>
        <time>2020-10-03T08:00:14Z</time>
      </trkpt>
      <trkpt lat="43.5392" lon="2.80249">
        <ele>486</ele>
        <time>2020-10-03T08:00:26Z</time>
      </trkpt>
      <trkpt lat="43.53926" lon="2.80239">
        <ele>489</ele>
        <time>2020-10-03T08:00:37Z</time>
      </trkpt>
      <trkpt lat="43.53935" lon="2.80233">
        <ele>488</ele>
        <time>2020-10-03T08:00:49Z</time>
      </trkpt>
      <trkpt lat="43.53941" lon="2.80224">
        <ele>490</ele>
        <time>2020-10-03T08:01:01Z</time>
      </trkpt>
      <trkpt lat="43.53945" lon="2.80212">
        <ele>499</ele>
        <time>2020-10-03T08:01:12Z</time>
      </trkpt>
      <trkpt lat="43.53949" lon="2.802">
        <ele>500</ele>
        <time>2020-10-03T08:01:25Z</time>
      </trkpt>
      <trkpt lat="43.53952" lon="2.80187">
        <ele>500</ele>
        <time>2020-10-03T08:01:36Z</time>
      </trkpt>
      <trkpt lat="43.53955" lon="2.80174">
        <ele>507</ele>
        <time>2020-10-03T08:01:47Z</time>
      </trkpt>
      <trkpt lat="43.53955" lon="2.80162">
        <ele>510</ele>
        <time>2020-10-03T08:01:59Z</time>
      </trkpt>
      <trkpt lat="43.53959" lon="2.8015">
        <ele>509</ele>
        <time>2020-10-03T08:02:17Z</time>
      </trkpt>
      <trkpt lat="43.53969" lon="2.80149">
        <ele>512</ele>
        <time>2020-10-03T08:02:39Z</time>
      </trkpt>
      <trkpt lat="43.53978" lon="2.80146">
        <ele>518</ele>
        <time>2020-10-03T08:02:51Z</time>
      </trkpt>
      <trkpt lat="43.53986" lon="2.80138">
        <ele>513</ele>
        <time>2020-10-03T08:03:01Z</time>
      </trkpt>
      <trkpt lat="43.53991" lon="2.80127">
        <ele>515</ele>
        <time>2020-10-03T08:03:10Z</time>
      </trkpt>
      <trkpt lat="43.53996" lon="2.80115">
        <ele>517</ele>
        <time>2020-10-03T08:03:18Z</time>
      </trkpt>
      <trkpt lat="43.54001" lon="2.80103">
        <ele>520</ele>
        <time>2020-10-03T08:03:28Z</time>
      </trkpt>
      <trkpt lat="43.54" lon="2.80089">
        <ele>516</ele>
        <time>2020-10-03T08:03:39Z</time>
      </trkpt>
      <trkpt lat="43.54" lon="2.80076">
        <ele>519</ele>
        <time>2020-10-03T08:03:52Z</time>
      </trkpt>
      <trkpt lat="43.54004" lon="2.80064">
        <ele>518</ele>
        <time>2020-10-03T08:04:16Z</time>
      </trkpt>
      <trkpt lat="43.53997" lon="2.80076">
        <ele>518</ele>
        <time>2020-10-03T08:05:00Z</time>
      </trkpt>
      <trkpt lat="43.53996" lon="2.80063">
        <ele>522</ele>
        <time>2020-10-03T08:05:48Z</time>
      </trkpt>
      <trkpt lat="43.53996" lon="2.80047">
        <ele>525</ele>
        <time>2020-10-03T08:05:54Z</time>
      </trkpt>
      <trkpt lat="43.53997" lon="2.80032">
        <ele>534</ele>
        <time>2020-10-03T08:06:01Z</time>
      </trkpt>
      <trkpt lat="43.54" lon="2.8002">
        <ele>534</ele>
        <time>2020-10-03T08:06:08Z</time>
      </trkpt>
      <trkpt lat="43.54004" lon="2.80007">
        <ele>538</ele>
        <time>2020-10-03T08:06:17Z</time>
      </trkpt>
      <trkpt lat="43.54007" lon="2.79994">
        <ele>539</ele>
        <time>2020-10-03T08:06:29Z</time>
      </trkpt>
      <trkpt lat="43.5401" lon="2.79982">
        <ele>550</ele>
        <time>2020-10-03T08:06:55Z</time>
      </trkpt>
      <trkpt lat="43.54013" lon="2.79969">
        <ele>548</ele>
        <time>2020-10-03T08:07:08Z</time>
      </trkpt>
      <trkpt lat="43.54018" lon="2.79958">
        <ele>553</ele>
        <time>2020-10-03T08:07:19Z</time>
      </trkpt>
      <trkpt lat="43.54022" lon="2.79947">
        <ele>560</ele>
        <time>2020-10-03T08:07:33Z</time>
      </trkpt>
      <trkpt lat="43.54027" lon="2.79936">
        <ele>562</ele>
        <time>2020-10-03T08:07:46Z</time>
      </trkpt>
      <trkpt lat="43.5403" lon="2.79923">
        <ele>565</ele>
        <time>2020-10-03T08:08:05Z</time>
      </trkpt>
      <trkpt lat="43.54038" lon="2.79916">
        <ele>565</ele>
        <time>2020-10-03T08:08:46Z</time>
      </trkpt>
      <trkpt lat="43.54038" lon="2.79903">
        <ele>570</ele>
        <time>2020-10-03T08:08:57Z</time>
      </trkpt>
      <trkpt lat="43.54039" lon="2.79891">
        <ele>572</ele>
        <time>2020-10-03T08:09:08Z</time>
      </trkpt>
      <trkpt lat="43.54037" lon="2.79877">
        <ele>575</ele>
        <time>2020-10-03T08:09:20Z</time>
      </trkpt>
      <trkpt lat="43.5403" lon="2.79868">
        <ele>575</ele>
        <time>2020-10-03T08:09:41Z</time>
      </trkpt>
      <trkpt lat="43.54039" lon="2.79861">
        <ele>578</ele>
        <time>2020-10-03T08:11:49Z</time>
      </trkpt>
      <trkpt lat="43.54047" lon="2.79855">
        <ele>578</ele>
        <time>2020-10-03T08:11:58Z</time>
      </trkpt>
      <trkpt lat="43.54055" lon="2.79849">
        <ele>583</ele>
        <time>2020-10-03T08:12:05Z</time>
      </trkpt>
      <trkpt lat="43.54065" lon="2.79845">
        <ele>587</ele>
        <time>2020-10-03T08:12:13Z</time>
      </trkpt>
      <trkpt lat="43.54075" lon="2.79844">
        <ele>589</ele>
        <time>2020-10-03T08:12:23Z</time>
      </trkpt>
      <trkpt lat="43.54084" lon="2.7984">
        <ele>588</ele>
        <time>2020-10-03T08:12:37Z</time>
      </trkpt>
      <trkpt lat="43.54093" lon="2.79838">
        <ele>592</ele>
        <time>2020-10-03T08:12:48Z</time>
      </trkpt>
      <trkpt lat="43.54101" lon="2.79851">
        <ele>590</ele>
        <time>2020-10-03T08:13:34Z</time>
      </trkpt>
      <trkpt lat="43.54104" lon="2.79868">
        <ele>595</ele>
        <time>2020-10-03T08:14:03Z</time>
      </trkpt>
      <trkpt lat="43.54103" lon="2.79855">
        <ele>583</ele>
        <time>2020-10-03T08:15:21Z</time>
      </trkpt>
      <trkpt lat="43.54097" lon="2.79844">
        <ele>582</ele>
        <time>2020-10-03T08:15:30Z</time>
      </trkpt>
      <trkpt lat="43.54095" lon="2.79832">
        <ele>588</ele>
        <time>2020-10-03T08:15:46Z</time>
      </trkpt>
      <trkpt lat="43.54095" lon="2.79819">
        <ele>588</ele>
        <time>2020-10-03T08:15:56Z</time>
      </trkpt>
      <trkpt lat="43.54099" lon="2.79807">
        <ele>587</ele>
        <time>2020-10-03T08:16:05Z</time>
      </trkpt>
      <trkpt lat="43.54107" lon="2.798">
        <ele>590</ele>
        <time>2020-10-03T08:16:12Z</time>
      </trkpt>
      <trkpt lat="43.54116" lon="2.79796">
        <ele>588</ele>
        <time>2020-10-03T08:16:20Z</time>
      </trkpt>
      <trkpt lat="43.54125" lon="2.7979">
        <ele>586</ele>
        <time>2020-10-03T08:16:28Z</time>
      </trkpt>
      <trkpt lat="43.54136" lon="2.79786">
        <ele>587</ele>
        <time>2020-10-03T08:16:36Z</time>
      </trkpt>
      <trkpt lat="43.54145" lon="2.79783">
        <ele>591</ele>
        <time>2020-10-03T08:16:46Z</time>
      </trkpt>
      <trkpt lat="43.54155" lon="2.7978">
        <ele>588</ele>
        <time>2020-10-03T08:16:56Z</time>
      </trkpt>
      <trkpt lat="43.54164" lon="2.79773">
        <ele>587</ele>
        <time>2020-10-03T08:17:06Z</time>
      </trkpt>
      <trkpt lat="43.54172" lon="2.79763">
        <ele>586</ele>
        <time>2020-10-03T08:17:17Z</time>
      </trkpt>
      <trkpt lat="43.54182" lon="2.7976">
        <ele>588</ele>
        <time>2020-10-03T08:17:26Z</time>
      </trkpt>
      <trkpt lat="43.54191" lon="2.79755">
        <ele>585</ele>
        <time>2020-10-03T08:17:36Z</time>
      </trkpt>
      <trkpt lat="43.542" lon="2.79752">
        <ele>583</ele>
        <time>2020-10-03T08:17:45Z</time>
      </trkpt>
      <trkpt lat="43.54211" lon="2.79752">
        <ele>580</ele>
        <time>2020-10-03T08:17:55Z</time>
      </trkpt>
      <trkpt lat="43.54221" lon="2.7975">
        <ele>584</ele>
        <time>2020-10-03T08:18:04Z</time>
      </trkpt>
      <trkpt lat="43.54229" lon="2.79745">
        <ele>578</ele>
        <time>2020-10-03T08:18:15Z</time>
      </trkpt>
      <trkpt lat="43.54235" lon="2.79734">
        <ele>578</ele>
        <time>2020-10-03T08:18:27Z</time>
      </trkpt>
      <trkpt lat="43.54241" lon="2.79723">
        <ele>574</ele>
        <time>2020-10-03T08:18:42Z</time>
      </trkpt>
      <trkpt lat="43.54253" lon="2.79714">
        <ele>566</ele>
        <time>2020-10-03T08:19:22Z</time>
      </trkpt>
      <trkpt lat="43.54255" lon="2.79702">
        <ele>561</ele>
        <time>2020-10-03T08:19:34Z</time>
      </trkpt>
      <trkpt lat="43.5426" lon="2.7969">
        <ele>563</ele>
        <time>2020-10-03T08:19:44Z</time>
      </trkpt>
      <trkpt lat="43.5427" lon="2.79689">
        <ele>559</ele>
        <time>2020-10-03T08:19:55Z</time>
      </trkpt>
      <trkpt lat="43.54277" lon="2.79698">
        <ele>555</ele>
        <time>2020-10-03T08:20:07Z</time>
      </trkpt>
      <trkpt lat="43.54289" lon="2.79706">
        <ele>551</ele>
        <time>2020-10-03T08:20:38Z</time>
      </trkpt>
      <trkpt lat="43.54297" lon="2.79713">
        <ele>550</ele>
        <time>2020-10-03T08:20:57Z</time>
      </trkpt>
      <trkpt lat="43.54301" lon="2.79724">
        <ele>553</ele>
        <time>2020-10-03T08:21:16Z</time>
      </trkpt>
      <trkpt lat="43.54312" lon="2.7972">
        <ele>567</ele>
        <time>2020-10-03T08:22:12Z</time>
      </trkpt>
      <trkpt lat="43.5432" lon="2.79713">
        <ele>563</ele>
        <time>2020-10-03T08:22:25Z</time>
      </trkpt>
      <trkpt lat="43.54328" lon="2.79704">
        <ele>567</ele>
        <time>2020-10-03T08:22:38Z</time>
      </trkpt>
      <trkpt lat="43.54339" lon="2.79713">
        <ele>564</ele>
        <time>2020-10-03T08:23:18Z</time>
      </trkpt>
      <trkpt lat="43.54342" lon="2.79725">
        <ele>565</ele>
        <time>2020-10-03T08:23:48Z</time>
      </trkpt>
      <trkpt lat="43.54348" lon="2.79734">
        <ele>570</ele>
        <time>2020-10-03T08:24:23Z</time>
      </trkpt>
      <trkpt lat="43.54355" lon="2.79744">
        <ele>575</ele>
        <time>2020-10-03T08:24:36Z</time>
      </trkpt>
      <trkpt lat="43.54363" lon="2.79751">
        <ele>579</ele>
        <time>2020-10-03T08:24:54Z</time>
      </trkpt>
      <trkpt lat="43.54374" lon="2.79755">
        <ele>582</ele>
        <time>2020-10-03T08:25:38Z</time>
      </trkpt>
      <trkpt lat="43.54382" lon="2.79762">
        <ele>587</ele>
        <time>2020-10-03T08:25:58Z</time>
      </trkpt>
      <trkpt lat="43.54391" lon="2.79764">
        <ele>592</ele>
        <time>2020-10-03T08:26:19Z</time>
      </trkpt>
      <trkpt lat="43.544" lon="2.79771">
        <ele>593</ele>
        <time>2020-10-03T08:26:30Z</time>
      </trkpt>
      <trkpt lat="43.54408" lon="2.79777">
        <ele>599</ele>
        <time>2020-10-03T08:26:41Z</time>
      </trkpt>
      <trkpt lat="43.54417" lon="2.79781">
        <ele>600</ele>
        <time>2020-10-03T08:26:53Z</time>
      </trkpt>
      <trkpt lat="43.54424" lon="2.7979">
        <ele>598</ele>
        <time>2020-10-03T08:27:09Z</time>
      </trkpt>
      <trkpt lat="43.54429" lon="2.798">
        <ele>596</ele>
        <time>2020-10-03T08:27:29Z</time>
      </trkpt>
      <trkpt lat="43.54435" lon="2.79811">
        <ele>610</ele>
        <time>2020-10-03T08:28:09Z</time>
      </trkpt>
      <trkpt lat="43.54443" lon="2.79824">
        <ele>616</ele>
        <time>2020-10-03T08:29:02Z</time>
      </trkpt>
      <trkpt lat="43.54441" lon="2.79837">
        <ele>619</ele>
        <time>2020-10-03T08:29:16Z</time>
      </trkpt>
      <trkpt lat="43.54434" lon="2.79846">
        <ele>620</ele>
        <time>2020-10-03T08:29:30Z</time>
      </trkpt>
      <trkpt lat="43.54428" lon="2.79856">
        <ele>629</ele>
        <time>2020-10-03T08:29:42Z</time>
      </trkpt>
      <trkpt lat="43.54417" lon="2.79862">
        <ele>637</ele>
        <time>2020-10-03T08:30:07Z</time>
      </trkpt>
      <trkpt lat="43.54425" lon="2.79854">
        <ele>637</ele>
        <time>2020-10-03T08:30:27Z</time>
      </trkpt>
      <trkpt lat="43.54416" lon="2.7986">
        <ele>646</ele>
        <time>2020-10-03T08:31:12Z</time>
      </trkpt>
      <trkpt lat="43.54426" lon="2.79854">
        <ele>651</ele>
        <time>2020-10-03T08:34:36Z</time>
      </trkpt>
      <trkpt lat="43.54435" lon="2.79849">
        <ele>648</ele>
        <time>2020-10-03T08:34:41Z</time>
      </trkpt>
      <trkpt lat="43.54445" lon="2.79844">
        <ele>648</ele>
        <time>2020-10-03T08:34:46Z</time>
      </trkpt>
      <trkpt lat="43.54456" lon="2.79839">
        <ele>647</ele>
        <time>2020-10-03T08:34:54Z</time>
      </trkpt>
      <trkpt lat="43.54464" lon="2.79832">
        <ele>647</ele>
        <time>2020-10-03T08:35:01Z</time>
      </trkpt>
      <trkpt lat="43.54473" lon="2.79826">
        <ele>646</ele>
        <time>2020-10-03T08:35:08Z</time>
      </trkpt>
      <trkpt lat="43.54482" lon="2.7982">
        <ele>642</ele>
        <time>2020-10-03T08:35:18Z</time>
      </trkpt>
      <trkpt lat="43.54489" lon="2.7981">
        <ele>640</ele>
        <time>2020-10-03T08:35:26Z</time>
      </trkpt>
      <trkpt lat="43.54496" lon="2.79801">
        <ele>636</ele>
        <time>2020-10-03T08:35:33Z</time>
      </trkpt>
      <trkpt lat="43.54504" lon="2.79793">
        <ele>635</ele>
        <time>2020-10-03T08:35:40Z</time>
      </trkpt>
      <trkpt lat="43.54514" lon="2.79787">
        <ele>633</ele>
        <time>2020-10-03T08:35:48Z</time>
      </trkpt>
      <trkpt lat="43.54522" lon="2.79783">
        <ele>631</ele>
        <time>2020-10-03T08:35:55Z</time>
      </trkpt>
      <trkpt lat="43.54531" lon="2.79776">
        <ele>629</ele>
        <time>2020-10-03T08:36:03Z</time>
      </trkpt>
      <trkpt lat="43.54539" lon="2.79767">
        <ele>628</ele>
        <time>2020-10-03T08:36:11Z</time>
      </trkpt>
      <trkpt lat="43.54546" lon="2.79757">
        <ele>630</ele>
        <time>2020-10-03T08:36:19Z</time>
      </trkpt>
      <trkpt lat="43.54551" lon="2.79746">
        <ele>631</ele>
        <time>2020-10-03T08:36:26Z</time>
      </trkpt>
      <trkpt lat="43.54556" lon="2.79734">
        <ele>634</ele>
        <time>2020-10-03T08:36:33Z</time>
      </trkpt>
      <trkpt lat="43.54561" lon="2.79721">
        <ele>636</ele>
        <time>2020-10-03T08:36:41Z</time>
      </trkpt>
      <trkpt lat="43.54566" lon="2.79711">
        <ele>636</ele>
        <time>2020-10-03T08:36:47Z</time>
      </trkpt>
      <trkpt lat="43.54572" lon="2.797">
        <ele>635</ele>
        <time>2020-10-03T08:36:55Z</time>
      </trkpt>
      <trkpt lat="43.54575" lon="2.79687">
        <ele>636</ele>
        <time>2020-10-03T08:37:03Z</time>
      </trkpt>
      <trkpt lat="43.54579" lon="2.79675">
        <ele>640</ele>
        <time>2020-10-03T08:37:11Z</time>
      </trkpt>
      <trkpt lat="43.54583" lon="2.79664">
        <ele>638</ele>
        <time>2020-10-03T08:37:20Z</time>
      </trkpt>
      <trkpt lat="43.54585" lon="2.7965">
        <ele>637</ele>
        <time>2020-10-03T08:37:29Z</time>
      </trkpt>
      <trkpt lat="43.5459" lon="2.79638">
        <ele>640</ele>
        <time>2020-10-03T08:37:38Z</time>
      </trkpt>
      <trkpt lat="43.54593" lon="2.79626">
        <ele>642</ele>
        <time>2020-10-03T08:37:46Z</time>
      </trkpt>
      <trkpt lat="43.54595" lon="2.79614">
        <ele>644</ele>
        <time>2020-10-03T08:37:54Z</time>
      </trkpt>
      <trkpt lat="43.54594" lon="2.796">
        <ele>642</ele>
        <time>2020-10-03T08:38:02Z</time>
      </trkpt>
      <trkpt lat="43.54591" lon="2.79587">
        <ele>637</ele>
        <time>2020-10-03T08:38:11Z</time>
      </trkpt>
      <trkpt lat="43.5459" lon="2.79573">
        <ele>640</ele>
        <time>2020-10-03T08:38:20Z</time>
      </trkpt>
      <trkpt lat="43.54593" lon="2.79559">
        <ele>642</ele>
        <time>2020-10-03T08:38:28Z</time>
      </trkpt>
      <trkpt lat="43.54596" lon="2.79547">
        <ele>641</ele>
        <time>2020-10-03T08:38:36Z</time>
      </trkpt>
      <trkpt lat="43.54599" lon="2.79533">
        <ele>639</ele>
        <time>2020-10-03T08:38:43Z</time>
      </trkpt>
      <trkpt lat="43.54602" lon="2.7952">
        <ele>637</ele>
        <time>2020-10-03T08:38:51Z</time>
      </trkpt>
      <trkpt lat="43.54605" lon="2.79508">
        <ele>639</ele>
        <time>2020-10-03T08:38:58Z</time>
      </trkpt>
      <trkpt lat="43.54607" lon="2.79495">
        <ele>640</ele>
        <time>2020-10-03T08:39:06Z</time>
      </trkpt>
      <trkpt lat="43.54608" lon="2.79482">
        <ele>637</ele>
        <time>2020-10-03T08:39:14Z</time>
      </trkpt>
      <trkpt lat="43.54607" lon="2.79469">
        <ele>635</ele>
        <time>2020-10-03T08:39:23Z</time>
      </trkpt>
      <trkpt lat="43.54607" lon="2.79456">
        <ele>634</ele>
        <time>2020-10-03T08:39:31Z</time>
      </trkpt>
      <trkpt lat="43.54605" lon="2.79442">
        <ele>636</ele>
        <time>2020-10-03T08:39:38Z</time>
      </trkpt>
      <trkpt lat="43.54606" lon="2.79429">
        <ele>637</ele>
        <time>2020-10-03T08:39:46Z</time>
      </trkpt>
      <trkpt lat="43.54608" lon="2.79416">
        <ele>642</ele>
        <time>2020-10-03T08:39:55Z</time>
      </trkpt>
      <trkpt lat="43.54605" lon="2.79404">
        <ele>645</ele>
        <time>2020-10-03T08:40:05Z</time>
      </trkpt>
      <trkpt lat="43.54602" lon="2.79391">
        <ele>644</ele>
        <time>2020-10-03T08:40:13Z</time>
      </trkpt>
      <trkpt lat="43.54598" lon="2.79377">
        <ele>645</ele>
        <time>2020-10-03T08:40:21Z</time>
      </trkpt>
      <trkpt lat="43.54598" lon="2.79363">
        <ele>635</ele>
        <time>2020-10-03T08:40:29Z</time>
      </trkpt>
      <trkpt lat="43.54599" lon="2.7935">
        <ele>639</ele>
        <time>2020-10-03T08:40:36Z</time>
      </trkpt>
      <trkpt lat="43.54605" lon="2.79338">
        <ele>639</ele>
        <time>2020-10-03T08:40:44Z</time>
      </trkpt>
      <trkpt lat="43.5461" lon="2.79327">
        <ele>641</ele>
        <time>2020-10-03T08:40:51Z</time>
      </trkpt>
      <trkpt lat="43.54614" lon="2.79314">
        <ele>641</ele>
        <time>2020-10-03T08:40:59Z</time>
      </trkpt>
      <trkpt lat="43.54614" lon="2.793">
        <ele>643</ele>
        <time>2020-10-03T08:41:07Z</time>
      </trkpt>
      <trkpt lat="43.54624" lon="2.7929">
        <ele>644</ele>
        <time>2020-10-03T08:41:45Z</time>
      </trkpt>
      <trkpt lat="43.54631" lon="2.79282">
        <ele>645</ele>
        <time>2020-10-03T08:41:56Z</time>
      </trkpt>
      <trkpt lat="43.54635" lon="2.79263">
        <ele>643</ele>
        <time>2020-10-03T08:42:15Z</time>
      </trkpt>
      <trkpt lat="43.54639" lon="2.79251">
        <ele>643</ele>
        <time>2020-10-03T08:42:24Z</time>
      </trkpt>
      <trkpt lat="43.54644" lon="2.7924">
        <ele>651</ele>
        <time>2020-10-03T08:42:33Z</time>
      </trkpt>
      <trkpt lat="43.54657" lon="2.79236">
        <ele>657</ele>
        <time>2020-10-03T08:42:53Z</time>
      </trkpt>
      <trkpt lat="43.54665" lon="2.7923">
        <ele>659</ele>
        <time>2020-10-03T08:43:13Z</time>
      </trkpt>
      <trkpt lat="43.54677" lon="2.7922">
        <ele>652</ele>
        <time>2020-10-03T08:43:37Z</time>
      </trkpt>
      <trkpt lat="43.54684" lon="2.79213">
        <ele>652</ele>
        <time>2020-10-03T08:43:47Z</time>
      </trkpt>
      <trkpt lat="43.54693" lon="2.79207">
        <ele>656</ele>
        <time>2020-10-03T08:43:57Z</time>
      </trkpt>
      <trkpt lat="43.54703" lon="2.7921">
        <ele>656</ele>
        <time>2020-10-03T08:44:10Z</time>
      </trkpt>
      <trkpt lat="43.54711" lon="2.79206">
        <ele>656</ele>
        <time>2020-10-03T08:44:25Z</time>
      </trkpt>
      <trkpt lat="43.5472" lon="2.792">
        <ele>656</ele>
        <time>2020-10-03T08:44:39Z</time>
      </trkpt>
      <trkpt lat="43.5471" lon="2.79202">
        <ele>657</ele>
        <time>2020-10-03T08:45:01Z</time>
      </trkpt>
      <trkpt lat="43.54721" lon="2.7921">
        <ele>672</ele>
        <time>2020-10-03T08:45:37Z</time>
      </trkpt>
      <trkpt lat="43.5473" lon="2.79211">
        <ele>672</ele>
        <time>2020-10-03T08:45:47Z</time>
      </trkpt>
      <trkpt lat="43.54738" lon="2.79215">
        <ele>674</ele>
        <time>2020-10-03T08:46:01Z</time>
      </trkpt>
      <trkpt lat="43.54748" lon="2.79215">
        <ele>669</ele>
        <time>2020-10-03T08:46:28Z</time>
      </trkpt>
      <trkpt lat="43.54756" lon="2.79207">
        <ele>666</ele>
        <time>2020-10-03T08:50:02Z</time>
      </trkpt>
      <trkpt lat="43.54763" lon="2.79216">
        <ele>667</ele>
        <time>2020-10-03T08:55:39Z</time>
      </trkpt>
      <trkpt lat="43.54772" lon="2.79222">
        <ele>665</ele>
        <time>2020-10-03T08:55:54Z</time>
      </trkpt>
      <trkpt lat="43.54778" lon="2.79231">
        <ele>671</ele>
        <time>2020-10-03T08:56:17Z</time>
      </trkpt>
      <trkpt lat="43.54784" lon="2.79242">
        <ele>675</ele>
        <time>2020-10-03T08:56:28Z</time>
      </trkpt>
      <trkpt lat="43.54787" lon="2.79255">
        <ele>676</ele>
        <time>2020-10-03T08:56:40Z</time>
      </trkpt>
      <trkpt lat="43.54793" lon="2.79266">
        <ele>678</ele>
        <time>2020-10-03T08:56:51Z</time>
      </trkpt>
      <trkpt lat="43.54795" lon="2.79279">
        <ele>676</ele>
        <time>2020-10-03T08:57:03Z</time>
      </trkpt>
      <trkpt lat="43.54796" lon="2.79292">
        <ele>680</ele>
        <time>2020-10-03T08:57:16Z</time>
      </trkpt>
      <trkpt lat="43.54803" lon="2.79301">
        <ele>680</ele>
        <time>2020-10-03T08:57:28Z</time>
      </trkpt>
      <trkpt lat="43.54812" lon="2.79301">
        <ele>682</ele>
        <time>2020-10-03T08:57:40Z</time>
      </trkpt>
      <trkpt lat="43.54813" lon="2.79313">
        <ele>688</ele>
        <time>2020-10-03T08:58:15Z</time>
      </trkpt>
      <trkpt lat="43.54809" lon="2.79326">
        <ele>692</ele>
        <time>2020-10-03T08:58:26Z</time>
      </trkpt>
      <trkpt lat="43.54812" lon="2.79338">
        <ele>690</ele>
        <time>2020-10-03T08:59:06Z</time>
      </trkpt>
      <trkpt lat="43.54816" lon="2.7935">
        <ele>688</ele>
        <time>2020-10-03T08:59:36Z</time>
      </trkpt>
      <trkpt lat="43.54821" lon="2.79362">
        <ele>688</ele>
        <time>2020-10-03T09:00:25Z</time>
      </trkpt>
      <trkpt lat="43.54828" lon="2.79371">
        <ele>689</ele>
        <time>2020-10-03T09:00:38Z</time>
      </trkpt>
      <trkpt lat="43.54831" lon="2.79383">
        <ele>697</ele>
        <time>2020-10-03T09:00:52Z</time>
      </trkpt>
      <trkpt lat="43.54831" lon="2.79397">
        <ele>703</ele>
        <time>2020-10-03T09:01:04Z</time>
      </trkpt>
      <trkpt lat="43.54832" lon="2.7941">
        <ele>705</ele>
        <time>2020-10-03T09:01:53Z</time>
      </trkpt>
      <trkpt lat="43.5484" lon="2.79422">
        <ele>704</ele>
        <time>2020-10-03T09:02:39Z</time>
      </trkpt>
      <trkpt lat="43.54849" lon="2.7943">
        <ele>706</ele>
        <time>2020-10-03T09:03:25Z</time>
      </trkpt>
      <trkpt lat="43.54858" lon="2.79425">
        <ele>709</ele>
        <time>2020-10-03T09:03:39Z</time>
      </trkpt>
      <trkpt lat="43.5487" lon="2.79428">
        <ele>714</ele>
        <time>2020-10-03T09:04:21Z</time>
      </trkpt>
      <trkpt lat="43.54878" lon="2.79421">
        <ele>711</ele>
        <time>2020-10-03T09:04:34Z</time>
      </trkpt>
      <trkpt lat="43.54886" lon="2.79415">
        <ele>712</ele>
        <time>2020-10-03T09:05:26Z</time>
      </trkpt>
      <trkpt lat="43.54897" lon="2.79408">
        <ele>715</ele>
        <time>2020-10-03T09:06:02Z</time>
      </trkpt>
      <trkpt lat="43.549" lon="2.79395">
        <ele>712</ele>
        <time>2020-10-03T09:06:15Z</time>
      </trkpt>
      <trkpt lat="43.54906" lon="2.79387">
        <ele>719</ele>
        <time>2020-10-03T09:06:54Z</time>
      </trkpt>
      <trkpt lat="43.5492" lon="2.79386">
        <ele>725</ele>
        <time>2020-10-03T09:07:47Z</time>
      </trkpt>
      <trkpt lat="43.54926" lon="2.79377">
        <ele>731</ele>
        <time>2020-10-03T09:08:45Z</time>
      </trkpt>
      <trkpt lat="43.54933" lon="2.79369">
        <ele>735</ele>
        <time>2020-10-03T09:08:58Z</time>
      </trkpt>
      <trkpt lat="43.54929" lon="2.79353">
        <ele>750</ele>
        <time>2020-10-03T09:11:30Z</time>
      </trkpt>
      <trkpt lat="43.54931" lon="2.7934">
        <ele>753</ele>
        <time>2020-10-03T09:11:40Z</time>
      </trkpt>
      <trkpt lat="43.54932" lon="2.79327">
        <ele>757</ele>
        <time>2020-10-03T09:11:53Z</time>
      </trkpt>
      <trkpt lat="43.54936" lon="2.79315">
        <ele>760</ele>
        <time>2020-10-03T09:12:16Z</time>
      </trkpt>
      <trkpt lat="43.54941" lon="2.79305">
        <ele>770</ele>
        <time>2020-10-03T09:12:42Z</time>
      </trkpt>
      <trkpt lat="43.5495" lon="2.79308">
        <ele>779</ele>
        <time>2020-10-03T09:13:09Z</time>
      </trkpt>
      <trkpt lat="43.54956" lon="2.7932">
        <ele>787</ele>
        <time>2020-10-03T09:13:37Z</time>
      </trkpt>
      <trkpt lat="43.5496" lon="2.79332">
        <ele>792</ele>
        <time>2020-10-03T09:13:48Z</time>
      </trkpt>
      <trkpt lat="43.54962" lon="2.79344">
        <ele>791</ele>
        <time>2020-10-03T09:13:57Z</time>
      </trkpt>
      <trkpt lat="43.54963" lon="2.79357">
        <ele>794</ele>
        <time>2020-10-03T09:14:13Z</time>
      </trkpt>
      <trkpt lat="43.54968" lon="2.79367">
        <ele>793</ele>
        <time>2020-10-03T09:14:38Z</time>
      </trkpt>
      <trkpt lat="43.54971" lon="2.79379">
        <ele>790</ele>
        <time>2020-10-03T09:14:52Z</time>
      </trkpt>
      <trkpt lat="43.54972" lon="2.79392">
        <ele>781</ele>
        <time>2020-10-03T09:15:06Z</time>
      </trkpt>
      <trkpt lat="43.54977" lon="2.79404">
        <ele>783</ele>
        <time>2020-10-03T09:15:27Z</time>
      </trkpt>
      <trkpt lat="43.54979" lon="2.79417">
        <ele>783</ele>
        <time>2020-10-03T09:15:43Z</time>
      </trkpt>
      <trkpt lat="43.54983" lon="2.79429">
        <ele>783</ele>
        <time>2020-10-03T09:16:00Z</time>
      </trkpt>
      <trkpt lat="43.54993" lon="2.79426">
        <ele>781</ele>
        <time>2020-10-03T09:16:18Z</time>
      </trkpt>
      <trkpt lat="43.55001" lon="2.79419">
        <ele>787</ele>
        <time>2020-10-03T09:16:37Z</time>
      </trkpt>
      <trkpt lat="43.5501" lon="2.79412">
        <ele>787</ele>
        <time>2020-10-03T09:16:57Z</time>
      </trkpt>
      <trkpt lat="43.55018" lon="2.79406">
        <ele>788</ele>
        <time>2020-10-03T09:17:22Z</time>
      </trkpt>
      <trkpt lat="43.55031" lon="2.79403">
        <ele>816</ele>
        <time>2020-10-03T09:18:59Z</time>
      </trkpt>
      <trkpt lat="43.55033" lon="2.79387">
        <ele>829</ele>
        <time>2020-10-03T09:20:01Z</time>
      </trkpt>
      <trkpt lat="43.55031" lon="2.79374">
        <ele>830</ele>
        <time>2020-10-03T09:20:26Z</time>
      </trkpt>
      <trkpt lat="43.55036" lon="2.79364">
        <ele>841</ele>
        <time>2020-10-03T09:21:08Z</time>
      </trkpt>
      <trkpt lat="43.55034" lon="2.79346">
        <ele>840</ele>
        <time>2020-10-03T09:21:48Z</time>
      </trkpt>
      <trkpt lat="43.5503" lon="2.79334">
        <ele>840</ele>
        <time>2020-10-03T09:22:12Z</time>
      </trkpt>
      <trkpt lat="43.55029" lon="2.79322">
        <ele>861</ele>
        <time>2020-10-03T09:23:05Z</time>
      </trkpt>
      <trkpt lat="43.55037" lon="2.7932">
        <ele>870</ele>
        <time>2020-10-03T09:23:19Z</time>
      </trkpt>
      <trkpt lat="43.55044" lon="2.79312">
        <ele>874</ele>
        <time>2020-10-03T09:23:56Z</time>
      </trkpt>
      <trkpt lat="43.55051" lon="2.79303">
        <ele>875</ele>
        <time>2020-10-03T09:24:21Z</time>
      </trkpt>
      <trkpt lat="43.55057" lon="2.79293">
        <ele>873</ele>
        <time>2020-10-03T09:24:37Z</time>
      </trkpt>
      <trkpt lat="43.55064" lon="2.79285">
        <ele>881</ele>
        <time>2020-10-03T09:24:57Z</time>
      </trkpt>
      <trkpt lat="43.5507" lon="2.79274">
        <ele>881</ele>
        <time>2020-10-03T09:25:17Z</time>
      </trkpt>
      <trkpt lat="43.55061" lon="2.7927">
        <ele>895</ele>
        <time>2020-10-03T09:26:04Z</time>
      </trkpt>
      <trkpt lat="43.55056" lon="2.79257">
        <ele>904</ele>
        <time>2020-10-03T09:26:50Z</time>
      </trkpt>
      <trkpt lat="43.55051" lon="2.79246">
        <ele>907</ele>
        <time>2020-10-03T09:27:04Z</time>
      </trkpt>
      <trkpt lat="43.55049" lon="2.79234">
        <ele>905</ele>
        <time>2020-10-03T09:27:30Z</time>
      </trkpt>
      <trkpt lat="43.55046" lon="2.79221">
        <ele>906</ele>
        <time>2020-10-03T09:27:42Z</time>
      </trkpt>
      <trkpt lat="43.55055" lon="2.79215">
        <ele>919</ele>
        <time>2020-10-03T09:28:11Z</time>
      </trkpt>
      <trkpt lat="43.55064" lon="2.79217">
        <ele>919</ele>
        <time>2020-10-03T09:28:24Z</time>
      </trkpt>
      <trkpt lat="43.55071" lon="2.79227">
        <ele>923</ele>
        <time>2020-10-03T09:28:34Z</time>
      </trkpt>
      <trkpt lat="43.55075" lon="2.79239">
        <ele>922</ele>
        <time>2020-10-03T09:28:46Z</time>
      </trkpt>
      <trkpt lat="43.55077" lon="2.79251">
        <ele>923</ele>
        <time>2020-10-03T09:29:03Z</time>
      </trkpt>
      <trkpt lat="43.55078" lon="2.79263">
        <ele>928</ele>
        <time>2020-10-03T09:29:14Z</time>
      </trkpt>
      <trkpt lat="43.55085" lon="2.79274">
        <ele>936</ele>
        <time>2020-10-03T09:30:06Z</time>
      </trkpt>
      <trkpt lat="43.55094" lon="2.79272">
        <ele>938</ele>
        <time>2020-10-03T09:30:25Z</time>
      </trkpt>
      <trkpt lat="43.55099" lon="2.79262">
        <ele>940</ele>
        <time>2020-10-03T09:30:48Z</time>
      </trkpt>
      <trkpt lat="43.55106" lon="2.79253">
        <ele>942</ele>
        <time>2020-10-03T09:31:38Z</time>
      </trkpt>
      <trkpt lat="43.55099" lon="2.79242">
        <ele>949</ele>
        <time>2020-10-03T09:31:45Z</time>
      </trkpt>
      <trkpt lat="43.55093" lon="2.79231">
        <ele>951</ele>
        <time>2020-10-03T09:31:52Z</time>
      </trkpt>
      <trkpt lat="43.55094" lon="2.79217">
        <ele>955</ele>
        <time>2020-10-03T09:38:24Z</time>
      </trkpt>
      <trkpt lat="43.55103" lon="2.79216">
        <ele>956</ele>
        <time>2020-10-03T09:39:47Z</time>
      </trkpt>
      <trkpt lat="43.55115" lon="2.79226">
        <ele>966</ele>
        <time>2020-10-03T09:40:19Z</time>
      </trkpt>
      <trkpt lat="43.55121" lon="2.79236">
        <ele>967</ele>
        <time>2020-10-03T09:40:33Z</time>
      </trkpt>
      <trkpt lat="43.55128" lon="2.79245">
        <ele>970</ele>
        <time>2020-10-03T09:40:46Z</time>
      </trkpt>
      <trkpt lat="43.55134" lon="2.79255">
        <ele>973</ele>
        <time>2020-10-03T09:40:57Z</time>
      </trkpt>
      <trkpt lat="43.55142" lon="2.79262">
        <ele>974</ele>
        <time>2020-10-03T09:41:08Z</time>
      </trkpt>
      <trkpt lat="43.55152" lon="2.79259">
        <ele>973</ele>
        <time>2020-10-03T09:41:19Z</time>
      </trkpt>
      <trkpt lat="43.5516" lon="2.79251">
        <ele>974</ele>
        <time>2020-10-03T09:41:28Z</time>
      </trkpt>
      <trkpt lat="43.55166" lon="2.7924">
        <ele>976</ele>
        <time>2020-10-03T09:41:38Z</time>
      </trkpt>
      <trkpt lat="43.55173" lon="2.79232">
        <ele>978</ele>
        <time>2020-10-03T09:41:46Z</time>
      </trkpt>
      <trkpt lat="43.55183" lon="2.7923">
        <ele>978</ele>
        <time>2020-10-03T09:45:08Z</time>
      </trkpt>
      <trkpt lat="43.55192" lon="2.79235">
        <ele>976</ele>
        <time>2020-10-03T09:45:17Z</time>
      </trkpt>
      <trkpt lat="43.552" lon="2.79242">
        <ele>979</ele>
        <time>2020-10-03T09:45:35Z</time>
      </trkpt>
      <trkpt lat="43.55208" lon="2.79249">
        <ele>975</ele>
        <time>2020-10-03T09:45:43Z</time>
      </trkpt>
      <trkpt lat="43.55218" lon="2.79252">
        <ele>973</ele>
        <time>2020-10-03T09:45:52Z</time>
      </trkpt>
      <trkpt lat="43.55227" lon="2.79256">
        <ele>973</ele>
        <time>2020-10-03T09:46:00Z</time>
      </trkpt>
      <trkpt lat="43.55234" lon="2.79266">
        <ele>976</ele>
        <time>2020-10-03T09:46:08Z</time>
      </trkpt>
      <trkpt lat="43.55242" lon="2.79276">
        <ele>974</ele>
        <time>2020-10-03T09:46:16Z</time>
      </trkpt>
      <trkpt lat="43.5525" lon="2.79285">
        <ele>973</ele>
        <time>2020-10-03T09:46:25Z</time>
      </trkpt>
      <trkpt lat="43.55258" lon="2.79291">
        <ele>971</ele>
        <time>2020-10-03T09:46:33Z</time>
      </trkpt>
      <trkpt lat="43.55268" lon="2.79295">
        <ele>970</ele>
        <time>2020-10-03T09:46:41Z</time>
      </trkpt>
      <trkpt lat="43.55278" lon="2.79299">
        <ele>966</ele>
        <time>2020-10-03T09:46:49Z</time>
      </trkpt>
      <trkpt lat="43.55287" lon="2.79304">
        <ele>962</ele>
        <time>2020-10-03T09:46:57Z</time>
      </trkpt>
      <trkpt lat="43.55294" lon="2.79313">
        <ele>964</ele>
        <time>2020-10-03T09:47:06Z</time>
      </trkpt>
      <trkpt lat="43.55302" lon="2.79323">
        <ele>962</ele>
        <time>2020-10-03T09:47:14Z</time>
      </trkpt>
      <trkpt lat="43.55306" lon="2.7934">
        <ele>958</ele>
        <time>2020-10-03T09:49:01Z</time>
      </trkpt>
      <trkpt lat="43.55306" lon="2.79354">
        <ele>963</ele>
        <time>2020-10-03T09:49:43Z</time>
      </trkpt>
      <trkpt lat="43.55306" lon="2.79338">
        <ele>965</ele>
        <time>2020-10-03T09:50:29Z</time>
      </trkpt>
      <trkpt lat="43.55305" lon="2.79324">
        <ele>964</ele>
        <time>2020-10-03T09:50:35Z</time>
      </trkpt>
      <trkpt lat="43.5531" lon="2.79313">
        <ele>964</ele>
        <time>2020-10-03T09:50:42Z</time>
      </trkpt>
      <trkpt lat="43.55319" lon="2.79305">
        <ele>965</ele>
        <time>2020-10-03T09:50:49Z</time>
      </trkpt>
      <trkpt lat="43.55328" lon="2.79299">
        <ele>964</ele>
        <time>2020-10-03T09:50:58Z</time>
      </trkpt>
      <trkpt lat="43.55337" lon="2.79295">
        <ele>962</ele>
        <time>2020-10-03T09:51:06Z</time>
      </trkpt>
      <trkpt lat="43.55348" lon="2.79293">
        <ele>963</ele>
        <time>2020-10-03T09:51:13Z</time>
      </trkpt>
      <trkpt lat="43.55358" lon="2.79292">
        <ele>964</ele>
        <time>2020-10-03T09:51:20Z</time>
      </trkpt>
      <trkpt lat="43.55365" lon="2.79284">
        <ele>965</ele>
        <time>2020-10-03T09:51:29Z</time>
      </trkpt>
      <trkpt lat="43.5537" lon="2.79272">
        <ele>965</ele>
        <time>2020-10-03T09:51:37Z</time>
      </trkpt>
      <trkpt lat="43.55375" lon="2.79259">
        <ele>969</ele>
        <time>2020-10-03T09:51:45Z</time>
      </trkpt>
      <trkpt lat="43.55379" lon="2.79248">
        <ele>970</ele>
        <time>2020-10-03T09:51:52Z</time>
      </trkpt>
      <trkpt lat="43.55383" lon="2.79235">
        <ele>969</ele>
        <time>2020-10-03T09:52:00Z</time>
      </trkpt>
      <trkpt lat="43.55386" lon="2.79221">
        <ele>967</ele>
        <time>2020-10-03T09:52:08Z</time>
      </trkpt>
      <trkpt lat="43.55388" lon="2.79207">
        <ele>970</ele>
        <time>2020-10-03T09:52:16Z</time>
      </trkpt>
      <trkpt lat="43.55391" lon="2.79194">
        <ele>972</ele>
        <time>2020-10-03T09:52:23Z</time>
      </trkpt>
      <trkpt lat="43.55396" lon="2.79182">
        <ele>970</ele>
        <time>2020-10-03T09:52:30Z</time>
      </trkpt>
      <trkpt lat="43.55402" lon="2.79171">
        <ele>969</ele>
        <time>2020-10-03T09:52:37Z</time>
      </trkpt>
      <trkpt lat="43.55409" lon="2.79162">
        <ele>968</ele>
        <time>2020-10-03T09:52:44Z</time>
      </trkpt>
      <trkpt lat="43.55414" lon="2.79151">
        <ele>968</ele>
        <time>2020-10-03T09:52:52Z</time>
      </trkpt>
      <trkpt lat="43.55418" lon="2.79138">
        <ele>970</ele>
        <time>2020-10-03T09:53:00Z</time>
      </trkpt>
      <trkpt lat="43.55415" lon="2.79126">
        <ele>972</ele>
        <time>2020-10-03T09:53:07Z</time>
      </trkpt>
      <trkpt lat="43.55409" lon="2.79114">
        <ele>971</ele>
        <time>2020-10-03T09:53:14Z</time>
      </trkpt>
      <trkpt lat="43.55408" lon="2.79101">
        <ele>969</ele>
        <time>2020-10-03T09:53:23Z</time>
      </trkpt>
      <trkpt lat="43.55411" lon="2.79088">
        <ele>969</ele>
        <time>2020-10-03T09:53:31Z</time>
      </trkpt>
      <trkpt lat="43.55416" lon="2.79076">
        <ele>966</ele>
        <time>2020-10-03T09:53:40Z</time>
      </trkpt>
      <trkpt lat="43.55423" lon="2.79067">
        <ele>966</ele>
        <time>2020-10-03T09:53:49Z</time>
      </trkpt>
      <trkpt lat="43.55431" lon="2.79058">
        <ele>969</ele>
        <time>2020-10-03T09:53:58Z</time>
      </trkpt>
      <trkpt lat="43.55436" lon="2.79047">
        <ele>969</ele>
        <time>2020-10-03T09:54:08Z</time>
      </trkpt>
      <trkpt lat="43.55442" lon="2.79035">
        <ele>968</ele>
        <time>2020-10-03T09:54:17Z</time>
      </trkpt>
      <trkpt lat="43.55447" lon="2.79024">
        <ele>967</ele>
        <time>2020-10-03T09:54:25Z</time>
      </trkpt>
      <trkpt lat="43.55451" lon="2.79013">
        <ele>965</ele>
        <time>2020-10-03T09:54:35Z</time>
      </trkpt>
      <trkpt lat="43.55456" lon="2.79003">
        <ele>965</ele>
        <time>2020-10-03T09:54:42Z</time>
      </trkpt>
      <trkpt lat="43.55463" lon="2.78992">
        <ele>963</ele>
        <time>2020-10-03T09:54:50Z</time>
      </trkpt>
      <trkpt lat="43.55469" lon="2.78982">
        <ele>964</ele>
        <time>2020-10-03T09:54:58Z</time>
      </trkpt>
      <trkpt lat="43.55478" lon="2.78973">
        <ele>963</ele>
        <time>2020-10-03T09:55:07Z</time>
      </trkpt>
      <trkpt lat="43.55486" lon="2.78968">
        <ele>964</ele>
        <time>2020-10-03T09:55:16Z</time>
      </trkpt>
      <trkpt lat="43.55496" lon="2.78971">
        <ele>963</ele>
        <time>2020-10-03T09:55:24Z</time>
      </trkpt>
      <trkpt lat="43.55503" lon="2.78979">
        <ele>964</ele>
        <time>2020-10-03T09:55:31Z</time>
      </trkpt>
      <trkpt lat="43.55509" lon="2.7899">
        <ele>966</ele>
        <time>2020-10-03T09:55:38Z</time>
      </trkpt>
      <trkpt lat="43.55514" lon="2.79">
        <ele>965</ele>
        <time>2020-10-03T09:55:45Z</time>
      </trkpt>
      <trkpt lat="43.55523" lon="2.79005">
        <ele>965</ele>
        <time>2020-10-03T09:56:20Z</time>
      </trkpt>
      <trkpt lat="43.55533" lon="2.79006">
        <ele>967</ele>
        <time>2020-10-03T09:56:29Z</time>
      </trkpt>
      <trkpt lat="43.55541" lon="2.79001">
        <ele>963</ele>
        <time>2020-10-03T09:56:37Z</time>
      </trkpt>
      <trkpt lat="43.5555" lon="2.78994">
        <ele>964</ele>
        <time>2020-10-03T09:56:44Z</time>
      </trkpt>
      <trkpt lat="43.55557" lon="2.78986">
        <ele>963</ele>
        <time>2020-10-03T09:56:52Z</time>
      </trkpt>
      <trkpt lat="43.55564" lon="2.78978">
        <ele>965</ele>
        <time>2020-10-03T09:57:01Z</time>
      </trkpt>
      <trkpt lat="43.55571" lon="2.78969">
        <ele>965</ele>
        <time>2020-10-03T09:57:08Z</time>
      </trkpt>
      <trkpt lat="43.55579" lon="2.78959">
        <ele>965</ele>
        <time>2020-10-03T09:57:15Z</time>
      </trkpt>
      <trkpt lat="43.55585" lon="2.78951">
        <ele>964</ele>
        <time>2020-10-03T09:57:22Z</time>
      </trkpt>
      <trkpt lat="43.55594" lon="2.78943">
        <ele>962</ele>
        <time>2020-10-03T09:57:30Z</time>
      </trkpt>
      <trkpt lat="43.55602" lon="2.78937">
        <ele>962</ele>
        <time>2020-10-03T09:57:39Z</time>
      </trkpt>
      <trkpt lat="43.55611" lon="2.78936">
        <ele>960</ele>
        <time>2020-10-03T09:57:47Z</time>
      </trkpt>
      <trkpt lat="43.5562" lon="2.78941">
        <ele>960</ele>
        <time>2020-10-03T09:57:54Z</time>
      </trkpt>
      <trkpt lat="43.55629" lon="2.78949">
        <ele>963</ele>
        <time>2020-10-03T09:58:01Z</time>
      </trkpt>
      <trkpt lat="43.55634" lon="2.7896">
        <ele>964</ele>
        <time>2020-10-03T09:58:18Z</time>
      </trkpt>
      <trkpt lat="43.55645" lon="2.78958">
        <ele>961</ele>
        <time>2020-10-03T09:58:25Z</time>
      </trkpt>
      <trkpt lat="43.55652" lon="2.78946">
        <ele>964</ele>
        <time>2020-10-03T09:58:30Z</time>
      </trkpt>
      <trkpt lat="43.55655" lon="2.78932">
        <ele>966</ele>
        <time>2020-10-03T09:58:34Z</time>
      </trkpt>
      <trkpt lat="43.55658" lon="2.78945">
        <ele>967</ele>
        <time>2020-10-03T09:58:54Z</time>
      </trkpt>
      <trkpt lat="43.55652" lon="2.78958">
        <ele>967</ele>
        <time>2020-10-03T09:59:01Z</time>
      </trkpt>
      <trkpt lat="43.55644" lon="2.78963">
        <ele>962</ele>
        <time>2020-10-03T09:59:05Z</time>
      </trkpt>
      <trkpt lat="43.55631" lon="2.78961">
        <ele>962</ele>
        <time>2020-10-03T09:59:09Z</time>
      </trkpt>
      <trkpt lat="43.55621" lon="2.78965">
        <ele>959</ele>
        <time>2020-10-03T09:59:14Z</time>
      </trkpt>
      <trkpt lat="43.55616" lon="2.78976">
        <ele>959</ele>
        <time>2020-10-03T09:59:24Z</time>
      </trkpt>
      <trkpt lat="43.5562" lon="2.78989">
        <ele>956</ele>
        <time>2020-10-03T09:59:37Z</time>
      </trkpt>
      <trkpt lat="43.55623" lon="2.79003">
        <ele>961</ele>
        <time>2020-10-03T09:59:46Z</time>
      </trkpt>
      <trkpt lat="43.55625" lon="2.79016">
        <ele>965</ele>
        <time>2020-10-03T09:59:54Z</time>
      </trkpt>
      <trkpt lat="43.55625" lon="2.79031">
        <ele>960</ele>
        <time>2020-10-03T10:00:02Z</time>
      </trkpt>
      <trkpt lat="43.55625" lon="2.79044">
        <ele>961</ele>
        <time>2020-10-03T10:00:11Z</time>
      </trkpt>
      <trkpt lat="43.55629" lon="2.79058">
        <ele>956</ele>
        <time>2020-10-03T10:00:19Z</time>
      </trkpt>
      <trkpt lat="43.55634" lon="2.79071">
        <ele>959</ele>
        <time>2020-10-03T10:00:25Z</time>
      </trkpt>
      <trkpt lat="43.55637" lon="2.79083">
        <ele>963</ele>
        <time>2020-10-03T10:00:32Z</time>
      </trkpt>
      <trkpt lat="43.55638" lon="2.79096">
        <ele>965</ele>
        <time>2020-10-03T10:00:39Z</time>
      </trkpt>
      <trkpt lat="43.5564" lon="2.79109">
        <ele>967</ele>
        <time>2020-10-03T10:00:47Z</time>
      </trkpt>
      <trkpt lat="43.55641" lon="2.79122">
        <ele>967</ele>
        <time>2020-10-03T10:00:54Z</time>
      </trkpt>
      <trkpt lat="43.55642" lon="2.79136">
        <ele>966</ele>
        <time>2020-10-03T10:01:02Z</time>
      </trkpt>
      <trkpt lat="43.55645" lon="2.7915">
        <ele>968</ele>
        <time>2020-10-03T10:01:09Z</time>
      </trkpt>
      <trkpt lat="43.55651" lon="2.79159">
        <ele>969</ele>
        <time>2020-10-03T10:01:14Z</time>
      </trkpt>
      <trkpt lat="43.5566" lon="2.79165">
        <ele>967</ele>
        <time>2020-10-03T10:01:23Z</time>
      </trkpt>
      <trkpt lat="43.55667" lon="2.79172">
        <ele>963</ele>
        <time>2020-10-03T10:01:29Z</time>
      </trkpt>
      <trkpt lat="43.55675" lon="2.79182">
        <ele>966</ele>
        <time>2020-10-03T10:01:36Z</time>
      </trkpt>
      <trkpt lat="43.55678" lon="2.79195">
        <ele>967</ele>
        <time>2020-10-03T10:01:41Z</time>
      </trkpt>
      <trkpt lat="43.55682" lon="2.79209">
        <ele>967</ele>
        <time>2020-10-03T10:01:48Z</time>
      </trkpt>
      <trkpt lat="43.55688" lon="2.7922">
        <ele>968</ele>
        <time>2020-10-03T10:01:55Z</time>
      </trkpt>
      <trkpt lat="43.55694" lon="2.79233">
        <ele>968</ele>
        <time>2020-10-03T10:02:03Z</time>
      </trkpt>
      <trkpt lat="43.55699" lon="2.79245">
        <ele>963</ele>
        <time>2020-10-03T10:02:11Z</time>
      </trkpt>
      <trkpt lat="43.55706" lon="2.79257">
        <ele>966</ele>
        <time>2020-10-03T10:02:18Z</time>
      </trkpt>
      <trkpt lat="43.55715" lon="2.79264">
        <ele>963</ele>
        <time>2020-10-03T10:02:25Z</time>
      </trkpt>
      <trkpt lat="43.55723" lon="2.79271">
        <ele>965</ele>
        <time>2020-10-03T10:02:31Z</time>
      </trkpt>
      <trkpt lat="43.55734" lon="2.79273">
        <ele>964</ele>
        <time>2020-10-03T10:02:39Z</time>
      </trkpt>
      <trkpt lat="43.55745" lon="2.79268">
        <ele>964</ele>
        <time>2020-10-03T10:02:45Z</time>
      </trkpt>
      <trkpt lat="43.55754" lon="2.79264">
        <ele>967</ele>
        <time>2020-10-03T10:02:51Z</time>
      </trkpt>
      <trkpt lat="43.55763" lon="2.79262">
        <ele>966</ele>
        <time>2020-10-03T10:02:58Z</time>
      </trkpt>
      <trkpt lat="43.55773" lon="2.79262">
        <ele>966</ele>
        <time>2020-10-03T10:03:05Z</time>
      </trkpt>
      <trkpt lat="43.55783" lon="2.79262">
        <ele>964</ele>
        <time>2020-10-03T10:03:12Z</time>
      </trkpt>
      <trkpt lat="43.55793" lon="2.79261">
        <ele>966</ele>
        <time>2020-10-03T10:03:19Z</time>
      </trkpt>
      <trkpt lat="43.55803" lon="2.7926">
        <ele>967</ele>
        <time>2020-10-03T10:03:27Z</time>
      </trkpt>
      <trkpt lat="43.55813" lon="2.79263">
        <ele>968</ele>
        <time>2020-10-03T10:03:36Z</time>
      </trkpt>
      <trkpt lat="43.5582" lon="2.79271">
        <ele>969</ele>
        <time>2020-10-03T10:03:43Z</time>
      </trkpt>
      <trkpt lat="43.55824" lon="2.79282">
        <ele>971</ele>
        <time>2020-10-03T10:03:52Z</time>
      </trkpt>
      <trkpt lat="43.55824" lon="2.793">
        <ele>963</ele>
        <time>2020-10-03T10:04:25Z</time>
      </trkpt>
      <trkpt lat="43.55822" lon="2.79313">
        <ele>963</ele>
        <time>2020-10-03T10:04:30Z</time>
      </trkpt>
      <trkpt lat="43.55816" lon="2.79326">
        <ele>961</ele>
        <time>2020-10-03T10:04:33Z</time>
      </trkpt>
      <trkpt lat="43.55811" lon="2.79336">
        <ele>961</ele>
        <time>2020-10-03T10:04:37Z</time>
      </trkpt>
      <trkpt lat="43.55804" lon="2.79353">
        <ele>960</ele>
        <time>2020-10-03T10:04:43Z</time>
      </trkpt>
      <trkpt lat="43.558" lon="2.79364">
        <ele>961</ele>
        <time>2020-10-03T10:04:50Z</time>
      </trkpt>
      <trkpt lat="43.55798" lon="2.79378">
        <ele>966</ele>
        <time>2020-10-03T10:04:57Z</time>
      </trkpt>
      <trkpt lat="43.55798" lon="2.7939">
        <ele>965</ele>
        <time>2020-10-03T10:05:04Z</time>
      </trkpt>
      <trkpt lat="43.55795" lon="2.79404">
        <ele>965</ele>
        <time>2020-10-03T10:05:14Z</time>
      </trkpt>
      <trkpt lat="43.55792" lon="2.79417">
        <ele>964</ele>
        <time>2020-10-03T10:05:21Z</time>
      </trkpt>
      <trkpt lat="43.55789" lon="2.7943">
        <ele>965</ele>
        <time>2020-10-03T10:05:29Z</time>
      </trkpt>
      <trkpt lat="43.55788" lon="2.79443">
        <ele>966</ele>
        <time>2020-10-03T10:05:38Z</time>
      </trkpt>
      <trkpt lat="43.55786" lon="2.79457">
        <ele>966</ele>
        <time>2020-10-03T10:05:46Z</time>
      </trkpt>
      <trkpt lat="43.55786" lon="2.7947">
        <ele>963</ele>
        <time>2020-10-03T10:05:54Z</time>
      </trkpt>
      <trkpt lat="43.55787" lon="2.79484">
        <ele>962</ele>
        <time>2020-10-03T10:06:02Z</time>
      </trkpt>
      <trkpt lat="43.55791" lon="2.79498">
        <ele>965</ele>
        <time>2020-10-03T10:06:10Z</time>
      </trkpt>
      <trkpt lat="43.55796" lon="2.79508">
        <ele>966</ele>
        <time>2020-10-03T10:06:17Z</time>
      </trkpt>
      <trkpt lat="43.55804" lon="2.79516">
        <ele>965</ele>
        <time>2020-10-03T10:06:24Z</time>
      </trkpt>
      <trkpt lat="43.55813" lon="2.79522">
        <ele>962</ele>
        <time>2020-10-03T10:06:32Z</time>
      </trkpt>
      <trkpt lat="43.55823" lon="2.79527">
        <ele>963</ele>
        <time>2020-10-03T10:06:39Z</time>
      </trkpt>
      <trkpt lat="43.55832" lon="2.7953">
        <ele>962</ele>
        <time>2020-10-03T10:06:46Z</time>
      </trkpt>
      <trkpt lat="43.55842" lon="2.79531">
        <ele>963</ele>
        <time>2020-10-03T10:06:53Z</time>
      </trkpt>
      <trkpt lat="43.55852" lon="2.7953">
        <ele>966</ele>
        <time>2020-10-03T10:06:59Z</time>
      </trkpt>
      <trkpt lat="43.55861" lon="2.79528">
        <ele>965</ele>
        <time>2020-10-03T10:07:06Z</time>
      </trkpt>
      <trkpt lat="43.55871" lon="2.79527">
        <ele>963</ele>
        <time>2020-10-03T10:07:13Z</time>
      </trkpt>
      <trkpt lat="43.55882" lon="2.79527">
        <ele>963</ele>
        <time>2020-10-03T10:07:21Z</time>
      </trkpt>
      <trkpt lat="43.55893" lon="2.79528">
        <ele>961</ele>
        <time>2020-10-03T10:07:28Z</time>
      </trkpt>
      <trkpt lat="43.55902" lon="2.79532">
        <ele>962</ele>
        <time>2020-10-03T10:07:35Z</time>
      </trkpt>
      <trkpt lat="43.55913" lon="2.79533">
        <ele>963</ele>
        <time>2020-10-03T10:07:42Z</time>
      </trkpt>
      <trkpt lat="43.55924" lon="2.79535">
        <ele>962</ele>
        <time>2020-10-03T10:07:48Z</time>
      </trkpt>
      <trkpt lat="43.55934" lon="2.79534">
        <ele>965</ele>
        <time>2020-10-03T10:07:53Z</time>
      </trkpt>
      <trkpt lat="43.55944" lon="2.79531">
        <ele>967</ele>
        <time>2020-10-03T10:08:00Z</time>
      </trkpt>
      <trkpt lat="43.55953" lon="2.79528">
        <ele>965</ele>
        <time>2020-10-03T10:08:07Z</time>
      </trkpt>
      <trkpt lat="43.55961" lon="2.7952">
        <ele>964</ele>
        <time>2020-10-03T10:08:15Z</time>
      </trkpt>
      <trkpt lat="43.55968" lon="2.79511">
        <ele>966</ele>
        <time>2020-10-03T10:08:22Z</time>
      </trkpt>
      <trkpt lat="43.55975" lon="2.79502">
        <ele>968</ele>
        <time>2020-10-03T10:08:31Z</time>
      </trkpt>
      <trkpt lat="43.55984" lon="2.79495">
        <ele>966</ele>
        <time>2020-10-03T10:08:38Z</time>
      </trkpt>
      <trkpt lat="43.55992" lon="2.79488">
        <ele>966</ele>
        <time>2020-10-03T10:08:45Z</time>
      </trkpt>
      <trkpt lat="43.56" lon="2.79481">
        <ele>964</ele>
        <time>2020-10-03T10:08:51Z</time>
      </trkpt>
      <trkpt lat="43.56008" lon="2.79472">
        <ele>967</ele>
        <time>2020-10-03T10:08:58Z</time>
      </trkpt>
      <trkpt lat="43.56017" lon="2.79464">
        <ele>965</ele>
        <time>2020-10-03T10:09:05Z</time>
      </trkpt>
      <trkpt lat="43.56025" lon="2.79456">
        <ele>966</ele>
        <time>2020-10-03T10:09:11Z</time>
      </trkpt>
      <trkpt lat="43.56035" lon="2.79447">
        <ele>966</ele>
        <time>2020-10-03T10:09:18Z</time>
      </trkpt>
      <trkpt lat="43.56044" lon="2.79442">
        <ele>965</ele>
        <time>2020-10-03T10:09:24Z</time>
      </trkpt>
      <trkpt lat="43.56052" lon="2.79433">
        <ele>965</ele>
        <time>2020-10-03T10:09:30Z</time>
      </trkpt>
      <trkpt lat="43.56061" lon="2.79427">
        <ele>965</ele>
        <time>2020-10-03T10:09:37Z</time>
      </trkpt>
      <trkpt lat="43.56069" lon="2.79419">
        <ele>965</ele>
        <time>2020-10-03T10:09:45Z</time>
      </trkpt>
      <trkpt lat="43.5608" lon="2.79416">
        <ele>965</ele>
        <time>2020-10-03T10:09:54Z</time>
      </trkpt>
      <trkpt lat="43.5609" lon="2.7941">
        <ele>967</ele>
        <time>2020-10-03T10:10:02Z</time>
      </trkpt>
      <trkpt lat="43.56096" lon="2.79399">
        <ele>966</ele>
        <time>2020-10-03T10:10:08Z</time>
      </trkpt>
      <trkpt lat="43.56099" lon="2.79386">
        <ele>964</ele>
        <time>2020-10-03T10:10:14Z</time>
      </trkpt>
      <trkpt lat="43.56101" lon="2.79372">
        <ele>964</ele>
        <time>2020-10-03T10:10:20Z</time>
      </trkpt>
      <trkpt lat="43.56103" lon="2.79357">
        <ele>966</ele>
        <time>2020-10-03T10:10:27Z</time>
      </trkpt>
      <trkpt lat="43.56107" lon="2.79345">
        <ele>963</ele>
        <time>2020-10-03T10:10:34Z</time>
      </trkpt>
      <trkpt lat="43.56116" lon="2.79338">
        <ele>966</ele>
        <time>2020-10-03T10:10:48Z</time>
      </trkpt>
      <trkpt lat="43.56125" lon="2.79343">
        <ele>966</ele>
        <time>2020-10-03T10:10:57Z</time>
      </trkpt>
      <trkpt lat="43.56137" lon="2.79349">
        <ele>965</ele>
        <time>2020-10-03T10:11:19Z</time>
      </trkpt>
      <trkpt lat="43.56146" lon="2.79353">
        <ele>962</ele>
        <time>2020-10-03T10:11:25Z</time>
      </trkpt>
      <trkpt lat="43.56156" lon="2.79358">
        <ele>961</ele>
        <time>2020-10-03T10:11:33Z</time>
      </trkpt>
      <trkpt lat="43.56163" lon="2.7937">
        <ele>963</ele>
        <time>2020-10-03T10:11:41Z</time>
      </trkpt>
      <trkpt lat="43.56159" lon="2.79384">
        <ele>964</ele>
        <time>2020-10-03T10:11:46Z</time>
      </trkpt>
      <trkpt lat="43.56158" lon="2.79398">
        <ele>963</ele>
        <time>2020-10-03T10:11:52Z</time>
      </trkpt>
      <trkpt lat="43.56158" lon="2.79412">
        <ele>964</ele>
        <time>2020-10-03T10:11:58Z</time>
      </trkpt>
      <trkpt lat="43.56158" lon="2.79425">
        <ele>967</ele>
        <time>2020-10-03T10:12:06Z</time>
      </trkpt>
      <trkpt lat="43.56156" lon="2.79439">
        <ele>965</ele>
        <time>2020-10-03T10:12:13Z</time>
      </trkpt>
      <trkpt lat="43.56154" lon="2.79453">
        <ele>967</ele>
        <time>2020-10-03T10:12:20Z</time>
      </trkpt>
      <trkpt lat="43.56152" lon="2.79466">
        <ele>966</ele>
        <time>2020-10-03T10:12:27Z</time>
      </trkpt>
      <trkpt lat="43.5615" lon="2.79479">
        <ele>966</ele>
        <time>2020-10-03T10:12:34Z</time>
      </trkpt>
      <trkpt lat="43.56149" lon="2.79494">
        <ele>968</ele>
        <time>2020-10-03T10:12:42Z</time>
      </trkpt>
      <trkpt lat="43.56148" lon="2.79508">
        <ele>969</ele>
        <time>2020-10-03T10:12:50Z</time>
      </trkpt>
      <trkpt lat="43.56147" lon="2.79521">
        <ele>967</ele>
        <time>2020-10-03T10:12:59Z</time>
      </trkpt>
      <trkpt lat="43.56145" lon="2.79535">
        <ele>966</ele>
        <time>2020-10-03T10:13:07Z</time>
      </trkpt>
      <trkpt lat="43.56143" lon="2.79547">
        <ele>966</ele>
        <time>2020-10-03T10:13:15Z</time>
      </trkpt>
      <trkpt lat="43.56143" lon="2.7956">
        <ele>965</ele>
        <time>2020-10-03T10:13:23Z</time>
      </trkpt>
      <trkpt lat="43.56148" lon="2.79572">
        <ele>967</ele>
        <time>2020-10-03T10:13:30Z</time>
      </trkpt>
      <trkpt lat="43.56157" lon="2.79579">
        <ele>968</ele>
        <time>2020-10-03T10:13:38Z</time>
      </trkpt>
      <trkpt lat="43.56165" lon="2.79586">
        <ele>967</ele>
        <time>2020-10-03T10:13:45Z</time>
      </trkpt>
      <trkpt lat="43.56175" lon="2.79585">
        <ele>966</ele>
        <time>2020-10-03T10:13:51Z</time>
      </trkpt>
      <trkpt lat="43.56184" lon="2.79579">
        <ele>966</ele>
        <time>2020-10-03T10:13:56Z</time>
      </trkpt>
      <trkpt lat="43.56192" lon="2.79571">
        <ele>965</ele>
        <time>2020-10-03T10:14:03Z</time>
      </trkpt>
      <trkpt lat="43.56199" lon="2.79561">
        <ele>965</ele>
        <time>2020-10-03T10:14:10Z</time>
      </trkpt>
      <trkpt lat="43.56206" lon="2.79552">
        <ele>964</ele>
        <time>2020-10-03T10:14:18Z</time>
      </trkpt>
      <trkpt lat="43.56215" lon="2.79545">
        <ele>967</ele>
        <time>2020-10-03T10:14:25Z</time>
      </trkpt>
      <trkpt lat="43.56225" lon="2.79542">
        <ele>965</ele>
        <time>2020-10-03T10:14:31Z</time>
      </trkpt>
      <trkpt lat="43.56231" lon="2.79534">
        <ele>969</ele>
        <time>2020-10-03T10:14:38Z</time>
      </trkpt>
      <trkpt lat="43.56238" lon="2.79522">
        <ele>963</ele>
        <time>2020-10-03T10:14:57Z</time>
      </trkpt>
      <trkpt lat="43.56243" lon="2.7951">
        <ele>963</ele>
        <time>2020-10-03T10:15:03Z</time>
      </trkpt>
      <trkpt lat="43.56247" lon="2.79497">
        <ele>972</ele>
        <time>2020-10-03T10:15:10Z</time>
      </trkpt>
      <trkpt lat="43.56255" lon="2.79487">
        <ele>970</ele>
        <time>2020-10-03T10:15:18Z</time>
      </trkpt>
      <trkpt lat="43.56262" lon="2.79478">
        <ele>969</ele>
        <time>2020-10-03T10:15:25Z</time>
      </trkpt>
      <trkpt lat="43.5627" lon="2.79469">
        <ele>974</ele>
        <time>2020-10-03T10:15:32Z</time>
      </trkpt>
      <trkpt lat="43.5628" lon="2.79467">
        <ele>975</ele>
        <time>2020-10-03T10:15:38Z</time>
      </trkpt>
      <trkpt lat="43.5629" lon="2.79474">
        <ele>971</ele>
        <time>2020-10-03T10:15:43Z</time>
      </trkpt>
      <trkpt lat="43.56299" lon="2.79476">
        <ele>969</ele>
        <time>2020-10-03T10:15:49Z</time>
      </trkpt>
      <trkpt lat="43.56309" lon="2.79476">
        <ele>969</ele>
        <time>2020-10-03T10:15:56Z</time>
      </trkpt>
      <trkpt lat="43.56319" lon="2.79474">
        <ele>970</ele>
        <time>2020-10-03T10:16:04Z</time>
      </trkpt>
      <trkpt lat="43.56329" lon="2.79473">
        <ele>970</ele>
        <time>2020-10-03T10:16:12Z</time>
      </trkpt>
      <trkpt lat="43.56339" lon="2.79476">
        <ele>967</ele>
        <time>2020-10-03T10:16:20Z</time>
      </trkpt>
      <trkpt lat="43.56345" lon="2.79487">
        <ele>967</ele>
        <time>2020-10-03T10:16:28Z</time>
      </trkpt>
      <trkpt lat="43.56349" lon="2.79499">
        <ele>964</ele>
        <time>2020-10-03T10:16:34Z</time>
      </trkpt>
      <trkpt lat="43.56351" lon="2.79513">
        <ele>965</ele>
        <time>2020-10-03T10:16:41Z</time>
      </trkpt>
      <trkpt lat="43.56348" lon="2.79528">
        <ele>964</ele>
        <time>2020-10-03T10:16:45Z</time>
      </trkpt>
      <trkpt lat="43.56345" lon="2.79542">
        <ele>962</ele>
        <time>2020-10-03T10:16:49Z</time>
      </trkpt>
      <trkpt lat="43.56347" lon="2.79554">
        <ele>961</ele>
        <time>2020-10-03T10:16:56Z</time>
      </trkpt>
      <trkpt lat="43.56351" lon="2.79566">
        <ele>960</ele>
        <time>2020-10-03T10:17:02Z</time>
      </trkpt>
      <trkpt lat="43.56356" lon="2.79577">
        <ele>960</ele>
        <time>2020-10-03T10:17:09Z</time>
      </trkpt>
      <trkpt lat="43.5636" lon="2.79589">
        <ele>958</ele>
        <time>2020-10-03T10:17:18Z</time>
      </trkpt>
      <trkpt lat="43.56357" lon="2.79603">
        <ele>961</ele>
        <time>2020-10-03T10:17:26Z</time>
      </trkpt>
      <trkpt lat="43.56354" lon="2.79616">
        <ele>958</ele>
        <time>2020-10-03T10:17:34Z</time>
      </trkpt>
      <trkpt lat="43.56351" lon="2.79629">
        <ele>962</ele>
        <time>2020-10-03T10:17:42Z</time>
      </trkpt>
      <trkpt lat="43.56346" lon="2.79643">
        <ele>963</ele>
        <time>2020-10-03T10:17:49Z</time>
      </trkpt>
      <trkpt lat="43.56338" lon="2.79651">
        <ele>964</ele>
        <time>2020-10-03T10:17:53Z</time>
      </trkpt>
      <trkpt lat="43.56335" lon="2.79664">
        <ele>966</ele>
        <time>2020-10-03T10:17:59Z</time>
      </trkpt>
      <trkpt lat="43.56333" lon="2.79676">
        <ele>966</ele>
        <time>2020-10-03T10:18:06Z</time>
      </trkpt>
      <trkpt lat="43.56331" lon="2.79695">
        <ele>962</ele>
        <time>2020-10-03T10:18:34Z</time>
      </trkpt>
      <trkpt lat="43.56339" lon="2.79704">
        <ele>964</ele>
        <time>2020-10-03T10:19:31Z</time>
      </trkpt>
      <trkpt lat="43.56335" lon="2.79692">
        <ele>968</ele>
        <time>2020-10-03T10:20:26Z</time>
      </trkpt>
      <trkpt lat="43.56326" lon="2.79702">
        <ele>967</ele>
        <time>2020-10-03T10:20:39Z</time>
      </trkpt>
      <trkpt lat="43.56337" lon="2.79701">
        <ele>971</ele>
        <time>2020-10-03T11:00:55Z</time>
      </trkpt>
      <trkpt lat="43.56341" lon="2.79714">
        <ele>969</ele>
        <time>2020-10-03T11:01:59Z</time>
      </trkpt>
      <trkpt lat="43.56346" lon="2.79726">
        <ele>966</ele>
        <time>2020-10-03T11:02:07Z</time>
      </trkpt>
      <trkpt lat="43.56351" lon="2.79739">
        <ele>967</ele>
        <time>2020-10-03T11:02:12Z</time>
      </trkpt>
      <trkpt lat="43.56356" lon="2.79751">
        <ele>965</ele>
        <time>2020-10-03T11:02:18Z</time>
      </trkpt>
      <trkpt lat="43.56363" lon="2.79762">
        <ele>965</ele>
        <time>2020-10-03T11:02:26Z</time>
      </trkpt>
      <trkpt lat="43.56369" lon="2.79773">
        <ele>967</ele>
        <time>2020-10-03T11:02:35Z</time>
      </trkpt>
      <trkpt lat="43.56377" lon="2.79783">
        <ele>968</ele>
        <time>2020-10-03T11:02:43Z</time>
      </trkpt>
      <trkpt lat="43.56385" lon="2.79791">
        <ele>967</ele>
        <time>2020-10-03T11:02:49Z</time>
      </trkpt>
      <trkpt lat="43.56394" lon="2.79797">
        <ele>967</ele>
        <time>2020-10-03T11:02:57Z</time>
      </trkpt>
      <trkpt lat="43.56403" lon="2.79802">
        <ele>968</ele>
        <time>2020-10-03T11:03:04Z</time>
      </trkpt>
      <trkpt lat="43.56412" lon="2.79809">
        <ele>970</ele>
        <time>2020-10-03T11:03:12Z</time>
      </trkpt>
      <trkpt lat="43.56422" lon="2.79813">
        <ele>968</ele>
        <time>2020-10-03T11:03:20Z</time>
      </trkpt>
      <trkpt lat="43.56432" lon="2.79817">
        <ele>967</ele>
        <time>2020-10-03T11:03:28Z</time>
      </trkpt>
      <trkpt lat="43.5644" lon="2.79824">
        <ele>966</ele>
        <time>2020-10-03T11:03:36Z</time>
      </trkpt>
      <trkpt lat="43.56447" lon="2.79834">
        <ele>965</ele>
        <time>2020-10-03T11:03:44Z</time>
      </trkpt>
      <trkpt lat="43.56447" lon="2.79847">
        <ele>967</ele>
        <time>2020-10-03T11:03:52Z</time>
      </trkpt>
      <trkpt lat="43.56446" lon="2.79859">
        <ele>967</ele>
        <time>2020-10-03T11:03:58Z</time>
      </trkpt>
      <trkpt lat="43.56445" lon="2.79873">
        <ele>964</ele>
        <time>2020-10-03T11:04:06Z</time>
      </trkpt>
      <trkpt lat="43.56446" lon="2.79887">
        <ele>962</ele>
        <time>2020-10-03T11:04:15Z</time>
      </trkpt>
      <trkpt lat="43.5645" lon="2.79899">
        <ele>962</ele>
        <time>2020-10-03T11:04:23Z</time>
      </trkpt>
      <trkpt lat="43.56454" lon="2.79913">
        <ele>966</ele>
        <time>2020-10-03T11:04:31Z</time>
      </trkpt>
      <trkpt lat="43.56458" lon="2.79925">
        <ele>964</ele>
        <time>2020-10-03T11:04:37Z</time>
      </trkpt>
      <trkpt lat="43.56464" lon="2.79935">
        <ele>963</ele>
        <time>2020-10-03T11:04:43Z</time>
      </trkpt>
      <trkpt lat="43.56471" lon="2.79945">
        <ele>962</ele>
        <time>2020-10-03T11:04:50Z</time>
      </trkpt>
      <trkpt lat="43.56478" lon="2.79953">
        <ele>965</ele>
        <time>2020-10-03T11:04:57Z</time>
      </trkpt>
      <trkpt lat="43.56487" lon="2.79959">
        <ele>964</ele>
        <time>2020-10-03T11:05:03Z</time>
      </trkpt>
      <trkpt lat="43.56496" lon="2.79964">
        <ele>964</ele>
        <time>2020-10-03T11:05:10Z</time>
      </trkpt>
      <trkpt lat="43.56506" lon="2.79968">
        <ele>963</ele>
        <time>2020-10-03T11:05:18Z</time>
      </trkpt>
      <trkpt lat="43.56516" lon="2.79972">
        <ele>965</ele>
        <time>2020-10-03T11:05:26Z</time>
      </trkpt>
      <trkpt lat="43.56526" lon="2.79974">
        <ele>965</ele>
        <time>2020-10-03T11:05:33Z</time>
      </trkpt>
      <trkpt lat="43.56535" lon="2.79975">
        <ele>966</ele>
        <time>2020-10-03T11:05:40Z</time>
      </trkpt>
      <trkpt lat="43.56545" lon="2.79979">
        <ele>965</ele>
        <time>2020-10-03T11:05:46Z</time>
      </trkpt>
      <trkpt lat="43.56556" lon="2.79979">
        <ele>964</ele>
        <time>2020-10-03T11:05:54Z</time>
      </trkpt>
      <trkpt lat="43.56566" lon="2.7998">
        <ele>962</ele>
        <time>2020-10-03T11:06:01Z</time>
      </trkpt>
      <trkpt lat="43.56576" lon="2.7998">
        <ele>964</ele>
        <time>2020-10-03T11:06:08Z</time>
      </trkpt>
      <trkpt lat="43.56586" lon="2.79981">
        <ele>964</ele>
        <time>2020-10-03T11:06:18Z</time>
      </trkpt>
      <trkpt lat="43.56596" lon="2.79985">
        <ele>963</ele>
        <time>2020-10-03T11:06:26Z</time>
      </trkpt>
      <trkpt lat="43.56606" lon="2.79986">
        <ele>963</ele>
        <time>2020-10-03T11:06:38Z</time>
      </trkpt>
      <trkpt lat="43.56616" lon="2.79984">
        <ele>966</ele>
        <time>2020-10-03T11:06:47Z</time>
      </trkpt>
      <trkpt lat="43.56625" lon="2.79988">
        <ele>961</ele>
        <time>2020-10-03T11:06:55Z</time>
      </trkpt>
      <trkpt lat="43.56634" lon="2.79995">
        <ele>962</ele>
        <time>2020-10-03T11:07:03Z</time>
      </trkpt>
      <trkpt lat="43.56643" lon="2.80002">
        <ele>965</ele>
        <time>2020-10-03T11:07:11Z</time>
      </trkpt>
      <trkpt lat="43.56652" lon="2.80008">
        <ele>969</ele>
        <time>2020-10-03T11:07:19Z</time>
      </trkpt>
      <trkpt lat="43.56661" lon="2.80012">
        <ele>971</ele>
        <time>2020-10-03T11:07:27Z</time>
      </trkpt>
      <trkpt lat="43.56671" lon="2.80012">
        <ele>969</ele>
        <time>2020-10-03T11:07:34Z</time>
      </trkpt>
      <trkpt lat="43.5668" lon="2.80013">
        <ele>970</ele>
        <time>2020-10-03T11:07:41Z</time>
      </trkpt>
      <trkpt lat="43.5669" lon="2.80013">
        <ele>970</ele>
        <time>2020-10-03T11:07:49Z</time>
      </trkpt>
      <trkpt lat="43.567" lon="2.80017">
        <ele>972</ele>
        <time>2020-10-03T11:07:57Z</time>
      </trkpt>
      <trkpt lat="43.56709" lon="2.80024">
        <ele>974</ele>
        <time>2020-10-03T11:08:04Z</time>
      </trkpt>
      <trkpt lat="43.56717" lon="2.80032">
        <ele>975</ele>
        <time>2020-10-03T11:08:11Z</time>
      </trkpt>
      <trkpt lat="43.56726" lon="2.80037">
        <ele>977</ele>
        <time>2020-10-03T11:08:17Z</time>
      </trkpt>
      <trkpt lat="43.56736" lon="2.80042">
        <ele>974</ele>
        <time>2020-10-03T11:08:24Z</time>
      </trkpt>
      <trkpt lat="43.56745" lon="2.80046">
        <ele>974</ele>
        <time>2020-10-03T11:08:31Z</time>
      </trkpt>
      <trkpt lat="43.56754" lon="2.80052">
        <ele>972</ele>
        <time>2020-10-03T11:08:39Z</time>
      </trkpt>
      <trkpt lat="43.5676" lon="2.80062">
        <ele>970</ele>
        <time>2020-10-03T11:08:47Z</time>
      </trkpt>
      <trkpt lat="43.56765" lon="2.80073">
        <ele>970</ele>
        <time>2020-10-03T11:08:55Z</time>
      </trkpt>
      <trkpt lat="43.56769" lon="2.80086">
        <ele>972</ele>
        <time>2020-10-03T11:09:03Z</time>
      </trkpt>
      <trkpt lat="43.56773" lon="2.80099">
        <ele>973</ele>
        <time>2020-10-03T11:09:11Z</time>
      </trkpt>
      <trkpt lat="43.56776" lon="2.80112">
        <ele>972</ele>
        <time>2020-10-03T11:09:17Z</time>
      </trkpt>
      <trkpt lat="43.5678" lon="2.80124">
        <ele>971</ele>
        <time>2020-10-03T11:09:23Z</time>
      </trkpt>
      <trkpt lat="43.56787" lon="2.80134">
        <ele>971</ele>
        <time>2020-10-03T11:09:30Z</time>
      </trkpt>
      <trkpt lat="43.56794" lon="2.80144">
        <ele>973</ele>
        <time>2020-10-03T11:09:38Z</time>
      </trkpt>
      <trkpt lat="43.56801" lon="2.80152">
        <ele>975</ele>
        <time>2020-10-03T11:09:44Z</time>
      </trkpt>
      <trkpt lat="43.56809" lon="2.80161">
        <ele>977</ele>
        <time>2020-10-03T11:09:52Z</time>
      </trkpt>
      <trkpt lat="43.56815" lon="2.8017">
        <ele>976</ele>
        <time>2020-10-03T11:10:00Z</time>
      </trkpt>
      <trkpt lat="43.56819" lon="2.80182">
        <ele>975</ele>
        <time>2020-10-03T11:10:09Z</time>
      </trkpt>
      <trkpt lat="43.56821" lon="2.80195">
        <ele>975</ele>
        <time>2020-10-03T11:10:19Z</time>
      </trkpt>
      <trkpt lat="43.56818" lon="2.80208">
        <ele>975</ele>
        <time>2020-10-03T11:10:27Z</time>
      </trkpt>
      <trkpt lat="43.56814" lon="2.8022">
        <ele>978</ele>
        <time>2020-10-03T11:10:35Z</time>
      </trkpt>
      <trkpt lat="43.56809" lon="2.80232">
        <ele>980</ele>
        <time>2020-10-03T11:10:43Z</time>
      </trkpt>
      <trkpt lat="43.56804" lon="2.80244">
        <ele>980</ele>
        <time>2020-10-03T11:10:51Z</time>
      </trkpt>
      <trkpt lat="43.56798" lon="2.80256">
        <ele>977</ele>
        <time>2020-10-03T11:10:59Z</time>
      </trkpt>
      <trkpt lat="43.56792" lon="2.80266">
        <ele>979</ele>
        <time>2020-10-03T11:11:06Z</time>
      </trkpt>
      <trkpt lat="43.56784" lon="2.80274">
        <ele>979</ele>
        <time>2020-10-03T11:11:18Z</time>
      </trkpt>
      <trkpt lat="43.56776" lon="2.80266">
        <ele>981</ele>
        <time>2020-10-03T11:12:33Z</time>
      </trkpt>
      <trkpt lat="43.5677" lon="2.80255">
        <ele>977</ele>
        <time>2020-10-03T11:12:47Z</time>
      </trkpt>
      <trkpt lat="43.56764" lon="2.80246">
        <ele>977</ele>
        <time>2020-10-03T11:13:02Z</time>
      </trkpt>
      <trkpt lat="43.56755" lon="2.8024">
        <ele>972</ele>
        <time>2020-10-03T11:13:15Z</time>
      </trkpt>
      <trkpt lat="43.56747" lon="2.80233">
        <ele>973</ele>
        <time>2020-10-03T11:13:22Z</time>
      </trkpt>
      <trkpt lat="43.56738" lon="2.80226">
        <ele>973</ele>
        <time>2020-10-03T11:13:30Z</time>
      </trkpt>
      <trkpt lat="43.56728" lon="2.80223">
        <ele>977</ele>
        <time>2020-10-03T11:13:38Z</time>
      </trkpt>
      <trkpt lat="43.56718" lon="2.8022">
        <ele>974</ele>
        <time>2020-10-03T11:13:46Z</time>
      </trkpt>
      <trkpt lat="43.5671" lon="2.80214">
        <ele>977</ele>
        <time>2020-10-03T11:13:54Z</time>
      </trkpt>
      <trkpt lat="43.56702" lon="2.80205">
        <ele>972</ele>
        <time>2020-10-03T11:14:01Z</time>
      </trkpt>
      <trkpt lat="43.56692" lon="2.80199">
        <ele>972</ele>
        <time>2020-10-03T11:14:08Z</time>
      </trkpt>
      <trkpt lat="43.56683" lon="2.80194">
        <ele>968</ele>
        <time>2020-10-03T11:14:15Z</time>
      </trkpt>
      <trkpt lat="43.56673" lon="2.80192">
        <ele>969</ele>
        <time>2020-10-03T11:14:22Z</time>
      </trkpt>
      <trkpt lat="43.56664" lon="2.80194">
        <ele>967</ele>
        <time>2020-10-03T11:14:28Z</time>
      </trkpt>
      <trkpt lat="43.56653" lon="2.80198">
        <ele>967</ele>
        <time>2020-10-03T11:14:36Z</time>
      </trkpt>
      <trkpt lat="43.56643" lon="2.80202">
        <ele>964</ele>
        <time>2020-10-03T11:14:44Z</time>
      </trkpt>
      <trkpt lat="43.56635" lon="2.80208">
        <ele>968</ele>
        <time>2020-10-03T11:14:50Z</time>
      </trkpt>
      <trkpt lat="43.56624" lon="2.80211">
        <ele>972</ele>
        <time>2020-10-03T11:14:57Z</time>
      </trkpt>
      <trkpt lat="43.56613" lon="2.8021">
        <ele>976</ele>
        <time>2020-10-03T11:15:03Z</time>
      </trkpt>
      <trkpt lat="43.56604" lon="2.80206">
        <ele>977</ele>
        <time>2020-10-03T11:15:10Z</time>
      </trkpt>
      <trkpt lat="43.56595" lon="2.80203">
        <ele>978</ele>
        <time>2020-10-03T11:15:16Z</time>
      </trkpt>
      <trkpt lat="43.56585" lon="2.80198">
        <ele>978</ele>
        <time>2020-10-03T11:15:23Z</time>
      </trkpt>
      <trkpt lat="43.56577" lon="2.80192">
        <ele>977</ele>
        <time>2020-10-03T11:15:28Z</time>
      </trkpt>
      <trkpt lat="43.56568" lon="2.80185">
        <ele>976</ele>
        <time>2020-10-03T11:15:34Z</time>
      </trkpt>
      <trkpt lat="43.56559" lon="2.80179">
        <ele>973</ele>
        <time>2020-10-03T11:15:40Z</time>
      </trkpt>
      <trkpt lat="43.56549" lon="2.80178">
        <ele>971</ele>
        <time>2020-10-03T11:15:47Z</time>
      </trkpt>
      <trkpt lat="43.5654" lon="2.80177">
        <ele>970</ele>
        <time>2020-10-03T11:15:53Z</time>
      </trkpt>
      <trkpt lat="43.5653" lon="2.80174">
        <ele>967</ele>
        <time>2020-10-03T11:16:01Z</time>
      </trkpt>
      <trkpt lat="43.5652" lon="2.80168">
        <ele>967</ele>
        <time>2020-10-03T11:16:07Z</time>
      </trkpt>
      <trkpt lat="43.5651" lon="2.80162">
        <ele>969</ele>
        <time>2020-10-03T11:16:14Z</time>
      </trkpt>
      <trkpt lat="43.56502" lon="2.80155">
        <ele>970</ele>
        <time>2020-10-03T11:16:22Z</time>
      </trkpt>
      <trkpt lat="43.56493" lon="2.80149">
        <ele>972</ele>
        <time>2020-10-03T11:16:28Z</time>
      </trkpt>
      <trkpt lat="43.56482" lon="2.80145">
        <ele>971</ele>
        <time>2020-10-03T11:16:36Z</time>
      </trkpt>
      <trkpt lat="43.56472" lon="2.80142">
        <ele>968</ele>
        <time>2020-10-03T11:16:43Z</time>
      </trkpt>
      <trkpt lat="43.56462" lon="2.80142">
        <ele>972</ele>
        <time>2020-10-03T11:16:49Z</time>
      </trkpt>
      <trkpt lat="43.56453" lon="2.80148">
        <ele>971</ele>
        <time>2020-10-03T11:16:56Z</time>
      </trkpt>
      <trkpt lat="43.56444" lon="2.80156">
        <ele>969</ele>
        <time>2020-10-03T11:17:04Z</time>
      </trkpt>
      <trkpt lat="43.56435" lon="2.80161">
        <ele>972</ele>
        <time>2020-10-03T11:17:10Z</time>
      </trkpt>
      <trkpt lat="43.56426" lon="2.80164">
        <ele>972</ele>
        <time>2020-10-03T11:17:16Z</time>
      </trkpt>
      <trkpt lat="43.56415" lon="2.80167">
        <ele>973</ele>
        <time>2020-10-03T11:17:23Z</time>
      </trkpt>
      <trkpt lat="43.56406" lon="2.80165">
        <ele>975</ele>
        <time>2020-10-03T11:17:29Z</time>
      </trkpt>
      <trkpt lat="43.56396" lon="2.80166">
        <ele>973</ele>
        <time>2020-10-03T11:17:37Z</time>
      </trkpt>
      <trkpt lat="43.56385" lon="2.80167">
        <ele>971</ele>
        <time>2020-10-03T11:17:45Z</time>
      </trkpt>
      <trkpt lat="43.56375" lon="2.80174">
        <ele>971</ele>
        <time>2020-10-03T11:17:51Z</time>
      </trkpt>
      <trkpt lat="43.56366" lon="2.80177">
        <ele>972</ele>
        <time>2020-10-03T11:17:58Z</time>
      </trkpt>
      <trkpt lat="43.56356" lon="2.80179">
        <ele>972</ele>
        <time>2020-10-03T11:18:05Z</time>
      </trkpt>
      <trkpt lat="43.56346" lon="2.80177">
        <ele>973</ele>
        <time>2020-10-03T11:18:11Z</time>
      </trkpt>
      <trkpt lat="43.56336" lon="2.80177">
        <ele>970</ele>
        <time>2020-10-03T11:18:19Z</time>
      </trkpt>
      <trkpt lat="43.56326" lon="2.80175">
        <ele>973</ele>
        <time>2020-10-03T11:18:27Z</time>
      </trkpt>
      <trkpt lat="43.56317" lon="2.80169">
        <ele>970</ele>
        <time>2020-10-03T11:18:33Z</time>
      </trkpt>
      <trkpt lat="43.56309" lon="2.8016">
        <ele>971</ele>
        <time>2020-10-03T11:18:41Z</time>
      </trkpt>
      <trkpt lat="43.56302" lon="2.80153">
        <ele>969</ele>
        <time>2020-10-03T11:18:57Z</time>
      </trkpt>
      <trkpt lat="43.56295" lon="2.80144">
        <ele>969</ele>
        <time>2020-10-03T11:19:06Z</time>
      </trkpt>
      <trkpt lat="43.5629" lon="2.8013">
        <ele>972</ele>
        <time>2020-10-03T11:19:13Z</time>
      </trkpt>
      <trkpt lat="43.5629" lon="2.80118">
        <ele>972</ele>
        <time>2020-10-03T11:19:22Z</time>
      </trkpt>
      <trkpt lat="43.56288" lon="2.80103">
        <ele>970</ele>
        <time>2020-10-03T11:19:30Z</time>
      </trkpt>
      <trkpt lat="43.56286" lon="2.80087">
        <ele>969</ele>
        <time>2020-10-03T11:19:37Z</time>
      </trkpt>
      <trkpt lat="43.56289" lon="2.80075">
        <ele>971</ele>
        <time>2020-10-03T11:19:42Z</time>
      </trkpt>
      <trkpt lat="43.56291" lon="2.80059">
        <ele>971</ele>
        <time>2020-10-03T11:19:48Z</time>
      </trkpt>
      <trkpt lat="43.56292" lon="2.80045">
        <ele>971</ele>
        <time>2020-10-03T11:19:53Z</time>
      </trkpt>
      <trkpt lat="43.56292" lon="2.80032">
        <ele>970</ele>
        <time>2020-10-03T11:20:02Z</time>
      </trkpt>
      <trkpt lat="43.56288" lon="2.80017">
        <ele>966</ele>
        <time>2020-10-03T11:20:08Z</time>
      </trkpt>
      <trkpt lat="43.56283" lon="2.80006">
        <ele>964</ele>
        <time>2020-10-03T11:20:14Z</time>
      </trkpt>
      <trkpt lat="43.56278" lon="2.79994">
        <ele>964</ele>
        <time>2020-10-03T11:20:20Z</time>
      </trkpt>
      <trkpt lat="43.56273" lon="2.79981">
        <ele>964</ele>
        <time>2020-10-03T11:20:26Z</time>
      </trkpt>
      <trkpt lat="43.5627" lon="2.79969">
        <ele>963</ele>
        <time>2020-10-03T11:20:33Z</time>
      </trkpt>
      <trkpt lat="43.56264" lon="2.79957">
        <ele>966</ele>
        <time>2020-10-03T11:20:40Z</time>
      </trkpt>
      <trkpt lat="43.56258" lon="2.79946">
        <ele>965</ele>
        <time>2020-10-03T11:20:46Z</time>
      </trkpt>
      <trkpt lat="43.5625" lon="2.79938">
        <ele>964</ele>
        <time>2020-10-03T11:20:53Z</time>
      </trkpt>
      <trkpt lat="43.56243" lon="2.79927">
        <ele>961</ele>
        <time>2020-10-03T11:21:02Z</time>
      </trkpt>
      <trkpt lat="43.56236" lon="2.79917">
        <ele>962</ele>
        <time>2020-10-03T11:21:08Z</time>
      </trkpt>
      <trkpt lat="43.56229" lon="2.79905">
        <ele>962</ele>
        <time>2020-10-03T11:21:15Z</time>
      </trkpt>
      <trkpt lat="43.56221" lon="2.79894">
        <ele>961</ele>
        <time>2020-10-03T11:21:21Z</time>
      </trkpt>
      <trkpt lat="43.56212" lon="2.79887">
        <ele>961</ele>
        <time>2020-10-03T11:21:29Z</time>
      </trkpt>
      <trkpt lat="43.56203" lon="2.79882">
        <ele>960</ele>
        <time>2020-10-03T11:21:36Z</time>
      </trkpt>
      <trkpt lat="43.56194" lon="2.79884">
        <ele>962</ele>
        <time>2020-10-03T11:21:43Z</time>
      </trkpt>
      <trkpt lat="43.56184" lon="2.79884">
        <ele>966</ele>
        <time>2020-10-03T11:21:51Z</time>
      </trkpt>
      <trkpt lat="43.56174" lon="2.79885">
        <ele>964</ele>
        <time>2020-10-03T11:22:00Z</time>
      </trkpt>
      <trkpt lat="43.56164" lon="2.79885">
        <ele>964</ele>
        <time>2020-10-03T11:22:07Z</time>
      </trkpt>
      <trkpt lat="43.56156" lon="2.79893">
        <ele>965</ele>
        <time>2020-10-03T11:22:13Z</time>
      </trkpt>
      <trkpt lat="43.56147" lon="2.799">
        <ele>967</ele>
        <time>2020-10-03T11:22:19Z</time>
      </trkpt>
      <trkpt lat="43.56138" lon="2.79908">
        <ele>968</ele>
        <time>2020-10-03T11:22:25Z</time>
      </trkpt>
      <trkpt lat="43.5613" lon="2.79916">
        <ele>966</ele>
        <time>2020-10-03T11:22:31Z</time>
      </trkpt>
      <trkpt lat="43.56122" lon="2.79923">
        <ele>965</ele>
        <time>2020-10-03T11:22:38Z</time>
      </trkpt>
      <trkpt lat="43.56114" lon="2.79931">
        <ele>963</ele>
        <time>2020-10-03T11:22:45Z</time>
      </trkpt>
      <trkpt lat="43.56108" lon="2.79942">
        <ele>964</ele>
        <time>2020-10-03T11:22:53Z</time>
      </trkpt>
      <trkpt lat="43.561" lon="2.79948">
        <ele>960</ele>
        <time>2020-10-03T11:23:01Z</time>
      </trkpt>
      <trkpt lat="43.5609" lon="2.7995">
        <ele>959</ele>
        <time>2020-10-03T11:23:07Z</time>
      </trkpt>
      <trkpt lat="43.5608" lon="2.79946">
        <ele>960</ele>
        <time>2020-10-03T11:23:14Z</time>
      </trkpt>
      <trkpt lat="43.56071" lon="2.79942">
        <ele>965</ele>
        <time>2020-10-03T11:23:20Z</time>
      </trkpt>
      <trkpt lat="43.56062" lon="2.79939">
        <ele>965</ele>
        <time>2020-10-03T11:23:25Z</time>
      </trkpt>
      <trkpt lat="43.56051" lon="2.79937">
        <ele>965</ele>
        <time>2020-10-03T11:23:32Z</time>
      </trkpt>
      <trkpt lat="43.56042" lon="2.79937">
        <ele>966</ele>
        <time>2020-10-03T11:23:39Z</time>
      </trkpt>
      <trkpt lat="43.56032" lon="2.79942">
        <ele>966</ele>
        <time>2020-10-03T11:23:45Z</time>
      </trkpt>
      <trkpt lat="43.56024" lon="2.79946">
        <ele>964</ele>
        <time>2020-10-03T11:23:52Z</time>
      </trkpt>
      <trkpt lat="43.56014" lon="2.79944">
        <ele>965</ele>
        <time>2020-10-03T11:23:58Z</time>
      </trkpt>
      <trkpt lat="43.56002" lon="2.79943">
        <ele>967</ele>
        <time>2020-10-03T11:24:06Z</time>
      </trkpt>
      <trkpt lat="43.55993" lon="2.79948">
        <ele>967</ele>
        <time>2020-10-03T11:24:14Z</time>
      </trkpt>
      <trkpt lat="43.55984" lon="2.79955">
        <ele>969</ele>
        <time>2020-10-03T11:24:21Z</time>
      </trkpt>
      <trkpt lat="43.55977" lon="2.79963">
        <ele>966</ele>
        <time>2020-10-03T11:24:28Z</time>
      </trkpt>
      <trkpt lat="43.55967" lon="2.79968">
        <ele>967</ele>
        <time>2020-10-03T11:24:35Z</time>
      </trkpt>
      <trkpt lat="43.5596" lon="2.79976">
        <ele>967</ele>
        <time>2020-10-03T11:24:41Z</time>
      </trkpt>
      <trkpt lat="43.55954" lon="2.79988">
        <ele>966</ele>
        <time>2020-10-03T11:24:49Z</time>
      </trkpt>
      <trkpt lat="43.55949" lon="2.79999">
        <ele>966</ele>
        <time>2020-10-03T11:24:56Z</time>
      </trkpt>
      <trkpt lat="43.55947" lon="2.80011">
        <ele>964</ele>
        <time>2020-10-03T11:25:04Z</time>
      </trkpt>
      <trkpt lat="43.55947" lon="2.80026">
        <ele>963</ele>
        <time>2020-10-03T11:25:11Z</time>
      </trkpt>
      <trkpt lat="43.55947" lon="2.80039">
        <ele>964</ele>
        <time>2020-10-03T11:25:19Z</time>
      </trkpt>
      <trkpt lat="43.55947" lon="2.80052">
        <ele>968</ele>
        <time>2020-10-03T11:25:26Z</time>
      </trkpt>
      <trkpt lat="43.55947" lon="2.80066">
        <ele>965</ele>
        <time>2020-10-03T11:25:34Z</time>
      </trkpt>
      <trkpt lat="43.55945" lon="2.80079">
        <ele>967</ele>
        <time>2020-10-03T11:25:42Z</time>
      </trkpt>
      <trkpt lat="43.55944" lon="2.80092">
        <ele>969</ele>
        <time>2020-10-03T11:25:50Z</time>
      </trkpt>
      <trkpt lat="43.55941" lon="2.80106">
        <ele>972</ele>
        <time>2020-10-03T11:25:58Z</time>
      </trkpt>
      <trkpt lat="43.55934" lon="2.80116">
        <ele>973</ele>
        <time>2020-10-03T11:26:05Z</time>
      </trkpt>
      <trkpt lat="43.55926" lon="2.80124">
        <ele>974</ele>
        <time>2020-10-03T11:26:12Z</time>
      </trkpt>
      <trkpt lat="43.5592" lon="2.80134">
        <ele>976</ele>
        <time>2020-10-03T11:26:19Z</time>
      </trkpt>
      <trkpt lat="43.55914" lon="2.80146">
        <ele>973</ele>
        <time>2020-10-03T11:26:27Z</time>
      </trkpt>
      <trkpt lat="43.55907" lon="2.80155">
        <ele>973</ele>
        <time>2020-10-03T11:26:35Z</time>
      </trkpt>
      <trkpt lat="43.559" lon="2.80165">
        <ele>971</ele>
        <time>2020-10-03T11:26:45Z</time>
      </trkpt>
      <trkpt lat="43.55893" lon="2.80174">
        <ele>974</ele>
        <time>2020-10-03T11:26:53Z</time>
      </trkpt>
      <trkpt lat="43.55885" lon="2.80182">
        <ele>971</ele>
        <time>2020-10-03T11:27:00Z</time>
      </trkpt>
      <trkpt lat="43.55879" lon="2.80192">
        <ele>968</ele>
        <time>2020-10-03T11:31:52Z</time>
      </trkpt>
      <trkpt lat="43.55869" lon="2.80195">
        <ele>967</ele>
        <time>2020-10-03T11:31:57Z</time>
      </trkpt>
      <trkpt lat="43.55859" lon="2.80197">
        <ele>968</ele>
        <time>2020-10-03T11:32:02Z</time>
      </trkpt>
      <trkpt lat="43.5585" lon="2.80201">
        <ele>969</ele>
        <time>2020-10-03T11:32:08Z</time>
      </trkpt>
      <trkpt lat="43.55841" lon="2.80206">
        <ele>966</ele>
        <time>2020-10-03T11:32:15Z</time>
      </trkpt>
      <trkpt lat="43.55831" lon="2.80213">
        <ele>965</ele>
        <time>2020-10-03T11:32:24Z</time>
      </trkpt>
      <trkpt lat="43.55822" lon="2.80208">
        <ele>969</ele>
        <time>2020-10-03T11:32:34Z</time>
      </trkpt>
      <trkpt lat="43.55815" lon="2.802">
        <ele>970</ele>
        <time>2020-10-03T11:32:41Z</time>
      </trkpt>
      <trkpt lat="43.55809" lon="2.80187">
        <ele>970</ele>
        <time>2020-10-03T11:32:49Z</time>
      </trkpt>
      <trkpt lat="43.55805" lon="2.80174">
        <ele>968</ele>
        <time>2020-10-03T11:32:56Z</time>
      </trkpt>
      <trkpt lat="43.55802" lon="2.80161">
        <ele>969</ele>
        <time>2020-10-03T11:33:03Z</time>
      </trkpt>
      <trkpt lat="43.55798" lon="2.80149">
        <ele>971</ele>
        <time>2020-10-03T11:33:10Z</time>
      </trkpt>
      <trkpt lat="43.55796" lon="2.80136">
        <ele>968</ele>
        <time>2020-10-03T11:33:16Z</time>
      </trkpt>
      <trkpt lat="43.55793" lon="2.80123">
        <ele>963</ele>
        <time>2020-10-03T11:33:23Z</time>
      </trkpt>
      <trkpt lat="43.55791" lon="2.80109">
        <ele>962</ele>
        <time>2020-10-03T11:33:30Z</time>
      </trkpt>
      <trkpt lat="43.55787" lon="2.80095">
        <ele>959</ele>
        <time>2020-10-03T11:33:38Z</time>
      </trkpt>
      <trkpt lat="43.55782" lon="2.80084">
        <ele>960</ele>
        <time>2020-10-03T11:33:45Z</time>
      </trkpt>
      <trkpt lat="43.55777" lon="2.80073">
        <ele>961</ele>
        <time>2020-10-03T11:33:52Z</time>
      </trkpt>
      <trkpt lat="43.55773" lon="2.8006">
        <ele>959</ele>
        <time>2020-10-03T11:34:00Z</time>
      </trkpt>
      <trkpt lat="43.55772" lon="2.80046">
        <ele>960</ele>
        <time>2020-10-03T11:34:08Z</time>
      </trkpt>
      <trkpt lat="43.55769" lon="2.80034">
        <ele>960</ele>
        <time>2020-10-03T11:34:14Z</time>
      </trkpt>
      <trkpt lat="43.55767" lon="2.8002">
        <ele>959</ele>
        <time>2020-10-03T11:34:21Z</time>
      </trkpt>
      <trkpt lat="43.55769" lon="2.80004">
        <ele>959</ele>
        <time>2020-10-03T11:34:28Z</time>
      </trkpt>
      <trkpt lat="43.55767" lon="2.7999">
        <ele>959</ele>
        <time>2020-10-03T11:34:33Z</time>
      </trkpt>
      <trkpt lat="43.55763" lon="2.79978">
        <ele>963</ele>
        <time>2020-10-03T11:34:38Z</time>
      </trkpt>
      <trkpt lat="43.55758" lon="2.79967">
        <ele>965</ele>
        <time>2020-10-03T11:34:44Z</time>
      </trkpt>
      <trkpt lat="43.55753" lon="2.79955">
        <ele>966</ele>
        <time>2020-10-03T11:34:52Z</time>
      </trkpt>
      <trkpt lat="43.55748" lon="2.79943">
        <ele>966</ele>
        <time>2020-10-03T11:35:01Z</time>
      </trkpt>
      <trkpt lat="43.55742" lon="2.79933">
        <ele>965</ele>
        <time>2020-10-03T11:35:07Z</time>
      </trkpt>
      <trkpt lat="43.55735" lon="2.79922">
        <ele>963</ele>
        <time>2020-10-03T11:35:14Z</time>
      </trkpt>
      <trkpt lat="43.55729" lon="2.79911">
        <ele>959</ele>
        <time>2020-10-03T11:35:21Z</time>
      </trkpt>
      <trkpt lat="43.55722" lon="2.79901">
        <ele>958</ele>
        <time>2020-10-03T11:35:29Z</time>
      </trkpt>
      <trkpt lat="43.55714" lon="2.79892">
        <ele>959</ele>
        <time>2020-10-03T11:35:36Z</time>
      </trkpt>
      <trkpt lat="43.55707" lon="2.79884">
        <ele>960</ele>
        <time>2020-10-03T11:35:42Z</time>
      </trkpt>
      <trkpt lat="43.55698" lon="2.79877">
        <ele>962</ele>
        <time>2020-10-03T11:35:47Z</time>
      </trkpt>
      <trkpt lat="43.55688" lon="2.7987">
        <ele>962</ele>
        <time>2020-10-03T11:35:55Z</time>
      </trkpt>
      <trkpt lat="43.5568" lon="2.79864">
        <ele>960</ele>
        <time>2020-10-03T11:36:02Z</time>
      </trkpt>
      <trkpt lat="43.5567" lon="2.79861">
        <ele>957</ele>
        <time>2020-10-03T11:36:08Z</time>
      </trkpt>
      <trkpt lat="43.55661" lon="2.7986">
        <ele>960</ele>
        <time>2020-10-03T11:36:14Z</time>
      </trkpt>
      <trkpt lat="43.55651" lon="2.7986">
        <ele>960</ele>
        <time>2020-10-03T11:36:21Z</time>
      </trkpt>
      <trkpt lat="43.55641" lon="2.79859">
        <ele>960</ele>
        <time>2020-10-03T11:36:27Z</time>
      </trkpt>
      <trkpt lat="43.55633" lon="2.79864">
        <ele>963</ele>
        <time>2020-10-03T11:36:43Z</time>
      </trkpt>
      <trkpt lat="43.55621" lon="2.79862">
        <ele>963</ele>
        <time>2020-10-03T11:36:48Z</time>
      </trkpt>
      <trkpt lat="43.55611" lon="2.79859">
        <ele>962</ele>
        <time>2020-10-03T11:36:51Z</time>
      </trkpt>
      <trkpt lat="43.55601" lon="2.79858">
        <ele>963</ele>
        <time>2020-10-03T11:36:56Z</time>
      </trkpt>
      <trkpt lat="43.5559" lon="2.79858">
        <ele>964</ele>
        <time>2020-10-03T11:37:01Z</time>
      </trkpt>
      <trkpt lat="43.5558" lon="2.79859">
        <ele>963</ele>
        <time>2020-10-03T11:37:08Z</time>
      </trkpt>
      <trkpt lat="43.55569" lon="2.7986">
        <ele>963</ele>
        <time>2020-10-03T11:37:14Z</time>
      </trkpt>
      <trkpt lat="43.55559" lon="2.79863">
        <ele>964</ele>
        <time>2020-10-03T11:37:21Z</time>
      </trkpt>
      <trkpt lat="43.5555" lon="2.79865">
        <ele>965</ele>
        <time>2020-10-03T11:37:27Z</time>
      </trkpt>
      <trkpt lat="43.55541" lon="2.7987">
        <ele>967</ele>
        <time>2020-10-03T11:37:36Z</time>
      </trkpt>
      <trkpt lat="43.55532" lon="2.79875">
        <ele>969</ele>
        <time>2020-10-03T11:37:43Z</time>
      </trkpt>
      <trkpt lat="43.55523" lon="2.79882">
        <ele>970</ele>
        <time>2020-10-03T11:37:50Z</time>
      </trkpt>
      <trkpt lat="43.55514" lon="2.79887">
        <ele>972</ele>
        <time>2020-10-03T11:37:57Z</time>
      </trkpt>
      <trkpt lat="43.55504" lon="2.79892">
        <ele>974</ele>
        <time>2020-10-03T11:38:04Z</time>
      </trkpt>
      <trkpt lat="43.55496" lon="2.799">
        <ele>967</ele>
        <time>2020-10-03T11:38:12Z</time>
      </trkpt>
      <trkpt lat="43.55487" lon="2.79905">
        <ele>970</ele>
        <time>2020-10-03T11:38:20Z</time>
      </trkpt>
      <trkpt lat="43.55477" lon="2.79903">
        <ele>971</ele>
        <time>2020-10-03T11:38:35Z</time>
      </trkpt>
      <trkpt lat="43.55467" lon="2.79902">
        <ele>978</ele>
        <time>2020-10-03T11:38:44Z</time>
      </trkpt>
      <trkpt lat="43.55456" lon="2.79901">
        <ele>979</ele>
        <time>2020-10-03T11:38:53Z</time>
      </trkpt>
      <trkpt lat="43.55447" lon="2.79897">
        <ele>982</ele>
        <time>2020-10-03T11:39:00Z</time>
      </trkpt>
      <trkpt lat="43.55437" lon="2.79893">
        <ele>980</ele>
        <time>2020-10-03T11:39:06Z</time>
      </trkpt>
      <trkpt lat="43.55428" lon="2.7989">
        <ele>981</ele>
        <time>2020-10-03T11:39:12Z</time>
      </trkpt>
      <trkpt lat="43.55417" lon="2.79888">
        <ele>978</ele>
        <time>2020-10-03T11:39:18Z</time>
      </trkpt>
      <trkpt lat="43.55408" lon="2.79888">
        <ele>983</ele>
        <time>2020-10-03T11:39:23Z</time>
      </trkpt>
      <trkpt lat="43.55399" lon="2.79887">
        <ele>981</ele>
        <time>2020-10-03T11:39:28Z</time>
      </trkpt>
      <trkpt lat="43.55388" lon="2.79885">
        <ele>979</ele>
        <time>2020-10-03T11:39:34Z</time>
      </trkpt>
      <trkpt lat="43.55379" lon="2.79885">
        <ele>981</ele>
        <time>2020-10-03T11:39:40Z</time>
      </trkpt>
      <trkpt lat="43.5537" lon="2.79884">
        <ele>978</ele>
        <time>2020-10-03T11:39:46Z</time>
      </trkpt>
      <trkpt lat="43.55359" lon="2.79884">
        <ele>982</ele>
        <time>2020-10-03T11:39:53Z</time>
      </trkpt>
      <trkpt lat="43.5535" lon="2.79883">
        <ele>981</ele>
        <time>2020-10-03T11:39:59Z</time>
      </trkpt>
      <trkpt lat="43.5534" lon="2.79884">
        <ele>981</ele>
        <time>2020-10-03T11:40:06Z</time>
      </trkpt>
      <trkpt lat="43.5533" lon="2.79887">
        <ele>979</ele>
        <time>2020-10-03T11:40:13Z</time>
      </trkpt>
      <trkpt lat="43.55319" lon="2.79889">
        <ele>979</ele>
        <time>2020-10-03T11:40:20Z</time>
      </trkpt>
      <trkpt lat="43.55309" lon="2.7989">
        <ele>983</ele>
        <time>2020-10-03T11:40:29Z</time>
      </trkpt>
      <trkpt lat="43.55299" lon="2.79889">
        <ele>986</ele>
        <time>2020-10-03T11:40:36Z</time>
      </trkpt>
      <trkpt lat="43.55291" lon="2.7988">
        <ele>988</ele>
        <time>2020-10-03T11:40:45Z</time>
      </trkpt>
      <trkpt lat="43.55282" lon="2.79874">
        <ele>987</ele>
        <time>2020-10-03T11:40:52Z</time>
      </trkpt>
      <trkpt lat="43.55273" lon="2.79873">
        <ele>989</ele>
        <time>2020-10-03T11:41:00Z</time>
      </trkpt>
      <trkpt lat="43.55264" lon="2.7987">
        <ele>988</ele>
        <time>2020-10-03T11:41:07Z</time>
      </trkpt>
      <trkpt lat="43.55254" lon="2.79867">
        <ele>986</ele>
        <time>2020-10-03T11:41:14Z</time>
      </trkpt>
      <trkpt lat="43.55245" lon="2.79864">
        <ele>986</ele>
        <time>2020-10-03T11:41:22Z</time>
      </trkpt>
      <trkpt lat="43.55236" lon="2.79868">
        <ele>982</ele>
        <time>2020-10-03T11:42:13Z</time>
      </trkpt>
      <trkpt lat="43.55228" lon="2.79876">
        <ele>985</ele>
        <time>2020-10-03T11:47:06Z</time>
      </trkpt>
      <trkpt lat="43.5522" lon="2.79888">
        <ele>986</ele>
        <time>2020-10-03T11:47:23Z</time>
      </trkpt>
      <trkpt lat="43.55211" lon="2.79896">
        <ele>989</ele>
        <time>2020-10-03T11:47:30Z</time>
      </trkpt>
      <trkpt lat="43.55203" lon="2.79904">
        <ele>987</ele>
        <time>2020-10-03T11:47:36Z</time>
      </trkpt>
      <trkpt lat="43.55194" lon="2.79912">
        <ele>989</ele>
        <time>2020-10-03T11:47:42Z</time>
      </trkpt>
      <trkpt lat="43.55186" lon="2.79921">
        <ele>990</ele>
        <time>2020-10-03T11:47:48Z</time>
      </trkpt>
      <trkpt lat="43.5518" lon="2.79932">
        <ele>990</ele>
        <time>2020-10-03T11:47:55Z</time>
      </trkpt>
      <trkpt lat="43.55173" lon="2.79942">
        <ele>990</ele>
        <time>2020-10-03T11:48:02Z</time>
      </trkpt>
      <trkpt lat="43.55165" lon="2.7995">
        <ele>985</ele>
        <time>2020-10-03T11:48:09Z</time>
      </trkpt>
      <trkpt lat="43.55157" lon="2.79959">
        <ele>987</ele>
        <time>2020-10-03T11:48:16Z</time>
      </trkpt>
      <trkpt lat="43.55151" lon="2.79971">
        <ele>989</ele>
        <time>2020-10-03T11:48:23Z</time>
      </trkpt>
      <trkpt lat="43.55147" lon="2.79983">
        <ele>984</ele>
        <time>2020-10-03T11:48:30Z</time>
      </trkpt>
      <trkpt lat="43.5514" lon="2.79994">
        <ele>982</ele>
        <time>2020-10-03T11:48:37Z</time>
      </trkpt>
      <trkpt lat="43.55141" lon="2.8001">
        <ele>988</ele>
        <time>2020-10-03T11:49:27Z</time>
      </trkpt>
      <trkpt lat="43.55135" lon="2.80023">
        <ele>985</ele>
        <time>2020-10-03T11:49:34Z</time>
      </trkpt>
      <trkpt lat="43.55128" lon="2.80032">
        <ele>980</ele>
        <time>2020-10-03T11:49:41Z</time>
      </trkpt>
      <trkpt lat="43.55118" lon="2.8004">
        <ele>977</ele>
        <time>2020-10-03T11:49:47Z</time>
      </trkpt>
      <trkpt lat="43.55111" lon="2.80053">
        <ele>978</ele>
        <time>2020-10-03T11:49:53Z</time>
      </trkpt>
      <trkpt lat="43.55103" lon="2.80064">
        <ele>976</ele>
        <time>2020-10-03T11:49:59Z</time>
      </trkpt>
      <trkpt lat="43.55099" lon="2.80076">
        <ele>976</ele>
        <time>2020-10-03T11:50:05Z</time>
      </trkpt>
      <trkpt lat="43.55098" lon="2.8009">
        <ele>976</ele>
        <time>2020-10-03T11:50:11Z</time>
      </trkpt>
      <trkpt lat="43.55097" lon="2.80104">
        <ele>977</ele>
        <time>2020-10-03T11:50:17Z</time>
      </trkpt>
      <trkpt lat="43.55095" lon="2.80117">
        <ele>973</ele>
        <time>2020-10-03T11:50:24Z</time>
      </trkpt>
      <trkpt lat="43.55094" lon="2.80131">
        <ele>975</ele>
        <time>2020-10-03T11:50:31Z</time>
      </trkpt>
      <trkpt lat="43.55091" lon="2.80143">
        <ele>976</ele>
        <time>2020-10-03T11:50:37Z</time>
      </trkpt>
      <trkpt lat="43.55089" lon="2.80157">
        <ele>976</ele>
        <time>2020-10-03T11:50:43Z</time>
      </trkpt>
      <trkpt lat="43.5509" lon="2.80171">
        <ele>977</ele>
        <time>2020-10-03T11:50:50Z</time>
      </trkpt>
      <trkpt lat="43.55087" lon="2.80185">
        <ele>974</ele>
        <time>2020-10-03T11:50:58Z</time>
      </trkpt>
      <trkpt lat="43.55081" lon="2.80197">
        <ele>973</ele>
        <time>2020-10-03T11:51:05Z</time>
      </trkpt>
      <trkpt lat="43.55073" lon="2.80208">
        <ele>974</ele>
        <time>2020-10-03T11:51:13Z</time>
      </trkpt>
      <trkpt lat="43.55067" lon="2.80219">
        <ele>972</ele>
        <time>2020-10-03T11:51:19Z</time>
      </trkpt>
      <trkpt lat="43.55062" lon="2.80229">
        <ele>975</ele>
        <time>2020-10-03T11:51:25Z</time>
      </trkpt>
      <trkpt lat="43.55057" lon="2.8024">
        <ele>977</ele>
        <time>2020-10-03T11:51:31Z</time>
      </trkpt>
      <trkpt lat="43.55053" lon="2.80253">
        <ele>978</ele>
        <time>2020-10-03T11:51:37Z</time>
      </trkpt>
      <trkpt lat="43.55049" lon="2.80266">
        <ele>976</ele>
        <time>2020-10-03T11:51:43Z</time>
      </trkpt>
      <trkpt lat="43.5505" lon="2.80281">
        <ele>974</ele>
        <time>2020-10-03T11:51:48Z</time>
      </trkpt>
      <trkpt lat="43.5505" lon="2.80295">
        <ele>977</ele>
        <time>2020-10-03T11:51:54Z</time>
      </trkpt>
      <trkpt lat="43.55051" lon="2.8031">
        <ele>972</ele>
        <time>2020-10-03T11:52:00Z</time>
      </trkpt>
      <trkpt lat="43.55053" lon="2.80324">
        <ele>972</ele>
        <time>2020-10-03T11:52:06Z</time>
      </trkpt>
      <trkpt lat="43.55053" lon="2.80338">
        <ele>970</ele>
        <time>2020-10-03T11:52:13Z</time>
      </trkpt>
      <trkpt lat="43.55048" lon="2.80349">
        <ele>974</ele>
        <time>2020-10-03T11:52:32Z</time>
      </trkpt>
      <trkpt lat="43.55038" lon="2.80341">
        <ele>976</ele>
        <time>2020-10-03T11:52:46Z</time>
      </trkpt>
      <trkpt lat="43.55031" lon="2.80329">
        <ele>977</ele>
        <time>2020-10-03T11:52:53Z</time>
      </trkpt>
      <trkpt lat="43.5503" lon="2.80314">
        <ele>977</ele>
        <time>2020-10-03T11:52:58Z</time>
      </trkpt>
      <trkpt lat="43.55032" lon="2.80296">
        <ele>978</ele>
        <time>2020-10-03T11:53:02Z</time>
      </trkpt>
      <trkpt lat="43.55036" lon="2.80283">
        <ele>977</ele>
        <time>2020-10-03T11:53:06Z</time>
      </trkpt>
      <trkpt lat="43.55041" lon="2.80269">
        <ele>976</ele>
        <time>2020-10-03T11:53:11Z</time>
      </trkpt>
      <trkpt lat="43.55046" lon="2.80256">
        <ele>974</ele>
        <time>2020-10-03T11:53:17Z</time>
      </trkpt>
      <trkpt lat="43.55049" lon="2.80243">
        <ele>975</ele>
        <time>2020-10-03T11:53:23Z</time>
      </trkpt>
      <trkpt lat="43.5505" lon="2.8023">
        <ele>974</ele>
        <time>2020-10-03T11:53:30Z</time>
      </trkpt>
      <trkpt lat="43.5505" lon="2.80217">
        <ele>973</ele>
        <time>2020-10-03T11:53:36Z</time>
      </trkpt>
      <trkpt lat="43.55049" lon="2.80202">
        <ele>970</ele>
        <time>2020-10-03T11:53:44Z</time>
      </trkpt>
      <trkpt lat="43.55047" lon="2.80186">
        <ele>972</ele>
        <time>2020-10-03T11:53:51Z</time>
      </trkpt>
      <trkpt lat="43.55046" lon="2.80171">
        <ele>970</ele>
        <time>2020-10-03T11:53:57Z</time>
      </trkpt>
      <trkpt lat="43.55045" lon="2.80157">
        <ele>969</ele>
        <time>2020-10-03T11:54:04Z</time>
      </trkpt>
      <trkpt lat="43.55041" lon="2.80145">
        <ele>966</ele>
        <time>2020-10-03T11:54:10Z</time>
      </trkpt>
      <trkpt lat="43.5504" lon="2.80132">
        <ele>965</ele>
        <time>2020-10-03T11:54:16Z</time>
      </trkpt>
      <trkpt lat="43.55041" lon="2.80118">
        <ele>968</ele>
        <time>2020-10-03T11:54:22Z</time>
      </trkpt>
      <trkpt lat="43.55037" lon="2.80106">
        <ele>968</ele>
        <time>2020-10-03T11:54:28Z</time>
      </trkpt>
      <trkpt lat="43.55034" lon="2.80094">
        <ele>965</ele>
        <time>2020-10-03T11:54:34Z</time>
      </trkpt>
      <trkpt lat="43.55032" lon="2.8008">
        <ele>963</ele>
        <time>2020-10-03T11:54:41Z</time>
      </trkpt>
      <trkpt lat="43.55028" lon="2.80067">
        <ele>963</ele>
        <time>2020-10-03T11:54:49Z</time>
      </trkpt>
      <trkpt lat="43.55023" lon="2.80055">
        <ele>963</ele>
        <time>2020-10-03T11:54:56Z</time>
      </trkpt>
      <trkpt lat="43.55014" lon="2.80047">
        <ele>961</ele>
        <time>2020-10-03T11:55:02Z</time>
      </trkpt>
      <trkpt lat="43.55006" lon="2.80039">
        <ele>962</ele>
        <time>2020-10-03T11:55:08Z</time>
      </trkpt>
      <trkpt lat="43.54998" lon="2.80031">
        <ele>961</ele>
        <time>2020-10-03T11:55:15Z</time>
      </trkpt>
      <trkpt lat="43.5499" lon="2.80022">
        <ele>963</ele>
        <time>2020-10-03T11:55:22Z</time>
      </trkpt>
      <trkpt lat="43.54983" lon="2.80034">
        <ele>956</ele>
        <time>2020-10-03T11:55:32Z</time>
      </trkpt>
      <trkpt lat="43.54988" lon="2.80047">
        <ele>956</ele>
        <time>2020-10-03T11:55:38Z</time>
      </trkpt>
      <trkpt lat="43.54993" lon="2.80059">
        <ele>953</ele>
        <time>2020-10-03T11:55:45Z</time>
      </trkpt>
      <trkpt lat="43.55002" lon="2.80066">
        <ele>954</ele>
        <time>2020-10-03T11:55:53Z</time>
      </trkpt>
      <trkpt lat="43.55011" lon="2.80071">
        <ele>955</ele>
        <time>2020-10-03T11:56:01Z</time>
      </trkpt>
      <trkpt lat="43.55019" lon="2.80077">
        <ele>957</ele>
        <time>2020-10-03T11:56:09Z</time>
      </trkpt>
      <trkpt lat="43.55026" lon="2.80086">
        <ele>959</ele>
        <time>2020-10-03T11:56:20Z</time>
      </trkpt>
      <trkpt lat="43.55028" lon="2.80099">
        <ele>961</ele>
        <time>2020-10-03T11:56:31Z</time>
      </trkpt>
      <trkpt lat="43.55027" lon="2.80114">
        <ele>958</ele>
        <time>2020-10-03T11:56:38Z</time>
      </trkpt>
      <trkpt lat="43.55022" lon="2.80126">
        <ele>958</ele>
        <time>2020-10-03T11:56:44Z</time>
      </trkpt>
      <trkpt lat="43.55018" lon="2.80138">
        <ele>959</ele>
        <time>2020-10-03T11:56:50Z</time>
      </trkpt>
      <trkpt lat="43.55016" lon="2.80151">
        <ele>958</ele>
        <time>2020-10-03T11:56:58Z</time>
      </trkpt>
      <trkpt lat="43.55015" lon="2.80164">
        <ele>956</ele>
        <time>2020-10-03T11:57:05Z</time>
      </trkpt>
      <trkpt lat="43.55015" lon="2.80178">
        <ele>957</ele>
        <time>2020-10-03T11:57:12Z</time>
      </trkpt>
      <trkpt lat="43.55014" lon="2.8019">
        <ele>953</ele>
        <time>2020-10-03T11:57:18Z</time>
      </trkpt>
      <trkpt lat="43.55011" lon="2.80204">
        <ele>949</ele>
        <time>2020-10-03T11:57:26Z</time>
      </trkpt>
      <trkpt lat="43.5501" lon="2.80219">
        <ele>948</ele>
        <time>2020-10-03T11:57:33Z</time>
      </trkpt>
      <trkpt lat="43.55008" lon="2.80234">
        <ele>945</ele>
        <time>2020-10-03T11:57:41Z</time>
      </trkpt>
      <trkpt lat="43.55007" lon="2.80247">
        <ele>943</ele>
        <time>2020-10-03T11:57:47Z</time>
      </trkpt>
      <trkpt lat="43.55005" lon="2.8026">
        <ele>946</ele>
        <time>2020-10-03T11:57:54Z</time>
      </trkpt>
      <trkpt lat="43.55003" lon="2.80273">
        <ele>942</ele>
        <time>2020-10-03T11:58:01Z</time>
      </trkpt>
      <trkpt lat="43.55004" lon="2.80287">
        <ele>941</ele>
        <time>2020-10-03T11:58:08Z</time>
      </trkpt>
      <trkpt lat="43.55005" lon="2.80301">
        <ele>942</ele>
        <time>2020-10-03T11:58:15Z</time>
      </trkpt>
      <trkpt lat="43.55004" lon="2.80315">
        <ele>947</ele>
        <time>2020-10-03T11:58:21Z</time>
      </trkpt>
      <trkpt lat="43.55004" lon="2.80328">
        <ele>946</ele>
        <time>2020-10-03T11:58:28Z</time>
      </trkpt>
      <trkpt lat="43.55005" lon="2.80342">
        <ele>945</ele>
        <time>2020-10-03T11:58:36Z</time>
      </trkpt>
      <trkpt lat="43.55004" lon="2.80356">
        <ele>944</ele>
        <time>2020-10-03T11:58:42Z</time>
      </trkpt>
      <trkpt lat="43.55002" lon="2.8037">
        <ele>945</ele>
        <time>2020-10-03T11:58:49Z</time>
      </trkpt>
      <trkpt lat="43.55003" lon="2.80384">
        <ele>948</ele>
        <time>2020-10-03T11:58:55Z</time>
      </trkpt>
      <trkpt lat="43.55006" lon="2.80397">
        <ele>947</ele>
        <time>2020-10-03T11:59:02Z</time>
      </trkpt>
      <trkpt lat="43.55012" lon="2.80408">
        <ele>942</ele>
        <time>2020-10-03T11:59:10Z</time>
      </trkpt>
      <trkpt lat="43.55018" lon="2.8042">
        <ele>944</ele>
        <time>2020-10-03T11:59:17Z</time>
      </trkpt>
      <trkpt lat="43.55022" lon="2.80434">
        <ele>947</ele>
        <time>2020-10-03T11:59:26Z</time>
      </trkpt>
      <trkpt lat="43.55023" lon="2.80448">
        <ele>943</ele>
        <time>2020-10-03T11:59:33Z</time>
      </trkpt>
      <trkpt lat="43.55026" lon="2.80462">
        <ele>940</ele>
        <time>2020-10-03T11:59:40Z</time>
      </trkpt>
      <trkpt lat="43.55029" lon="2.80476">
        <ele>939</ele>
        <time>2020-10-03T11:59:47Z</time>
      </trkpt>
      <trkpt lat="43.55031" lon="2.80489">
        <ele>936</ele>
        <time>2020-10-03T11:59:54Z</time>
      </trkpt>
      <trkpt lat="43.55033" lon="2.80503">
        <ele>938</ele>
        <time>2020-10-03T12:00:01Z</time>
      </trkpt>
      <trkpt lat="43.55036" lon="2.80516">
        <ele>933</ele>
        <time>2020-10-03T12:00:07Z</time>
      </trkpt>
      <trkpt lat="43.55039" lon="2.8053">
        <ele>935</ele>
        <time>2020-10-03T12:00:14Z</time>
      </trkpt>
      <trkpt lat="43.55041" lon="2.80545">
        <ele>936</ele>
        <time>2020-10-03T12:00:20Z</time>
      </trkpt>
      <trkpt lat="43.55041" lon="2.80562">
        <ele>935</ele>
        <time>2020-10-03T12:00:26Z</time>
      </trkpt>
      <trkpt lat="43.5504" lon="2.80575">
        <ele>933</ele>
        <time>2020-10-03T12:00:31Z</time>
      </trkpt>
      <trkpt lat="43.5504" lon="2.80589">
        <ele>929</ele>
        <time>2020-10-03T12:00:38Z</time>
      </trkpt>
      <trkpt lat="43.5504" lon="2.80602">
        <ele>924</ele>
        <time>2020-10-03T12:00:46Z</time>
      </trkpt>
      <trkpt lat="43.55043" lon="2.80615">
        <ele>923</ele>
        <time>2020-10-03T12:00:57Z</time>
      </trkpt>
      <trkpt lat="43.55046" lon="2.80627">
        <ele>925</ele>
        <time>2020-10-03T12:01:07Z</time>
      </trkpt>
      <trkpt lat="43.55048" lon="2.80641">
        <ele>920</ele>
        <time>2020-10-03T12:01:14Z</time>
      </trkpt>
      <trkpt lat="43.55054" lon="2.80653">
        <ele>921</ele>
        <time>2020-10-03T12:01:21Z</time>
      </trkpt>
      <trkpt lat="43.5506" lon="2.80663">
        <ele>918</ele>
        <time>2020-10-03T12:01:28Z</time>
      </trkpt>
      <trkpt lat="43.55066" lon="2.80676">
        <ele>914</ele>
        <time>2020-10-03T12:01:36Z</time>
      </trkpt>
      <trkpt lat="43.5507" lon="2.80688">
        <ele>910</ele>
        <time>2020-10-03T12:01:43Z</time>
      </trkpt>
      <trkpt lat="43.55075" lon="2.807">
        <ele>910</ele>
        <time>2020-10-03T12:01:50Z</time>
      </trkpt>
      <trkpt lat="43.55077" lon="2.80713">
        <ele>909</ele>
        <time>2020-10-03T12:01:56Z</time>
      </trkpt>
      <trkpt lat="43.5508" lon="2.80726">
        <ele>908</ele>
        <time>2020-10-03T12:02:03Z</time>
      </trkpt>
      <trkpt lat="43.55081" lon="2.8074">
        <ele>908</ele>
        <time>2020-10-03T12:02:11Z</time>
      </trkpt>
      <trkpt lat="43.55081" lon="2.80754">
        <ele>904</ele>
        <time>2020-10-03T12:02:19Z</time>
      </trkpt>
      <trkpt lat="43.55081" lon="2.80768">
        <ele>905</ele>
        <time>2020-10-03T12:02:26Z</time>
      </trkpt>
      <trkpt lat="43.5508" lon="2.80782">
        <ele>905</ele>
        <time>2020-10-03T12:02:33Z</time>
      </trkpt>
      <trkpt lat="43.55081" lon="2.80795">
        <ele>904</ele>
        <time>2020-10-03T12:02:40Z</time>
      </trkpt>
      <trkpt lat="43.55082" lon="2.80809">
        <ele>901</ele>
        <time>2020-10-03T12:02:47Z</time>
      </trkpt>
      <trkpt lat="43.55081" lon="2.80821">
        <ele>899</ele>
        <time>2020-10-03T12:03:03Z</time>
      </trkpt>
      <trkpt lat="43.55076" lon="2.80806">
        <ele>897</ele>
        <time>2020-10-03T12:03:44Z</time>
      </trkpt>
      <trkpt lat="43.55069" lon="2.80799">
        <ele>898</ele>
        <time>2020-10-03T12:04:25Z</time>
      </trkpt>
      <trkpt lat="43.55077" lon="2.80803">
        <ele>893</ele>
        <time>2020-10-03T12:07:25Z</time>
      </trkpt>
      <trkpt lat="43.55084" lon="2.80793">
        <ele>892</ele>
        <time>2020-10-03T12:07:35Z</time>
      </trkpt>
      <trkpt lat="43.55085" lon="2.80779">
        <ele>887</ele>
        <time>2020-10-03T12:07:41Z</time>
      </trkpt>
      <trkpt lat="43.55081" lon="2.80764">
        <ele>886</ele>
        <time>2020-10-03T12:07:47Z</time>
      </trkpt>
      <trkpt lat="43.55076" lon="2.80753">
        <ele>884</ele>
        <time>2020-10-03T12:07:51Z</time>
      </trkpt>
      <trkpt lat="43.55071" lon="2.80741">
        <ele>892</ele>
        <time>2020-10-03T12:07:58Z</time>
      </trkpt>
      <trkpt lat="43.55065" lon="2.80729">
        <ele>896</ele>
        <time>2020-10-03T12:08:05Z</time>
      </trkpt>
      <trkpt lat="43.55061" lon="2.80718">
        <ele>895</ele>
        <time>2020-10-03T12:08:13Z</time>
      </trkpt>
      <trkpt lat="43.55054" lon="2.80707">
        <ele>895</ele>
        <time>2020-10-03T12:08:21Z</time>
      </trkpt>
      <trkpt lat="43.55046" lon="2.807">
        <ele>896</ele>
        <time>2020-10-03T12:08:28Z</time>
      </trkpt>
      <trkpt lat="43.55037" lon="2.80695">
        <ele>895</ele>
        <time>2020-10-03T12:08:34Z</time>
      </trkpt>
      <trkpt lat="43.55029" lon="2.80688">
        <ele>892</ele>
        <time>2020-10-03T12:08:41Z</time>
      </trkpt>
      <trkpt lat="43.55022" lon="2.80677">
        <ele>890</ele>
        <time>2020-10-03T12:08:48Z</time>
      </trkpt>
      <trkpt lat="43.55016" lon="2.80666">
        <ele>891</ele>
        <time>2020-10-03T12:08:55Z</time>
      </trkpt>
      <trkpt lat="43.5501" lon="2.80655">
        <ele>891</ele>
        <time>2020-10-03T12:09:01Z</time>
      </trkpt>
      <trkpt lat="43.55003" lon="2.80645">
        <ele>891</ele>
        <time>2020-10-03T12:09:08Z</time>
      </trkpt>
      <trkpt lat="43.54996" lon="2.80636">
        <ele>893</ele>
        <time>2020-10-03T12:09:14Z</time>
      </trkpt>
      <trkpt lat="43.54989" lon="2.80627">
        <ele>896</ele>
        <time>2020-10-03T12:09:21Z</time>
      </trkpt>
      <trkpt lat="43.54983" lon="2.80617">
        <ele>898</ele>
        <time>2020-10-03T12:09:27Z</time>
      </trkpt>
      <trkpt lat="43.54976" lon="2.80607">
        <ele>895</ele>
        <time>2020-10-03T12:09:33Z</time>
      </trkpt>
      <trkpt lat="43.5497" lon="2.80597">
        <ele>894</ele>
        <time>2020-10-03T12:09:39Z</time>
      </trkpt>
      <trkpt lat="43.54964" lon="2.80586">
        <ele>897</ele>
        <time>2020-10-03T12:09:47Z</time>
      </trkpt>
      <trkpt lat="43.54961" lon="2.80572">
        <ele>897</ele>
        <time>2020-10-03T12:09:53Z</time>
      </trkpt>
      <trkpt lat="43.54958" lon="2.80559">
        <ele>896</ele>
        <time>2020-10-03T12:10:00Z</time>
      </trkpt>
      <trkpt lat="43.54957" lon="2.80545">
        <ele>898</ele>
        <time>2020-10-03T12:10:07Z</time>
      </trkpt>
      <trkpt lat="43.54954" lon="2.80531">
        <ele>901</ele>
        <time>2020-10-03T12:10:14Z</time>
      </trkpt>
      <trkpt lat="43.5495" lon="2.80519">
        <ele>899</ele>
        <time>2020-10-03T12:10:20Z</time>
      </trkpt>
      <trkpt lat="43.54945" lon="2.80506">
        <ele>897</ele>
        <time>2020-10-03T12:10:27Z</time>
      </trkpt>
      <trkpt lat="43.5494" lon="2.80494">
        <ele>898</ele>
        <time>2020-10-03T12:10:34Z</time>
      </trkpt>
      <trkpt lat="43.54932" lon="2.80485">
        <ele>900</ele>
        <time>2020-10-03T12:10:40Z</time>
      </trkpt>
      <trkpt lat="43.54924" lon="2.8048">
        <ele>899</ele>
        <time>2020-10-03T12:10:46Z</time>
      </trkpt>
      <trkpt lat="43.54914" lon="2.80475">
        <ele>895</ele>
        <time>2020-10-03T12:10:52Z</time>
      </trkpt>
      <trkpt lat="43.54904" lon="2.80469">
        <ele>893</ele>
        <time>2020-10-03T12:10:58Z</time>
      </trkpt>
      <trkpt lat="43.54896" lon="2.8046">
        <ele>890</ele>
        <time>2020-10-03T12:11:06Z</time>
      </trkpt>
      <trkpt lat="43.54884" lon="2.8046">
        <ele>889</ele>
        <time>2020-10-03T12:11:12Z</time>
      </trkpt>
      <trkpt lat="43.54876" lon="2.80466">
        <ele>887</ele>
        <time>2020-10-03T12:11:17Z</time>
      </trkpt>
      <trkpt lat="43.54869" lon="2.80474">
        <ele>884</ele>
        <time>2020-10-03T12:11:25Z</time>
      </trkpt>
      <trkpt lat="43.54874" lon="2.80491">
        <ele>879</ele>
        <time>2020-10-03T12:11:51Z</time>
      </trkpt>
      <trkpt lat="43.54883" lon="2.80492">
        <ele>875</ele>
        <time>2020-10-03T12:13:38Z</time>
      </trkpt>
      <trkpt lat="43.54887" lon="2.80506">
        <ele>875</ele>
        <time>2020-10-03T12:14:01Z</time>
      </trkpt>
      <trkpt lat="43.54891" lon="2.80521">
        <ele>874</ele>
        <time>2020-10-03T12:14:06Z</time>
      </trkpt>
      <trkpt lat="43.54894" lon="2.80534">
        <ele>871</ele>
        <time>2020-10-03T12:14:11Z</time>
      </trkpt>
      <trkpt lat="43.54897" lon="2.80548">
        <ele>873</ele>
        <time>2020-10-03T12:14:17Z</time>
      </trkpt>
      <trkpt lat="43.54897" lon="2.80562">
        <ele>871</ele>
        <time>2020-10-03T12:14:23Z</time>
      </trkpt>
      <trkpt lat="43.54897" lon="2.80575">
        <ele>872</ele>
        <time>2020-10-03T12:14:29Z</time>
      </trkpt>
      <trkpt lat="43.54898" lon="2.80589">
        <ele>870</ele>
        <time>2020-10-03T12:14:36Z</time>
      </trkpt>
      <trkpt lat="43.549" lon="2.80602">
        <ele>864</ele>
        <time>2020-10-03T12:14:43Z</time>
      </trkpt>
      <trkpt lat="43.549" lon="2.80617">
        <ele>861</ele>
        <time>2020-10-03T12:14:51Z</time>
      </trkpt>
      <trkpt lat="43.54899" lon="2.8063">
        <ele>852</ele>
        <time>2020-10-03T12:15:00Z</time>
      </trkpt>
      <trkpt lat="43.54901" lon="2.80644">
        <ele>849</ele>
        <time>2020-10-03T12:15:10Z</time>
      </trkpt>
      <trkpt lat="43.54901" lon="2.80658">
        <ele>845</ele>
        <time>2020-10-03T12:15:19Z</time>
      </trkpt>
      <trkpt lat="43.549" lon="2.80673">
        <ele>842</ele>
        <time>2020-10-03T12:15:27Z</time>
      </trkpt>
      <trkpt lat="43.54898" lon="2.80686">
        <ele>841</ele>
        <time>2020-10-03T12:15:34Z</time>
      </trkpt>
      <trkpt lat="43.54898" lon="2.807">
        <ele>842</ele>
        <time>2020-10-03T12:15:41Z</time>
      </trkpt>
      <trkpt lat="43.54898" lon="2.80714">
        <ele>840</ele>
        <time>2020-10-03T12:15:49Z</time>
      </trkpt>
      <trkpt lat="43.54898" lon="2.80728">
        <ele>840</ele>
        <time>2020-10-03T12:15:56Z</time>
      </trkpt>
      <trkpt lat="43.54897" lon="2.80743">
        <ele>837</ele>
        <time>2020-10-03T12:16:04Z</time>
      </trkpt>
      <trkpt lat="43.54898" lon="2.80756">
        <ele>833</ele>
        <time>2020-10-03T12:16:11Z</time>
      </trkpt>
      <trkpt lat="43.54889" lon="2.8076">
        <ele>833</ele>
        <time>2020-10-03T12:17:04Z</time>
      </trkpt>
      <trkpt lat="43.54884" lon="2.80748">
        <ele>832</ele>
        <time>2020-10-03T12:17:09Z</time>
      </trkpt>
      <trkpt lat="43.54882" lon="2.80733">
        <ele>834</ele>
        <time>2020-10-03T12:17:14Z</time>
      </trkpt>
      <trkpt lat="43.54882" lon="2.80718">
        <ele>832</ele>
        <time>2020-10-03T12:17:19Z</time>
      </trkpt>
      <trkpt lat="43.54882" lon="2.80704">
        <ele>832</ele>
        <time>2020-10-03T12:17:25Z</time>
      </trkpt>
      <trkpt lat="43.54881" lon="2.80689">
        <ele>834</ele>
        <time>2020-10-03T12:17:31Z</time>
      </trkpt>
      <trkpt lat="43.54878" lon="2.80676">
        <ele>833</ele>
        <time>2020-10-03T12:17:38Z</time>
      </trkpt>
      <trkpt lat="43.54877" lon="2.80661">
        <ele>833</ele>
        <time>2020-10-03T12:17:46Z</time>
      </trkpt>
      <trkpt lat="43.54874" lon="2.8065">
        <ele>830</ele>
        <time>2020-10-03T12:17:52Z</time>
      </trkpt>
      <trkpt lat="43.54866" lon="2.80639">
        <ele>830</ele>
        <time>2020-10-03T12:17:59Z</time>
      </trkpt>
      <trkpt lat="43.54858" lon="2.80632">
        <ele>831</ele>
        <time>2020-10-03T12:18:05Z</time>
      </trkpt>
      <trkpt lat="43.54846" lon="2.8063">
        <ele>828</ele>
        <time>2020-10-03T12:18:10Z</time>
      </trkpt>
      <trkpt lat="43.54836" lon="2.80628">
        <ele>825</ele>
        <time>2020-10-03T12:18:16Z</time>
      </trkpt>
      <trkpt lat="43.54825" lon="2.80626">
        <ele>825</ele>
        <time>2020-10-03T12:18:22Z</time>
      </trkpt>
      <trkpt lat="43.54816" lon="2.80625">
        <ele>823</ele>
        <time>2020-10-03T12:18:28Z</time>
      </trkpt>
      <trkpt lat="43.54806" lon="2.80626">
        <ele>820</ele>
        <time>2020-10-03T12:18:33Z</time>
      </trkpt>
      <trkpt lat="43.54796" lon="2.80626">
        <ele>823</ele>
        <time>2020-10-03T12:18:39Z</time>
      </trkpt>
      <trkpt lat="43.54786" lon="2.80623">
        <ele>823</ele>
        <time>2020-10-03T12:18:46Z</time>
      </trkpt>
      <trkpt lat="43.54776" lon="2.80619">
        <ele>825</ele>
        <time>2020-10-03T12:18:52Z</time>
      </trkpt>
      <trkpt lat="43.54768" lon="2.80611">
        <ele>822</ele>
        <time>2020-10-03T12:18:58Z</time>
      </trkpt>
      <trkpt lat="43.5476" lon="2.80602">
        <ele>821</ele>
        <time>2020-10-03T12:19:06Z</time>
      </trkpt>
      <trkpt lat="43.54753" lon="2.8059">
        <ele>818</ele>
        <time>2020-10-03T12:19:13Z</time>
      </trkpt>
      <trkpt lat="43.54745" lon="2.80581">
        <ele>816</ele>
        <time>2020-10-03T12:19:21Z</time>
      </trkpt>
      <trkpt lat="43.54736" lon="2.80573">
        <ele>813</ele>
        <time>2020-10-03T12:19:29Z</time>
      </trkpt>
      <trkpt lat="43.54727" lon="2.80566">
        <ele>807</ele>
        <time>2020-10-03T12:19:37Z</time>
      </trkpt>
      <trkpt lat="43.54721" lon="2.80555">
        <ele>804</ele>
        <time>2020-10-03T12:19:45Z</time>
      </trkpt>
      <trkpt lat="43.54713" lon="2.80549">
        <ele>800</ele>
        <time>2020-10-03T12:19:52Z</time>
      </trkpt>
      <trkpt lat="43.54704" lon="2.8055">
        <ele>794</ele>
        <time>2020-10-03T12:20:00Z</time>
      </trkpt>
      <trkpt lat="43.54696" lon="2.80557">
        <ele>791</ele>
        <time>2020-10-03T12:20:08Z</time>
      </trkpt>
      <trkpt lat="43.54691" lon="2.80572">
        <ele>787</ele>
        <time>2020-10-03T12:20:15Z</time>
      </trkpt>
      <trkpt lat="43.5469" lon="2.80587">
        <ele>785</ele>
        <time>2020-10-03T12:20:21Z</time>
      </trkpt>
      <trkpt lat="43.5469" lon="2.80601">
        <ele>784</ele>
        <time>2020-10-03T12:20:26Z</time>
      </trkpt>
      <trkpt lat="43.54691" lon="2.80613">
        <ele>782</ele>
        <time>2020-10-03T12:20:32Z</time>
      </trkpt>
      <trkpt lat="43.54693" lon="2.80626">
        <ele>782</ele>
        <time>2020-10-03T12:20:37Z</time>
      </trkpt>
      <trkpt lat="43.54695" lon="2.80639">
        <ele>781</ele>
        <time>2020-10-03T12:20:43Z</time>
      </trkpt>
      <trkpt lat="43.54699" lon="2.80652">
        <ele>781</ele>
        <time>2020-10-03T12:20:50Z</time>
      </trkpt>
      <trkpt lat="43.54702" lon="2.80667">
        <ele>779</ele>
        <time>2020-10-03T12:21:34Z</time>
      </trkpt>
      <trkpt lat="43.54707" lon="2.80681">
        <ele>776</ele>
        <time>2020-10-03T12:21:38Z</time>
      </trkpt>
      <trkpt lat="43.54715" lon="2.80694">
        <ele>773</ele>
        <time>2020-10-03T12:21:42Z</time>
      </trkpt>
      <trkpt lat="43.54723" lon="2.80704">
        <ele>773</ele>
        <time>2020-10-03T12:21:46Z</time>
      </trkpt>
      <trkpt lat="43.54731" lon="2.80713">
        <ele>770</ele>
        <time>2020-10-03T12:21:51Z</time>
      </trkpt>
      <trkpt lat="43.54739" lon="2.80723">
        <ele>771</ele>
        <time>2020-10-03T12:21:58Z</time>
      </trkpt>
      <trkpt lat="43.54746" lon="2.80732">
        <ele>766</ele>
        <time>2020-10-03T12:22:08Z</time>
      </trkpt>
      <trkpt lat="43.5475" lon="2.80744">
        <ele>768</ele>
        <time>2020-10-03T12:22:15Z</time>
      </trkpt>
      <trkpt lat="43.54751" lon="2.80758">
        <ele>762</ele>
        <time>2020-10-03T12:22:23Z</time>
      </trkpt>
      <trkpt lat="43.54747" lon="2.80771">
        <ele>764</ele>
        <time>2020-10-03T12:22:31Z</time>
      </trkpt>
      <trkpt lat="43.54742" lon="2.80783">
        <ele>761</ele>
        <time>2020-10-03T12:22:37Z</time>
      </trkpt>
      <trkpt lat="43.54735" lon="2.80793">
        <ele>759</ele>
        <time>2020-10-03T12:22:42Z</time>
      </trkpt>
      <trkpt lat="43.54725" lon="2.80793">
        <ele>756</ele>
        <time>2020-10-03T12:22:48Z</time>
      </trkpt>
      <trkpt lat="43.54716" lon="2.80791">
        <ele>754</ele>
        <time>2020-10-03T12:22:56Z</time>
      </trkpt>
      <trkpt lat="43.54726" lon="2.80798">
        <ele>751</ele>
        <time>2020-10-03T12:23:28Z</time>
      </trkpt>
      <trkpt lat="43.54736" lon="2.80796">
        <ele>751</ele>
        <time>2020-10-03T12:23:38Z</time>
      </trkpt>
      <trkpt lat="43.54735" lon="2.80808">
        <ele>738</ele>
        <time>2020-10-03T12:25:42Z</time>
      </trkpt>
      <trkpt lat="43.54733" lon="2.80823">
        <ele>740</ele>
        <time>2020-10-03T12:25:48Z</time>
      </trkpt>
      <trkpt lat="43.54731" lon="2.80836">
        <ele>738</ele>
        <time>2020-10-03T12:25:53Z</time>
      </trkpt>
      <trkpt lat="43.54731" lon="2.80849">
        <ele>742</ele>
        <time>2020-10-03T12:25:59Z</time>
      </trkpt>
      <trkpt lat="43.54729" lon="2.80865">
        <ele>738</ele>
        <time>2020-10-03T12:26:06Z</time>
      </trkpt>
      <trkpt lat="43.54724" lon="2.80877">
        <ele>735</ele>
        <time>2020-10-03T12:26:13Z</time>
      </trkpt>
      <trkpt lat="43.54717" lon="2.80887">
        <ele>731</ele>
        <time>2020-10-03T12:26:20Z</time>
      </trkpt>
      <trkpt lat="43.54711" lon="2.80898">
        <ele>733</ele>
        <time>2020-10-03T12:26:29Z</time>
      </trkpt>
      <trkpt lat="43.54704" lon="2.80906">
        <ele>733</ele>
        <time>2020-10-03T12:26:37Z</time>
      </trkpt>
      <trkpt lat="43.54696" lon="2.80913">
        <ele>729</ele>
        <time>2020-10-03T12:26:47Z</time>
      </trkpt>
      <trkpt lat="43.54689" lon="2.8092">
        <ele>730</ele>
        <time>2020-10-03T12:26:54Z</time>
      </trkpt>
      <trkpt lat="43.54685" lon="2.80933">
        <ele>731</ele>
        <time>2020-10-03T12:27:01Z</time>
      </trkpt>
      <trkpt lat="43.54685" lon="2.80946">
        <ele>732</ele>
        <time>2020-10-03T12:27:07Z</time>
      </trkpt>
      <trkpt lat="43.54687" lon="2.80959">
        <ele>730</ele>
        <time>2020-10-03T12:27:12Z</time>
      </trkpt>
      <trkpt lat="43.54691" lon="2.80971">
        <ele>729</ele>
        <time>2020-10-03T12:27:18Z</time>
      </trkpt>
      <trkpt lat="43.54697" lon="2.80982">
        <ele>728</ele>
        <time>2020-10-03T12:27:24Z</time>
      </trkpt>
      <trkpt lat="43.54703" lon="2.80992">
        <ele>729</ele>
        <time>2020-10-03T12:27:29Z</time>
      </trkpt>
      <trkpt lat="43.54712" lon="2.81">
        <ele>731</ele>
        <time>2020-10-03T12:27:34Z</time>
      </trkpt>
      <trkpt lat="43.54721" lon="2.81005">
        <ele>731</ele>
        <time>2020-10-03T12:27:39Z</time>
      </trkpt>
      <trkpt lat="43.5473" lon="2.81012">
        <ele>731</ele>
        <time>2020-10-03T12:27:46Z</time>
      </trkpt>
      <trkpt lat="43.54737" lon="2.81021">
        <ele>729</ele>
        <time>2020-10-03T12:27:53Z</time>
      </trkpt>
      <trkpt lat="43.54744" lon="2.81032">
        <ele>728</ele>
        <time>2020-10-03T12:28:00Z</time>
      </trkpt>
      <trkpt lat="43.54745" lon="2.81045">
        <ele>728</ele>
        <time>2020-10-03T12:28:06Z</time>
      </trkpt>
      <trkpt lat="43.54741" lon="2.8106">
        <ele>726</ele>
        <time>2020-10-03T12:28:13Z</time>
      </trkpt>
      <trkpt lat="43.5474" lon="2.81074">
        <ele>726</ele>
        <time>2020-10-03T12:28:21Z</time>
      </trkpt>
      <trkpt lat="43.54743" lon="2.81087">
        <ele>723</ele>
        <time>2020-10-03T12:28:28Z</time>
      </trkpt>
      <trkpt lat="43.54749" lon="2.81097">
        <ele>718</ele>
        <time>2020-10-03T12:28:36Z</time>
      </trkpt>
      <trkpt lat="43.54757" lon="2.81106">
        <ele>711</ele>
        <time>2020-10-03T12:28:43Z</time>
      </trkpt>
      <trkpt lat="43.54765" lon="2.81114">
        <ele>711</ele>
        <time>2020-10-03T12:28:49Z</time>
      </trkpt>
      <trkpt lat="43.54775" lon="2.81118">
        <ele>712</ele>
        <time>2020-10-03T12:28:55Z</time>
      </trkpt>
      <trkpt lat="43.54785" lon="2.81122">
        <ele>713</ele>
        <time>2020-10-03T12:29:01Z</time>
      </trkpt>
      <trkpt lat="43.54795" lon="2.81125">
        <ele>713</ele>
        <time>2020-10-03T12:29:07Z</time>
      </trkpt>
      <trkpt lat="43.54804" lon="2.81129">
        <ele>715</ele>
        <time>2020-10-03T12:29:14Z</time>
      </trkpt>
      <trkpt lat="43.54814" lon="2.81132">
        <ele>713</ele>
        <time>2020-10-03T12:29:22Z</time>
      </trkpt>
      <trkpt lat="43.54823" lon="2.81136">
        <ele>712</ele>
        <time>2020-10-03T12:29:32Z</time>
      </trkpt>
      <trkpt lat="43.54829" lon="2.81146">
        <ele>716</ele>
        <time>2020-10-03T12:29:43Z</time>
      </trkpt>
      <trkpt lat="43.54823" lon="2.81159">
        <ele>714</ele>
        <time>2020-10-03T12:30:51Z</time>
      </trkpt>
      <trkpt lat="43.54813" lon="2.8116">
        <ele>717</ele>
        <time>2020-10-03T12:31:00Z</time>
      </trkpt>
      <trkpt lat="43.54805" lon="2.81151">
        <ele>714</ele>
        <time>2020-10-03T12:31:05Z</time>
      </trkpt>
      <trkpt lat="43.54795" lon="2.81144">
        <ele>714</ele>
        <time>2020-10-03T12:31:12Z</time>
      </trkpt>
      <trkpt lat="43.54786" lon="2.81136">
        <ele>713</ele>
        <time>2020-10-03T12:31:18Z</time>
      </trkpt>
      <trkpt lat="43.54778" lon="2.8113">
        <ele>711</ele>
        <time>2020-10-03T12:31:24Z</time>
      </trkpt>
      <trkpt lat="43.54768" lon="2.81127">
        <ele>710</ele>
        <time>2020-10-03T12:31:31Z</time>
      </trkpt>
      <trkpt lat="43.54758" lon="2.81124">
        <ele>708</ele>
        <time>2020-10-03T12:31:37Z</time>
      </trkpt>
      <trkpt lat="43.54748" lon="2.8112">
        <ele>710</ele>
        <time>2020-10-03T12:31:45Z</time>
      </trkpt>
      <trkpt lat="43.54739" lon="2.81115">
        <ele>707</ele>
        <time>2020-10-03T12:31:51Z</time>
      </trkpt>
      <trkpt lat="43.5473" lon="2.81113">
        <ele>707</ele>
        <time>2020-10-03T12:31:57Z</time>
      </trkpt>
      <trkpt lat="43.54719" lon="2.81107">
        <ele>703</ele>
        <time>2020-10-03T12:32:05Z</time>
      </trkpt>
      <trkpt lat="43.54712" lon="2.81099">
        <ele>702</ele>
        <time>2020-10-03T12:32:12Z</time>
      </trkpt>
      <trkpt lat="43.54704" lon="2.8109">
        <ele>702</ele>
        <time>2020-10-03T12:32:19Z</time>
      </trkpt>
      <trkpt lat="43.54695" lon="2.81082">
        <ele>702</ele>
        <time>2020-10-03T12:32:26Z</time>
      </trkpt>
      <trkpt lat="43.54688" lon="2.81073">
        <ele>700</ele>
        <time>2020-10-03T12:32:33Z</time>
      </trkpt>
      <trkpt lat="43.54679" lon="2.81063">
        <ele>696</ele>
        <time>2020-10-03T12:32:41Z</time>
      </trkpt>
      <trkpt lat="43.5467" lon="2.81055">
        <ele>699</ele>
        <time>2020-10-03T12:32:48Z</time>
      </trkpt>
      <trkpt lat="43.54662" lon="2.81049">
        <ele>699</ele>
        <time>2020-10-03T12:32:55Z</time>
      </trkpt>
      <trkpt lat="43.54652" lon="2.81046">
        <ele>697</ele>
        <time>2020-10-03T12:33:00Z</time>
      </trkpt>
      <trkpt lat="43.54641" lon="2.81044">
        <ele>697</ele>
        <time>2020-10-03T12:33:07Z</time>
      </trkpt>
      <trkpt lat="43.54631" lon="2.81039">
        <ele>697</ele>
        <time>2020-10-03T12:33:14Z</time>
      </trkpt>
      <trkpt lat="43.54623" lon="2.81033">
        <ele>697</ele>
        <time>2020-10-03T12:33:20Z</time>
      </trkpt>
      <trkpt lat="43.54614" lon="2.81024">
        <ele>695</ele>
        <time>2020-10-03T12:33:28Z</time>
      </trkpt>
      <trkpt lat="43.54608" lon="2.81013">
        <ele>696</ele>
        <time>2020-10-03T12:33:36Z</time>
      </trkpt>
      <trkpt lat="43.54602" lon="2.81003">
        <ele>688</ele>
        <time>2020-10-03T12:33:43Z</time>
      </trkpt>
      <trkpt lat="43.54599" lon="2.8099">
        <ele>688</ele>
        <time>2020-10-03T12:33:50Z</time>
      </trkpt>
      <trkpt lat="43.54601" lon="2.80976">
        <ele>682</ele>
        <time>2020-10-03T12:33:55Z</time>
      </trkpt>
      <trkpt lat="43.54601" lon="2.80963">
        <ele>680</ele>
        <time>2020-10-03T12:34:03Z</time>
      </trkpt>
      <trkpt lat="43.546" lon="2.80949">
        <ele>682</ele>
        <time>2020-10-03T12:34:10Z</time>
      </trkpt>
      <trkpt lat="43.54597" lon="2.80935">
        <ele>681</ele>
        <time>2020-10-03T12:34:17Z</time>
      </trkpt>
      <trkpt lat="43.54593" lon="2.80923">
        <ele>679</ele>
        <time>2020-10-03T12:34:24Z</time>
      </trkpt>
      <trkpt lat="43.54588" lon="2.80911">
        <ele>678</ele>
        <time>2020-10-03T12:34:32Z</time>
      </trkpt>
      <trkpt lat="43.54582" lon="2.80901">
        <ele>678</ele>
        <time>2020-10-03T12:34:39Z</time>
      </trkpt>
      <trkpt lat="43.54577" lon="2.80888">
        <ele>677</ele>
        <time>2020-10-03T12:34:46Z</time>
      </trkpt>
      <trkpt lat="43.54576" lon="2.80872">
        <ele>679</ele>
        <time>2020-10-03T12:34:52Z</time>
      </trkpt>
      <trkpt lat="43.54578" lon="2.8086">
        <ele>677</ele>
        <time>2020-10-03T12:34:56Z</time>
      </trkpt>
      <trkpt lat="43.54582" lon="2.80848">
        <ele>675</ele>
        <time>2020-10-03T12:35:00Z</time>
      </trkpt>
      <trkpt lat="43.54588" lon="2.80836">
        <ele>676</ele>
        <time>2020-10-03T12:35:05Z</time>
      </trkpt>
      <trkpt lat="43.54595" lon="2.80827">
        <ele>676</ele>
        <time>2020-10-03T12:35:09Z</time>
      </trkpt>
      <trkpt lat="43.54603" lon="2.80816">
        <ele>674</ele>
        <time>2020-10-03T12:35:15Z</time>
      </trkpt>
      <trkpt lat="43.5461" lon="2.80807">
        <ele>674</ele>
        <time>2020-10-03T12:35:20Z</time>
      </trkpt>
      <trkpt lat="43.54611" lon="2.80793">
        <ele>676</ele>
        <time>2020-10-03T12:35:28Z</time>
      </trkpt>
      <trkpt lat="43.5461" lon="2.80779">
        <ele>673</ele>
        <time>2020-10-03T12:35:36Z</time>
      </trkpt>
      <trkpt lat="43.54606" lon="2.80766">
        <ele>674</ele>
        <time>2020-10-03T12:35:48Z</time>
      </trkpt>
      <trkpt lat="43.54596" lon="2.80765">
        <ele>676</ele>
        <time>2020-10-03T12:35:57Z</time>
      </trkpt>
      <trkpt lat="43.54586" lon="2.80766">
        <ele>675</ele>
        <time>2020-10-03T12:36:05Z</time>
      </trkpt>
      <trkpt lat="43.54577" lon="2.80767">
        <ele>675</ele>
        <time>2020-10-03T12:36:20Z</time>
      </trkpt>
      <trkpt lat="43.54568" lon="2.80767">
        <ele>672</ele>
        <time>2020-10-03T12:38:17Z</time>
      </trkpt>
      <trkpt lat="43.54567" lon="2.8075">
        <ele>671</ele>
        <time>2020-10-03T12:38:29Z</time>
      </trkpt>
      <trkpt lat="43.54562" lon="2.80736">
        <ele>670</ele>
        <time>2020-10-03T12:38:35Z</time>
      </trkpt>
      <trkpt lat="43.5456" lon="2.80721">
        <ele>670</ele>
        <time>2020-10-03T12:38:41Z</time>
      </trkpt>
      <trkpt lat="43.54558" lon="2.80706">
        <ele>668</ele>
        <time>2020-10-03T12:38:47Z</time>
      </trkpt>
      <trkpt lat="43.54553" lon="2.80693">
        <ele>666</ele>
        <time>2020-10-03T12:38:53Z</time>
      </trkpt>
      <trkpt lat="43.54547" lon="2.80681">
        <ele>671</ele>
        <time>2020-10-03T12:38:59Z</time>
      </trkpt>
      <trkpt lat="43.54543" lon="2.80667">
        <ele>670</ele>
        <time>2020-10-03T12:39:06Z</time>
      </trkpt>
      <trkpt lat="43.54541" lon="2.80654">
        <ele>668</ele>
        <time>2020-10-03T12:39:13Z</time>
      </trkpt>
      <trkpt lat="43.54535" lon="2.80643">
        <ele>669</ele>
        <time>2020-10-03T12:39:20Z</time>
      </trkpt>
      <trkpt lat="43.54526" lon="2.8064">
        <ele>667</ele>
        <time>2020-10-03T12:39:26Z</time>
      </trkpt>
      <trkpt lat="43.54516" lon="2.8064">
        <ele>665</ele>
        <time>2020-10-03T12:39:31Z</time>
      </trkpt>
      <trkpt lat="43.54506" lon="2.80646">
        <ele>663</ele>
        <time>2020-10-03T12:39:36Z</time>
      </trkpt>
      <trkpt lat="43.54496" lon="2.80654">
        <ele>663</ele>
        <time>2020-10-03T12:39:42Z</time>
      </trkpt>
      <trkpt lat="43.54487" lon="2.80664">
        <ele>660</ele>
        <time>2020-10-03T12:39:48Z</time>
      </trkpt>
      <trkpt lat="43.54479" lon="2.80672">
        <ele>657</ele>
        <time>2020-10-03T12:39:53Z</time>
      </trkpt>
      <trkpt lat="43.5447" lon="2.80679">
        <ele>653</ele>
        <time>2020-10-03T12:39:59Z</time>
      </trkpt>
      <trkpt lat="43.54462" lon="2.80686">
        <ele>653</ele>
        <time>2020-10-03T12:40:05Z</time>
      </trkpt>
      <trkpt lat="43.54451" lon="2.80689">
        <ele>652</ele>
        <time>2020-10-03T12:40:13Z</time>
      </trkpt>
      <trkpt lat="43.54441" lon="2.80688">
        <ele>651</ele>
        <time>2020-10-03T12:40:20Z</time>
      </trkpt>
      <trkpt lat="43.54431" lon="2.8069">
        <ele>650</ele>
        <time>2020-10-03T12:40:27Z</time>
      </trkpt>
      <trkpt lat="43.54422" lon="2.80694">
        <ele>650</ele>
        <time>2020-10-03T12:40:33Z</time>
      </trkpt>
      <trkpt lat="43.54412" lon="2.80697">
        <ele>649</ele>
        <time>2020-10-03T12:40:40Z</time>
      </trkpt>
      <trkpt lat="43.54402" lon="2.80698">
        <ele>648</ele>
        <time>2020-10-03T12:40:48Z</time>
      </trkpt>
      <trkpt lat="43.54392" lon="2.80696">
        <ele>648</ele>
        <time>2020-10-03T12:40:55Z</time>
      </trkpt>
      <trkpt lat="43.54383" lon="2.80691">
        <ele>651</ele>
        <time>2020-10-03T12:41:02Z</time>
      </trkpt>
      <trkpt lat="43.54376" lon="2.80682">
        <ele>648</ele>
        <time>2020-10-03T12:41:10Z</time>
      </trkpt>
      <trkpt lat="43.54368" lon="2.80673">
        <ele>648</ele>
        <time>2020-10-03T12:41:18Z</time>
      </trkpt>
      <trkpt lat="43.54365" lon="2.80659">
        <ele>643</ele>
        <time>2020-10-03T12:41:26Z</time>
      </trkpt>
      <trkpt lat="43.54361" lon="2.80645">
        <ele>644</ele>
        <time>2020-10-03T12:41:33Z</time>
      </trkpt>
      <trkpt lat="43.54359" lon="2.80631">
        <ele>646</ele>
        <time>2020-10-03T12:41:39Z</time>
      </trkpt>
      <trkpt lat="43.54361" lon="2.80616">
        <ele>646</ele>
        <time>2020-10-03T12:41:46Z</time>
      </trkpt>
      <trkpt lat="43.5436" lon="2.80603">
        <ele>645</ele>
        <time>2020-10-03T12:41:52Z</time>
      </trkpt>
      <trkpt lat="43.54362" lon="2.80589">
        <ele>643</ele>
        <time>2020-10-03T12:41:58Z</time>
      </trkpt>
      <trkpt lat="43.54364" lon="2.80576">
        <ele>639</ele>
        <time>2020-10-03T12:42:04Z</time>
      </trkpt>
      <trkpt lat="43.54369" lon="2.80564">
        <ele>639</ele>
        <time>2020-10-03T12:42:09Z</time>
      </trkpt>
      <trkpt lat="43.54362" lon="2.80552">
        <ele>640</ele>
        <time>2020-10-03T12:42:16Z</time>
      </trkpt>
      <trkpt lat="43.54355" lon="2.80541">
        <ele>639</ele>
        <time>2020-10-03T12:42:23Z</time>
      </trkpt>
      <trkpt lat="43.54352" lon="2.80528">
        <ele>637</ele>
        <time>2020-10-03T12:42:30Z</time>
      </trkpt>
      <trkpt lat="43.54351" lon="2.80512">
        <ele>634</ele>
        <time>2020-10-03T12:42:38Z</time>
      </trkpt>
      <trkpt lat="43.54354" lon="2.80499">
        <ele>634</ele>
        <time>2020-10-03T12:42:45Z</time>
      </trkpt>
      <trkpt lat="43.54358" lon="2.80487">
        <ele>631</ele>
        <time>2020-10-03T12:42:52Z</time>
      </trkpt>
      <trkpt lat="43.54362" lon="2.80475">
        <ele>633</ele>
        <time>2020-10-03T12:42:58Z</time>
      </trkpt>
      <trkpt lat="43.54367" lon="2.80462">
        <ele>632</ele>
        <time>2020-10-03T12:43:05Z</time>
      </trkpt>
      <trkpt lat="43.54374" lon="2.80451">
        <ele>629</ele>
        <time>2020-10-03T12:43:12Z</time>
      </trkpt>
      <trkpt lat="43.54377" lon="2.80438">
        <ele>621</ele>
        <time>2020-10-03T12:43:19Z</time>
      </trkpt>
      <trkpt lat="43.54376" lon="2.80424">
        <ele>620</ele>
        <time>2020-10-03T12:43:27Z</time>
      </trkpt>
      <trkpt lat="43.54371" lon="2.80414">
        <ele>625</ele>
        <time>2020-10-03T12:43:40Z</time>
      </trkpt>
      <trkpt lat="43.54362" lon="2.80416">
        <ele>629</ele>
        <time>2020-10-03T12:43:53Z</time>
      </trkpt>
      <trkpt lat="43.54354" lon="2.80423">
        <ele>628</ele>
        <time>2020-10-03T12:44:00Z</time>
      </trkpt>
      <trkpt lat="43.54349" lon="2.80434">
        <ele>629</ele>
        <time>2020-10-03T12:44:07Z</time>
      </trkpt>
      <trkpt lat="43.54342" lon="2.80443">
        <ele>630</ele>
        <time>2020-10-03T12:44:15Z</time>
      </trkpt>
      <trkpt lat="43.54336" lon="2.80455">
        <ele>628</ele>
        <time>2020-10-03T12:44:23Z</time>
      </trkpt>
      <trkpt lat="43.54334" lon="2.80467">
        <ele>628</ele>
        <time>2020-10-03T12:44:29Z</time>
      </trkpt>
      <trkpt lat="43.54334" lon="2.80481">
        <ele>628</ele>
        <time>2020-10-03T12:44:35Z</time>
      </trkpt>
      <trkpt lat="43.54333" lon="2.80495">
        <ele>624</ele>
        <time>2020-10-03T12:44:41Z</time>
      </trkpt>
      <trkpt lat="43.54331" lon="2.8051">
        <ele>625</ele>
        <time>2020-10-03T12:44:49Z</time>
      </trkpt>
      <trkpt lat="43.54327" lon="2.80523">
        <ele>619</ele>
        <time>2020-10-03T12:44:57Z</time>
      </trkpt>
      <trkpt lat="43.54324" lon="2.80536">
        <ele>617</ele>
        <time>2020-10-03T12:45:04Z</time>
      </trkpt>
      <trkpt lat="43.54322" lon="2.80551">
        <ele>617</ele>
        <time>2020-10-03T12:45:11Z</time>
      </trkpt>
      <trkpt lat="43.5432" lon="2.80565">
        <ele>615</ele>
        <time>2020-10-03T12:45:17Z</time>
      </trkpt>
      <trkpt lat="43.54317" lon="2.80578">
        <ele>615</ele>
        <time>2020-10-03T12:45:24Z</time>
      </trkpt>
      <trkpt lat="43.54313" lon="2.8059">
        <ele>612</ele>
        <time>2020-10-03T12:45:31Z</time>
      </trkpt>
      <trkpt lat="43.54307" lon="2.80603">
        <ele>610</ele>
        <time>2020-10-03T12:45:39Z</time>
      </trkpt>
      <trkpt lat="43.54301" lon="2.80613">
        <ele>610</ele>
        <time>2020-10-03T12:45:47Z</time>
      </trkpt>
      <trkpt lat="43.54296" lon="2.80625">
        <ele>609</ele>
        <time>2020-10-03T12:45:53Z</time>
      </trkpt>
      <trkpt lat="43.54292" lon="2.80636">
        <ele>609</ele>
        <time>2020-10-03T12:45:59Z</time>
      </trkpt>
      <trkpt lat="43.54288" lon="2.80648">
        <ele>609</ele>
        <time>2020-10-03T12:46:06Z</time>
      </trkpt>
      <trkpt lat="43.54283" lon="2.80662">
        <ele>611</ele>
        <time>2020-10-03T12:46:13Z</time>
      </trkpt>
      <trkpt lat="43.54281" lon="2.80675">
        <ele>611</ele>
        <time>2020-10-03T12:46:20Z</time>
      </trkpt>
      <trkpt lat="43.54278" lon="2.80688">
        <ele>608</ele>
        <time>2020-10-03T12:46:28Z</time>
      </trkpt>
      <trkpt lat="43.54274" lon="2.80702">
        <ele>611</ele>
        <time>2020-10-03T12:46:36Z</time>
      </trkpt>
      <trkpt lat="43.54269" lon="2.80714">
        <ele>605</ele>
        <time>2020-10-03T12:46:43Z</time>
      </trkpt>
      <trkpt lat="43.54263" lon="2.80726">
        <ele>606</ele>
        <time>2020-10-03T12:46:49Z</time>
      </trkpt>
      <trkpt lat="43.54257" lon="2.80737">
        <ele>606</ele>
        <time>2020-10-03T12:46:56Z</time>
      </trkpt>
      <trkpt lat="43.5425" lon="2.80749">
        <ele>607</ele>
        <time>2020-10-03T12:47:03Z</time>
      </trkpt>
      <trkpt lat="43.54244" lon="2.80758">
        <ele>608</ele>
        <time>2020-10-03T12:47:09Z</time>
      </trkpt>
      <trkpt lat="43.54239" lon="2.8077">
        <ele>607</ele>
        <time>2020-10-03T12:47:16Z</time>
      </trkpt>
      <trkpt lat="43.54236" lon="2.80783">
        <ele>604</ele>
        <time>2020-10-03T12:47:23Z</time>
      </trkpt>
      <trkpt lat="43.54232" lon="2.80794">
        <ele>604</ele>
        <time>2020-10-03T12:47:31Z</time>
      </trkpt>
      <trkpt lat="43.54229" lon="2.80808">
        <ele>601</ele>
        <time>2020-10-03T12:47:40Z</time>
      </trkpt>
      <trkpt lat="43.54229" lon="2.80822">
        <ele>600</ele>
        <time>2020-10-03T12:47:48Z</time>
      </trkpt>
      <trkpt lat="43.54236" lon="2.8083">
        <ele>602</ele>
        <time>2020-10-03T12:48:11Z</time>
      </trkpt>
      <trkpt lat="43.54233" lon="2.80846">
        <ele>601</ele>
        <time>2020-10-03T12:49:44Z</time>
      </trkpt>
      <trkpt lat="43.5424" lon="2.80858">
        <ele>599</ele>
        <time>2020-10-03T12:51:41Z</time>
      </trkpt>
      <trkpt lat="43.54251" lon="2.80858">
        <ele>596</ele>
        <time>2020-10-03T12:51:45Z</time>
      </trkpt>
      <trkpt lat="43.54261" lon="2.80862">
        <ele>596</ele>
        <time>2020-10-03T12:51:52Z</time>
      </trkpt>
      <trkpt lat="43.54271" lon="2.80865">
        <ele>598</ele>
        <time>2020-10-03T12:52:00Z</time>
      </trkpt>
      <trkpt lat="43.5428" lon="2.8087">
        <ele>595</ele>
        <time>2020-10-03T12:52:08Z</time>
      </trkpt>
      <trkpt lat="43.54283" lon="2.80888">
        <ele>591</ele>
        <time>2020-10-03T12:52:28Z</time>
      </trkpt>
      <trkpt lat="43.54276" lon="2.80899">
        <ele>592</ele>
        <time>2020-10-03T12:52:37Z</time>
      </trkpt>
      <trkpt lat="43.54264" lon="2.80897">
        <ele>592</ele>
        <time>2020-10-03T12:52:43Z</time>
      </trkpt>
      <trkpt lat="43.54253" lon="2.809">
        <ele>594</ele>
        <time>2020-10-03T12:53:49Z</time>
      </trkpt>
      <trkpt lat="43.54247" lon="2.8091">
        <ele>592</ele>
        <time>2020-10-03T12:53:54Z</time>
      </trkpt>
      <trkpt lat="43.5424" lon="2.80918">
        <ele>591</ele>
        <time>2020-10-03T12:54:00Z</time>
      </trkpt>
      <trkpt lat="43.54231" lon="2.80925">
        <ele>588</ele>
        <time>2020-10-03T12:54:08Z</time>
      </trkpt>
      <trkpt lat="43.54221" lon="2.80928">
        <ele>590</ele>
        <time>2020-10-03T12:54:16Z</time>
      </trkpt>
      <trkpt lat="43.54211" lon="2.80928">
        <ele>585</ele>
        <time>2020-10-03T12:54:36Z</time>
      </trkpt>
      <trkpt lat="43.54202" lon="2.8093">
        <ele>585</ele>
        <time>2020-10-03T12:54:44Z</time>
      </trkpt>
      <trkpt lat="43.54193" lon="2.80936">
        <ele>585</ele>
        <time>2020-10-03T12:54:51Z</time>
      </trkpt>
      <trkpt lat="43.54186" lon="2.80944">
        <ele>583</ele>
        <time>2020-10-03T12:54:58Z</time>
      </trkpt>
      <trkpt lat="43.54178" lon="2.80956">
        <ele>577</ele>
        <time>2020-10-03T12:56:43Z</time>
      </trkpt>
      <trkpt lat="43.5417" lon="2.80965">
        <ele>576</ele>
        <time>2020-10-03T12:56:51Z</time>
      </trkpt>
      <trkpt lat="43.54168" lon="2.80978">
        <ele>571</ele>
        <time>2020-10-03T12:56:57Z</time>
      </trkpt>
      <trkpt lat="43.54162" lon="2.80989">
        <ele>569</ele>
        <time>2020-10-03T12:57:05Z</time>
      </trkpt>
      <trkpt lat="43.54153" lon="2.80998">
        <ele>568</ele>
        <time>2020-10-03T12:57:13Z</time>
      </trkpt>
      <trkpt lat="43.54144" lon="2.81001">
        <ele>566</ele>
        <time>2020-10-03T12:57:20Z</time>
      </trkpt>
      <trkpt lat="43.54134" lon="2.81">
        <ele>567</ele>
        <time>2020-10-03T12:57:25Z</time>
      </trkpt>
      <trkpt lat="43.54124" lon="2.81005">
        <ele>567</ele>
        <time>2020-10-03T12:57:33Z</time>
      </trkpt>
      <trkpt lat="43.54116" lon="2.81013">
        <ele>566</ele>
        <time>2020-10-03T12:57:40Z</time>
      </trkpt>
      <trkpt lat="43.54107" lon="2.81021">
        <ele>564</ele>
        <time>2020-10-03T12:57:48Z</time>
      </trkpt>
      <trkpt lat="43.54098" lon="2.81026">
        <ele>560</ele>
        <time>2020-10-03T12:57:54Z</time>
      </trkpt>
      <trkpt lat="43.54094" lon="2.8104">
        <ele>559</ele>
        <time>2020-10-03T12:58:01Z</time>
      </trkpt>
      <trkpt lat="43.54087" lon="2.81048">
        <ele>558</ele>
        <time>2020-10-03T12:58:08Z</time>
      </trkpt>
      <trkpt lat="43.54078" lon="2.81053">
        <ele>556</ele>
        <time>2020-10-03T12:58:15Z</time>
      </trkpt>
      <trkpt lat="43.5407" lon="2.81061">
        <ele>553</ele>
        <time>2020-10-03T12:58:21Z</time>
      </trkpt>
      <trkpt lat="43.54062" lon="2.8107">
        <ele>554</ele>
        <time>2020-10-03T12:58:30Z</time>
      </trkpt>
      <trkpt lat="43.54053" lon="2.81075">
        <ele>556</ele>
        <time>2020-10-03T12:58:36Z</time>
      </trkpt>
      <trkpt lat="43.54043" lon="2.81079">
        <ele>554</ele>
        <time>2020-10-03T12:58:43Z</time>
      </trkpt>
      <trkpt lat="43.54034" lon="2.8108">
        <ele>553</ele>
        <time>2020-10-03T12:58:49Z</time>
      </trkpt>
      <trkpt lat="43.54024" lon="2.81082">
        <ele>552</ele>
        <time>2020-10-03T12:58:56Z</time>
      </trkpt>
      <trkpt lat="43.54014" lon="2.81082">
        <ele>552</ele>
        <time>2020-10-03T12:59:02Z</time>
      </trkpt>
      <trkpt lat="43.54009" lon="2.81071">
        <ele>553</ele>
        <time>2020-10-03T12:59:13Z</time>
      </trkpt>
      <trkpt lat="43.54001" lon="2.81061">
        <ele>551</ele>
        <time>2020-10-03T12:59:22Z</time>
      </trkpt>
      <trkpt lat="43.53991" lon="2.8106">
        <ele>548</ele>
        <time>2020-10-03T12:59:29Z</time>
      </trkpt>
      <trkpt lat="43.53981" lon="2.81061">
        <ele>547</ele>
        <time>2020-10-03T12:59:34Z</time>
      </trkpt>
      <trkpt lat="43.53972" lon="2.81065">
        <ele>548</ele>
        <time>2020-10-03T12:59:39Z</time>
      </trkpt>
      <trkpt lat="43.53964" lon="2.81073">
        <ele>550</ele>
        <time>2020-10-03T12:59:44Z</time>
      </trkpt>
      <trkpt lat="43.53956" lon="2.81084">
        <ele>552</ele>
        <time>2020-10-03T12:59:49Z</time>
      </trkpt>
      <trkpt lat="43.53951" lon="2.81096">
        <ele>552</ele>
        <time>2020-10-03T12:59:54Z</time>
      </trkpt>
      <trkpt lat="43.53947" lon="2.81108">
        <ele>551</ele>
        <time>2020-10-03T13:00:00Z</time>
      </trkpt>
      <trkpt lat="43.53943" lon="2.8112">
        <ele>551</ele>
        <time>2020-10-03T13:00:05Z</time>
      </trkpt>
      <trkpt lat="43.53938" lon="2.81134">
        <ele>549</ele>
        <time>2020-10-03T13:00:41Z</time>
      </trkpt>
      <trkpt lat="43.53931" lon="2.81144">
        <ele>549</ele>
        <time>2020-10-03T13:00:50Z</time>
      </trkpt>
      <trkpt lat="43.53926" lon="2.81155">
        <ele>552</ele>
        <time>2020-10-03T13:00:57Z</time>
      </trkpt>
      <trkpt lat="43.5392" lon="2.81167">
        <ele>550</ele>
        <time>2020-10-03T13:01:04Z</time>
      </trkpt>
      <trkpt lat="43.53913" lon="2.81179">
        <ele>548</ele>
        <time>2020-10-03T13:01:12Z</time>
      </trkpt>
      <trkpt lat="43.53906" lon="2.81189">
        <ele>550</ele>
        <time>2020-10-03T13:01:20Z</time>
      </trkpt>
      <trkpt lat="43.53898" lon="2.81197">
        <ele>550</ele>
        <time>2020-10-03T13:01:27Z</time>
      </trkpt>
      <trkpt lat="43.5389" lon="2.81204">
        <ele>551</ele>
        <time>2020-10-03T13:01:33Z</time>
      </trkpt>
      <trkpt lat="43.53882" lon="2.81211">
        <ele>552</ele>
        <time>2020-10-03T13:01:39Z</time>
      </trkpt>
      <trkpt lat="43.53874" lon="2.81218">
        <ele>552</ele>
        <time>2020-10-03T13:01:46Z</time>
      </trkpt>
      <trkpt lat="43.53866" lon="2.81227">
        <ele>554</ele>
        <time>2020-10-03T13:01:54Z</time>
      </trkpt>
      <trkpt lat="43.53857" lon="2.81233">
        <ele>556</ele>
        <time>2020-10-03T13:02:01Z</time>
      </trkpt>
      <trkpt lat="43.53848" lon="2.81239">
        <ele>557</ele>
        <time>2020-10-03T13:02:09Z</time>
      </trkpt>
      <trkpt lat="43.53837" lon="2.81242">
        <ele>555</ele>
        <time>2020-10-03T13:02:16Z</time>
      </trkpt>
      <trkpt lat="43.53827" lon="2.81243">
        <ele>556</ele>
        <time>2020-10-03T13:02:22Z</time>
      </trkpt>
      <trkpt lat="43.53817" lon="2.81247">
        <ele>551</ele>
        <time>2020-10-03T13:02:29Z</time>
      </trkpt>
      <trkpt lat="43.53808" lon="2.81254">
        <ele>550</ele>
        <time>2020-10-03T13:02:36Z</time>
      </trkpt>
      <trkpt lat="43.53798" lon="2.81261">
        <ele>548</ele>
        <time>2020-10-03T13:02:43Z</time>
      </trkpt>
      <trkpt lat="43.53789" lon="2.81269">
        <ele>549</ele>
        <time>2020-10-03T13:02:49Z</time>
      </trkpt>
      <trkpt lat="43.53781" lon="2.81275">
        <ele>547</ele>
        <time>2020-10-03T13:02:55Z</time>
      </trkpt>
      <trkpt lat="43.53772" lon="2.8128">
        <ele>544</ele>
        <time>2020-10-03T13:03:01Z</time>
      </trkpt>
      <trkpt lat="43.53762" lon="2.81285">
        <ele>544</ele>
        <time>2020-10-03T13:03:06Z</time>
      </trkpt>
      <trkpt lat="43.53753" lon="2.81289">
        <ele>546</ele>
        <time>2020-10-03T13:03:11Z</time>
      </trkpt>
      <trkpt lat="43.53743" lon="2.81293">
        <ele>548</ele>
        <time>2020-10-03T13:03:17Z</time>
      </trkpt>
      <trkpt lat="43.53732" lon="2.81295">
        <ele>547</ele>
        <time>2020-10-03T13:03:23Z</time>
      </trkpt>
      <trkpt lat="43.53724" lon="2.81288">
        <ele>545</ele>
        <time>2020-10-03T13:03:28Z</time>
      </trkpt>
      <trkpt lat="43.53717" lon="2.81276">
        <ele>541</ele>
        <time>2020-10-03T13:03:34Z</time>
      </trkpt>
      <trkpt lat="43.53716" lon="2.81263">
        <ele>539</ele>
        <time>2020-10-03T13:03:39Z</time>
      </trkpt>
      <trkpt lat="43.53716" lon="2.81249">
        <ele>535</ele>
        <time>2020-10-03T13:03:46Z</time>
      </trkpt>
      <trkpt lat="43.53715" lon="2.81234">
        <ele>533</ele>
        <time>2020-10-03T13:03:53Z</time>
      </trkpt>
      <trkpt lat="43.53715" lon="2.8122">
        <ele>533</ele>
        <time>2020-10-03T13:04:00Z</time>
      </trkpt>
      <trkpt lat="43.5371" lon="2.81235">
        <ele>532</ele>
        <time>2020-10-03T13:05:52Z</time>
      </trkpt>
      <trkpt lat="43.53706" lon="2.81248">
        <ele>531</ele>
        <time>2020-10-03T13:05:58Z</time>
      </trkpt>
      <trkpt lat="43.53702" lon="2.81261">
        <ele>528</ele>
        <time>2020-10-03T13:06:04Z</time>
      </trkpt>
      <trkpt lat="43.53697" lon="2.81273">
        <ele>524</ele>
        <time>2020-10-03T13:06:11Z</time>
      </trkpt>
      <trkpt lat="43.53686" lon="2.81286">
        <ele>523</ele>
        <time>2020-10-03T13:06:33Z</time>
      </trkpt>
      <trkpt lat="43.53681" lon="2.81298">
        <ele>523</ele>
        <time>2020-10-03T13:06:39Z</time>
      </trkpt>
      <trkpt lat="43.53674" lon="2.81307">
        <ele>524</ele>
        <time>2020-10-03T13:06:46Z</time>
      </trkpt>
      <trkpt lat="43.53668" lon="2.81318">
        <ele>520</ele>
        <time>2020-10-03T13:06:54Z</time>
      </trkpt>
      <trkpt lat="43.53657" lon="2.81325">
        <ele>525</ele>
        <time>2020-10-03T13:07:55Z</time>
      </trkpt>
      <trkpt lat="43.53649" lon="2.81331">
        <ele>527</ele>
        <time>2020-10-03T13:08:04Z</time>
      </trkpt>
      <trkpt lat="43.5364" lon="2.81334">
        <ele>528</ele>
        <time>2020-10-03T13:08:47Z</time>
      </trkpt>
      <trkpt lat="43.5364" lon="2.81318">
        <ele>528</ele>
        <time>2020-10-03T13:09:32Z</time>
      </trkpt>
      <trkpt lat="43.5365" lon="2.81314">
        <ele>527</ele>
        <time>2020-10-03T13:09:40Z</time>
      </trkpt>
      <trkpt lat="43.53659" lon="2.81317">
        <ele>526</ele>
        <time>2020-10-03T13:09:53Z</time>
      </trkpt>
      <trkpt lat="43.53667" lon="2.81309">
        <ele>525</ele>
        <time>2020-10-03T13:10:08Z</time>
      </trkpt>
      <trkpt lat="43.53672" lon="2.81297">
        <ele>523</ele>
        <time>2020-10-03T13:10:18Z</time>
      </trkpt>
      <trkpt lat="43.53669" lon="2.81284">
        <ele>522</ele>
        <time>2020-10-03T13:10:31Z</time>
      </trkpt>
      <trkpt lat="43.5367" lon="2.81271">
        <ele>520</ele>
        <time>2020-10-03T13:10:41Z</time>
      </trkpt>
      <trkpt lat="43.5367" lon="2.81259">
        <ele>517</ele>
        <time>2020-10-03T13:10:48Z</time>
      </trkpt>
      <trkpt lat="43.5367" lon="2.81244">
        <ele>513</ele>
        <time>2020-10-03T13:10:55Z</time>
      </trkpt>
      <trkpt lat="43.5367" lon="2.81231">
        <ele>512</ele>
        <time>2020-10-03T13:11:03Z</time>
      </trkpt>
      <trkpt lat="43.53669" lon="2.81217">
        <ele>509</ele>
        <time>2020-10-03T13:11:11Z</time>
      </trkpt>
      <trkpt lat="43.53669" lon="2.81203">
        <ele>508</ele>
        <time>2020-10-03T13:11:19Z</time>
      </trkpt>
      <trkpt lat="43.5367" lon="2.8119">
        <ele>504</ele>
        <time>2020-10-03T13:11:27Z</time>
      </trkpt>
      <trkpt lat="43.53668" lon="2.81177">
        <ele>503</ele>
        <time>2020-10-03T13:11:36Z</time>
      </trkpt>
      <trkpt lat="43.53666" lon="2.81163">
        <ele>499</ele>
        <time>2020-10-03T13:11:46Z</time>
      </trkpt>
      <trkpt lat="43.53661" lon="2.81151">
        <ele>501</ele>
        <time>2020-10-03T13:11:54Z</time>
      </trkpt>
      <trkpt lat="43.53658" lon="2.81138">
        <ele>499</ele>
        <time>2020-10-03T13:12:02Z</time>
      </trkpt>
      <trkpt lat="43.53657" lon="2.81125">
        <ele>499</ele>
        <time>2020-10-03T13:12:10Z</time>
      </trkpt>
      <trkpt lat="43.53655" lon="2.81112">
        <ele>497</ele>
        <time>2020-10-03T13:12:17Z</time>
      </trkpt>
      <trkpt lat="43.53654" lon="2.811">
        <ele>498</ele>
        <time>2020-10-03T13:12:25Z</time>
      </trkpt>
      <trkpt lat="43.53653" lon="2.81086">
        <ele>495</ele>
        <time>2020-10-03T13:12:35Z</time>
      </trkpt>
      <trkpt lat="43.53652" lon="2.81073">
        <ele>494</ele>
        <time>2020-10-03T13:12:47Z</time>
      </trkpt>
      <trkpt lat="43.53651" lon="2.81059">
        <ele>494</ele>
        <time>2020-10-03T13:12:55Z</time>
      </trkpt>
      <trkpt lat="43.5365" lon="2.81046">
        <ele>491</ele>
        <time>2020-10-03T13:13:02Z</time>
      </trkpt>
      <trkpt lat="43.5365" lon="2.81033">
        <ele>486</ele>
        <time>2020-10-03T13:13:12Z</time>
      </trkpt>
      <trkpt lat="43.53651" lon="2.8102">
        <ele>485</ele>
        <time>2020-10-03T13:13:19Z</time>
      </trkpt>
      <trkpt lat="43.5365" lon="2.81007">
        <ele>482</ele>
        <time>2020-10-03T13:13:28Z</time>
      </trkpt>
      <trkpt lat="43.53647" lon="2.80994">
        <ele>475</ele>
        <time>2020-10-03T13:13:38Z</time>
      </trkpt>
      <trkpt lat="43.53641" lon="2.80982">
        <ele>474</ele>
        <time>2020-10-03T13:13:46Z</time>
      </trkpt>
      <trkpt lat="43.53632" lon="2.80975">
        <ele>468</ele>
        <time>2020-10-03T13:13:54Z</time>
      </trkpt>
      <trkpt lat="43.53623" lon="2.80975">
        <ele>469</ele>
        <time>2020-10-03T13:14:02Z</time>
      </trkpt>
      <trkpt lat="43.53619" lon="2.80963">
        <ele>461</ele>
        <time>2020-10-03T13:14:21Z</time>
      </trkpt>
      <trkpt lat="43.53615" lon="2.80951">
        <ele>456</ele>
        <time>2020-10-03T13:14:33Z</time>
      </trkpt>
      <trkpt lat="43.53612" lon="2.80939">
        <ele>456</ele>
        <time>2020-10-03T13:14:41Z</time>
      </trkpt>
      <trkpt lat="43.53611" lon="2.80926">
        <ele>455</ele>
        <time>2020-10-03T13:14:49Z</time>
      </trkpt>
      <trkpt lat="43.53612" lon="2.80913">
        <ele>457</ele>
        <time>2020-10-03T13:14:57Z</time>
      </trkpt>
      <trkpt lat="43.53613" lon="2.80899">
        <ele>457</ele>
        <time>2020-10-03T13:15:06Z</time>
      </trkpt>
      <trkpt lat="43.53612" lon="2.80886">
        <ele>461</ele>
        <time>2020-10-03T13:15:15Z</time>
      </trkpt>
      <trkpt lat="43.53607" lon="2.80875">
        <ele>459</ele>
        <time>2020-10-03T13:15:23Z</time>
      </trkpt>
      <trkpt lat="43.53606" lon="2.80861">
        <ele>458</ele>
        <time>2020-10-03T13:15:31Z</time>
      </trkpt>
      <trkpt lat="43.53604" lon="2.80848">
        <ele>454</ele>
        <time>2020-10-03T13:15:43Z</time>
      </trkpt>
      <trkpt lat="43.53602" lon="2.80835">
        <ele>452</ele>
        <time>2020-10-03T13:15:50Z</time>
      </trkpt>
      <trkpt lat="43.53602" lon="2.8082">
        <ele>451</ele>
        <time>2020-10-03T13:15:58Z</time>
      </trkpt>
      <trkpt lat="43.53605" lon="2.80807">
        <ele>449</ele>
        <time>2020-10-03T13:16:06Z</time>
      </trkpt>
      <trkpt lat="43.53607" lon="2.80794">
        <ele>446</ele>
        <time>2020-10-03T13:16:14Z</time>
      </trkpt>
      <trkpt lat="43.53608" lon="2.8078">
        <ele>442</ele>
        <time>2020-10-03T13:16:22Z</time>
      </trkpt>
      <trkpt lat="43.53605" lon="2.80768">
        <ele>443</ele>
        <time>2020-10-03T13:16:30Z</time>
      </trkpt>
      <trkpt lat="43.536" lon="2.80756">
        <ele>444</ele>
        <time>2020-10-03T13:16:37Z</time>
      </trkpt>
      <trkpt lat="43.53595" lon="2.80743">
        <ele>442</ele>
        <time>2020-10-03T13:16:45Z</time>
      </trkpt>
      <trkpt lat="43.53591" lon="2.8073">
        <ele>440</ele>
        <time>2020-10-03T13:16:53Z</time>
      </trkpt>
      <trkpt lat="43.53589" lon="2.80717">
        <ele>439</ele>
        <time>2020-10-03T13:17:03Z</time>
      </trkpt>
      <trkpt lat="43.53588" lon="2.80704">
        <ele>435</ele>
        <time>2020-10-03T13:17:11Z</time>
      </trkpt>
      <trkpt lat="43.53584" lon="2.80691">
        <ele>432</ele>
        <time>2020-10-03T13:17:20Z</time>
      </trkpt>
      <trkpt lat="43.53581" lon="2.80678">
        <ele>429</ele>
        <time>2020-10-03T13:17:30Z</time>
      </trkpt>
      <trkpt lat="43.53576" lon="2.80667">
        <ele>430</ele>
        <time>2020-10-03T13:17:37Z</time>
      </trkpt>
      <trkpt lat="43.53573" lon="2.80653">
        <ele>430</ele>
        <time>2020-10-03T13:17:46Z</time>
      </trkpt>
      <trkpt lat="43.53576" lon="2.80641">
        <ele>427</ele>
        <time>2020-10-03T13:17:54Z</time>
      </trkpt>
      <trkpt lat="43.53582" lon="2.8063">
        <ele>424</ele>
        <time>2020-10-03T13:18:05Z</time>
      </trkpt>
      <trkpt lat="43.53578" lon="2.80618">
        <ele>423</ele>
        <time>2020-10-03T13:18:15Z</time>
      </trkpt>
      <trkpt lat="43.53571" lon="2.80609">
        <ele>421</ele>
        <time>2020-10-03T13:18:25Z</time>
      </trkpt>
      <trkpt lat="43.5358" lon="2.80596">
        <ele>419</ele>
        <time>2020-10-03T13:18:42Z</time>
      </trkpt>
      <trkpt lat="43.5359" lon="2.80596">
        <ele>421</ele>
        <time>2020-10-03T13:18:51Z</time>
      </trkpt>
      <trkpt lat="43.53599" lon="2.80604">
        <ele>421</ele>
        <time>2020-10-03T13:18:58Z</time>
      </trkpt>
      <trkpt lat="43.53606" lon="2.80613">
        <ele>417</ele>
        <time>2020-10-03T13:19:04Z</time>
      </trkpt>
      <trkpt lat="43.53614" lon="2.80622">
        <ele>414</ele>
        <time>2020-10-03T13:19:11Z</time>
      </trkpt>
      <trkpt lat="43.5362" lon="2.80631">
        <ele>415</ele>
        <time>2020-10-03T13:19:17Z</time>
      </trkpt>
      <trkpt lat="43.53627" lon="2.8064">
        <ele>412</ele>
        <time>2020-10-03T13:19:25Z</time>
      </trkpt>
      <trkpt lat="43.53635" lon="2.8065">
        <ele>412</ele>
        <time>2020-10-03T13:19:32Z</time>
      </trkpt>
      <trkpt lat="43.53641" lon="2.8066">
        <ele>411</ele>
        <time>2020-10-03T13:19:39Z</time>
      </trkpt>
      <trkpt lat="43.53648" lon="2.80671">
        <ele>411</ele>
        <time>2020-10-03T13:19:46Z</time>
      </trkpt>
      <trkpt lat="43.53655" lon="2.8068">
        <ele>410</ele>
        <time>2020-10-03T13:19:53Z</time>
      </trkpt>
      <trkpt lat="43.53664" lon="2.80687">
        <ele>408</ele>
        <time>2020-10-03T13:20:01Z</time>
      </trkpt>
      <trkpt lat="43.53673" lon="2.80694">
        <ele>406</ele>
        <time>2020-10-03T13:20:09Z</time>
      </trkpt>
      <trkpt lat="43.53682" lon="2.807">
        <ele>402</ele>
        <time>2020-10-03T13:20:18Z</time>
      </trkpt>
      <trkpt lat="43.53692" lon="2.80706">
        <ele>404</ele>
        <time>2020-10-03T13:20:27Z</time>
      </trkpt>
      <trkpt lat="43.53702" lon="2.80709">
        <ele>405</ele>
        <time>2020-10-03T13:20:36Z</time>
      </trkpt>
      <trkpt lat="43.53712" lon="2.8071">
        <ele>401</ele>
        <time>2020-10-03T13:20:43Z</time>
      </trkpt>
      <trkpt lat="43.53722" lon="2.80708">
        <ele>400</ele>
        <time>2020-10-03T13:20:49Z</time>
      </trkpt>
      <trkpt lat="43.53732" lon="2.80706">
        <ele>401</ele>
        <time>2020-10-03T13:20:56Z</time>
      </trkpt>
      <trkpt lat="43.53742" lon="2.80701">
        <ele>398</ele>
        <time>2020-10-03T13:21:03Z</time>
      </trkpt>
      <trkpt lat="43.53752" lon="2.80696">
        <ele>398</ele>
        <time>2020-10-03T13:21:10Z</time>
      </trkpt>
      <trkpt lat="43.53761" lon="2.80695">
        <ele>398</ele>
        <time>2020-10-03T13:21:16Z</time>
      </trkpt>
      <trkpt lat="43.53771" lon="2.8069">
        <ele>399</ele>
        <time>2020-10-03T13:21:24Z</time>
      </trkpt>
      <trkpt lat="43.5378" lon="2.80684">
        <ele>399</ele>
        <time>2020-10-03T13:21:31Z</time>
      </trkpt>
      <trkpt lat="43.53787" lon="2.80674">
        <ele>397</ele>
        <time>2020-10-03T13:21:38Z</time>
      </trkpt>
      <trkpt lat="43.53794" lon="2.80664">
        <ele>395</ele>
        <time>2020-10-03T13:21:45Z</time>
      </trkpt>
      <trkpt lat="43.53801" lon="2.80655">
        <ele>393</ele>
        <time>2020-10-03T13:21:53Z</time>
      </trkpt>
      <trkpt lat="43.53809" lon="2.80648">
        <ele>391</ele>
        <time>2020-10-03T13:22:03Z</time>
      </trkpt>
      <trkpt lat="43.53817" lon="2.8064">
        <ele>388</ele>
        <time>2020-10-03T13:22:12Z</time>
      </trkpt>
      <trkpt lat="43.53825" lon="2.80633">
        <ele>388</ele>
        <time>2020-10-03T13:22:20Z</time>
      </trkpt>
      <trkpt lat="43.53832" lon="2.80625">
        <ele>389</ele>
        <time>2020-10-03T13:22:28Z</time>
      </trkpt>
      <trkpt lat="43.53838" lon="2.80615">
        <ele>391</ele>
        <time>2020-10-03T13:22:35Z</time>
      </trkpt>
      <trkpt lat="43.53847" lon="2.80608">
        <ele>388</ele>
        <time>2020-10-03T13:22:43Z</time>
      </trkpt>
      <trkpt lat="43.53854" lon="2.80599">
        <ele>388</ele>
        <time>2020-10-03T13:22:51Z</time>
      </trkpt>
      <trkpt lat="43.53856" lon="2.80586">
        <ele>392</ele>
        <time>2020-10-03T13:23:04Z</time>
      </trkpt>
      <trkpt lat="43.53856" lon="2.80573">
        <ele>395</ele>
        <time>2020-10-03T13:23:20Z</time>
      </trkpt>
      <trkpt lat="43.53856" lon="2.8056">
        <ele>395</ele>
        <time>2020-10-03T13:23:30Z</time>
      </trkpt>
      <trkpt lat="43.53853" lon="2.80548">
        <ele>399</ele>
        <time>2020-10-03T13:23:39Z</time>
      </trkpt>
      <trkpt lat="43.53854" lon="2.80535">
        <ele>395</ele>
        <time>2020-10-03T13:23:47Z</time>
      </trkpt>
      <trkpt lat="43.53863" lon="2.80527">
        <ele>399</ele>
        <time>2020-10-03T13:23:55Z</time>
      </trkpt>
      <trkpt lat="43.53872" lon="2.80522">
        <ele>399</ele>
        <time>2020-10-03T13:24:03Z</time>
      </trkpt>
      <trkpt lat="43.53879" lon="2.80512">
        <ele>399</ele>
        <time>2020-10-03T13:24:12Z</time>
      </trkpt>
      <trkpt lat="43.53887" lon="2.80504">
        <ele>401</ele>
        <time>2020-10-03T13:24:23Z</time>
      </trkpt>
      <trkpt lat="43.53894" lon="2.80496">
        <ele>404</ele>
        <time>2020-10-03T13:24:34Z</time>
      </trkpt>
      <trkpt lat="43.53901" lon="2.80488">
        <ele>406</ele>
        <time>2020-10-03T13:24:48Z</time>
      </trkpt>
      <trkpt lat="43.53911" lon="2.80485">
        <ele>408</ele>
        <time>2020-10-03T13:24:57Z</time>
      </trkpt>
      <trkpt lat="43.5392" lon="2.80483">
        <ele>408</ele>
        <time>2020-10-03T13:25:06Z</time>
      </trkpt>
      <trkpt lat="43.5393" lon="2.80481">
        <ele>409</ele>
        <time>2020-10-03T13:25:21Z</time>
      </trkpt>
      <trkpt lat="43.53933" lon="2.80469">
        <ele>406</ele>
        <time>2020-10-03T13:25:34Z</time>
      </trkpt>
      <trkpt lat="43.53928" lon="2.80458">
        <ele>408</ele>
        <time>2020-10-03T13:25:45Z</time>
      </trkpt>
      <trkpt lat="43.53921" lon="2.80449">
        <ele>407</ele>
        <time>2020-10-03T13:25:53Z</time>
      </trkpt>
      <trkpt lat="43.53914" lon="2.8044">
        <ele>401</ele>
        <time>2020-10-03T13:26:02Z</time>
      </trkpt>
      <trkpt lat="43.53904" lon="2.80434">
        <ele>401</ele>
        <time>2020-10-03T13:26:10Z</time>
      </trkpt>
      <trkpt lat="43.53894" lon="2.80434">
        <ele>401</ele>
        <time>2020-10-03T13:26:16Z</time>
      </trkpt>
      <trkpt lat="43.53884" lon="2.80436">
        <ele>400</ele>
        <time>2020-10-03T13:26:22Z</time>
      </trkpt>
      <trkpt lat="43.53875" lon="2.80438">
        <ele>403</ele>
        <time>2020-10-03T13:26:29Z</time>
      </trkpt>
      <trkpt lat="43.53865" lon="2.80442">
        <ele>400</ele>
        <time>2020-10-03T13:26:37Z</time>
      </trkpt>
      <trkpt lat="43.53857" lon="2.80448">
        <ele>399</ele>
        <time>2020-10-03T13:26:45Z</time>
      </trkpt>
      <trkpt lat="43.53848" lon="2.80454">
        <ele>409</ele>
        <time>2020-10-03T13:26:51Z</time>
      </trkpt>
      <trkpt lat="43.53839" lon="2.80455">
        <ele>410</ele>
        <time>2020-10-03T13:26:59Z</time>
      </trkpt>
      <trkpt lat="43.53829" lon="2.8045">
        <ele>410</ele>
        <time>2020-10-03T13:27:10Z</time>
      </trkpt>
      <trkpt lat="43.53823" lon="2.80441">
        <ele>418</ele>
        <time>2020-10-03T13:27:21Z</time>
      </trkpt>
      <trkpt lat="43.53818" lon="2.80429">
        <ele>420</ele>
        <time>2020-10-03T13:27:30Z</time>
      </trkpt>
      <trkpt lat="43.53816" lon="2.80416">
        <ele>422</ele>
        <time>2020-10-03T13:27:39Z</time>
      </trkpt>
      <trkpt lat="43.53815" lon="2.80402">
        <ele>427</ele>
        <time>2020-10-03T13:27:47Z</time>
      </trkpt>
      <trkpt lat="43.53812" lon="2.8039">
        <ele>426</ele>
        <time>2020-10-03T13:27:56Z</time>
      </trkpt>
      <trkpt lat="43.53809" lon="2.80377">
        <ele>430</ele>
        <time>2020-10-03T13:28:05Z</time>
      </trkpt>
      <trkpt lat="43.53808" lon="2.80363">
        <ele>427</ele>
        <time>2020-10-03T13:28:14Z</time>
      </trkpt>
      <trkpt lat="43.53804" lon="2.80351">
        <ele>425</ele>
        <time>2020-10-03T13:28:23Z</time>
      </trkpt>
      <trkpt lat="43.53801" lon="2.80339">
        <ele>420</ele>
        <time>2020-10-03T13:28:31Z</time>
      </trkpt>
      <trkpt lat="43.53796" lon="2.80327">
        <ele>419</ele>
        <time>2020-10-03T13:28:39Z</time>
      </trkpt>
      <trkpt lat="43.5379" lon="2.80317">
        <ele>422</ele>
        <time>2020-10-03T13:28:48Z</time>
      </trkpt>
      <trkpt lat="43.53783" lon="2.80307">
        <ele>420</ele>
        <time>2020-10-03T13:28:56Z</time>
      </trkpt>
      <trkpt lat="43.53777" lon="2.80296">
        <ele>422</ele>
        <time>2020-10-03T13:29:04Z</time>
      </trkpt>
      <trkpt lat="43.53772" lon="2.80284">
        <ele>429</ele>
        <time>2020-10-03T13:29:12Z</time>
      </trkpt>
      <trkpt lat="43.53767" lon="2.80273">
        <ele>430</ele>
        <time>2020-10-03T13:29:21Z</time>
      </trkpt>
      <trkpt lat="43.53765" lon="2.8026">
        <ele>432</ele>
        <time>2020-10-03T13:29:32Z</time>
      </trkpt>
      <trkpt lat="43.53762" lon="2.80247">
        <ele>433</ele>
        <time>2020-10-03T13:29:42Z</time>
      </trkpt>
      <trkpt lat="43.53759" lon="2.80234">
        <ele>441</ele>
        <time>2020-10-03T13:29:53Z</time>
      </trkpt>
      <trkpt lat="43.53757" lon="2.80221">
        <ele>444</ele>
        <time>2020-10-03T13:30:03Z</time>
      </trkpt>
      <trkpt lat="43.53756" lon="2.80208">
        <ele>448</ele>
        <time>2020-10-03T13:30:13Z</time>
      </trkpt>
      <trkpt lat="43.53753" lon="2.80195">
        <ele>448</ele>
        <time>2020-10-03T13:30:22Z</time>
      </trkpt>
      <trkpt lat="43.53755" lon="2.80182">
        <ele>452</ele>
        <time>2020-10-03T13:30:31Z</time>
      </trkpt>
      <trkpt lat="43.53753" lon="2.80169">
        <ele>452</ele>
        <time>2020-10-03T13:30:40Z</time>
      </trkpt>
      <trkpt lat="43.53745" lon="2.80157">
        <ele>451</ele>
        <time>2020-10-03T13:33:00Z</time>
      </trkpt>
      <trkpt lat="43.5374" lon="2.80147">
        <ele>454</ele>
        <time>2020-10-03T13:33:23Z</time>
      </trkpt>
      <trkpt lat="43.53736" lon="2.80134">
        <ele>455</ele>
        <time>2020-10-03T13:33:32Z</time>
      </trkpt>
      <trkpt lat="43.53734" lon="2.80121">
        <ele>457</ele>
        <time>2020-10-03T13:33:38Z</time>
      </trkpt>
      <trkpt lat="43.53736" lon="2.80106">
        <ele>455</ele>
        <time>2020-10-03T13:33:44Z</time>
      </trkpt>
      <trkpt lat="43.53736" lon="2.80092">
        <ele>458</ele>
        <time>2020-10-03T13:33:52Z</time>
      </trkpt>
      <trkpt lat="43.5373" lon="2.80082">
        <ele>456</ele>
        <time>2020-10-03T13:34:00Z</time>
      </trkpt>
      <trkpt lat="43.53724" lon="2.80072">
        <ele>456</ele>
        <time>2020-10-03T13:34:08Z</time>
      </trkpt>
      <trkpt lat="43.53715" lon="2.80064">
        <ele>456</ele>
        <time>2020-10-03T13:34:15Z</time>
      </trkpt>
      <trkpt lat="43.53708" lon="2.80056">
        <ele>456</ele>
        <time>2020-10-03T13:34:23Z</time>
      </trkpt>
      <trkpt lat="43.53705" lon="2.80044">
        <ele>457</ele>
        <time>2020-10-03T13:34:31Z</time>
      </trkpt>
      <trkpt lat="43.53699" lon="2.80035">
        <ele>456</ele>
        <time>2020-10-03T13:34:41Z</time>
      </trkpt>
      <trkpt lat="43.53698" lon="2.80022">
        <ele>460</ele>
        <time>2020-10-03T13:34:48Z</time>
      </trkpt>
      <trkpt lat="43.53694" lon="2.80011">
        <ele>464</ele>
        <time>2020-10-03T13:34:56Z</time>
      </trkpt>
      <trkpt lat="43.53688" lon="2.8">
        <ele>463</ele>
        <time>2020-10-03T13:35:05Z</time>
      </trkpt>
      <trkpt lat="43.53684" lon="2.79987">
        <ele>463</ele>
        <time>2020-10-03T13:35:12Z</time>
      </trkpt>
      <trkpt lat="43.53681" lon="2.79975">
        <ele>465</ele>
        <time>2020-10-03T13:35:20Z</time>
      </trkpt>
      <trkpt lat="43.53676" lon="2.79964">
        <ele>465</ele>
        <time>2020-10-03T13:35:27Z</time>
      </trkpt>
      <trkpt lat="43.53672" lon="2.79952">
        <ele>466</ele>
        <time>2020-10-03T13:35:35Z</time>
      </trkpt>
    </trkseg>
  </trk>
</gpx>